<?xml version="1.0" encoding="UTF-8" standalone="no" ?>
<gpx xmlns="http://www.topografix.com/GPX/1/1" xmlns:xsi="http://www.w3.org/2001/XMLSchema-instance" xsi:schemaLocation="http://www.topografix.com/GPX/1/1 http://www.topografix.com/GPX/1/1/gpx.xsd" version="1.1" creator="VisuGPX - https://www.visugpx.com">
  <metadata>
    <name>GR20 20150702 Etape 10 Vizzavona - Capanelle</name>
    <desc><![CDATA[GR20 Etape 10
Météo ensoleillée]]></desc>
  </metadata>
  <trk>
    <name><![CDATA[ACTIVE LOG070211]]></name>
    <trkseg>
      <trkpt lat="42.12831" lon="9.13269">
        <ele>871.778</ele>
        <time>2015-07-02T05:02:09Z</time>
      </trkpt>
      <trkpt lat="42.12831" lon="9.13269">
        <ele>871.778</ele>
        <time>2015-07-02T05:02:10Z</time>
      </trkpt>
      <trkpt lat="42.12831" lon="9.13268">
        <ele>872.893</ele>
        <time>2015-07-02T05:02:12Z</time>
      </trkpt>
      <trkpt lat="42.12832" lon="9.13274">
        <ele>877.098</ele>
        <time>2015-07-02T05:02:18Z</time>
      </trkpt>
      <trkpt lat="42.12829" lon="9.13266">
        <ele>881.646</ele>
        <time>2015-07-02T05:02:21Z</time>
      </trkpt>
      <trkpt lat="42.12828" lon="9.13265">
        <ele>885.638</ele>
        <time>2015-07-02T05:02:25Z</time>
      </trkpt>
      <trkpt lat="42.12826" lon="9.13265">
        <ele>889.056</ele>
        <time>2015-07-02T05:02:28Z</time>
      </trkpt>
      <trkpt lat="42.12825" lon="9.13262">
        <ele>890.472</ele>
        <time>2015-07-02T05:02:30Z</time>
      </trkpt>
      <trkpt lat="42.12823" lon="9.13258">
        <ele>893.43</ele>
        <time>2015-07-02T05:02:32Z</time>
      </trkpt>
      <trkpt lat="42.12821" lon="9.13257">
        <ele>896.522</ele>
        <time>2015-07-02T05:02:35Z</time>
      </trkpt>
      <trkpt lat="42.12819" lon="9.13257">
        <ele>899.844</ele>
        <time>2015-07-02T05:02:39Z</time>
      </trkpt>
      <trkpt lat="42.12821" lon="9.13257">
        <ele>900.553</ele>
        <time>2015-07-02T05:02:41Z</time>
      </trkpt>
      <trkpt lat="42.12822" lon="9.1326">
        <ele>903.962</ele>
        <time>2015-07-02T05:02:45Z</time>
      </trkpt>
      <trkpt lat="42.12822" lon="9.13261">
        <ele>906.261</ele>
        <time>2015-07-02T05:02:47Z</time>
      </trkpt>
      <trkpt lat="42.12823" lon="9.13261">
        <ele>909.881</ele>
        <time>2015-07-02T05:02:51Z</time>
      </trkpt>
      <trkpt lat="42.12824" lon="9.13262">
        <ele>913.286</ele>
        <time>2015-07-02T05:02:57Z</time>
      </trkpt>
      <trkpt lat="42.12826" lon="9.1326">
        <ele>914.809</ele>
        <time>2015-07-02T05:03:00Z</time>
      </trkpt>
      <trkpt lat="42.12826" lon="9.13261">
        <ele>918.021</ele>
        <time>2015-07-02T05:03:04Z</time>
      </trkpt>
      <trkpt lat="42.12826" lon="9.13261">
        <ele>918.205</ele>
        <time>2015-07-02T05:03:05Z</time>
      </trkpt>
      <trkpt lat="42.12827" lon="9.13261">
        <ele>922.211</ele>
        <time>2015-07-02T05:03:10Z</time>
      </trkpt>
      <trkpt lat="42.12827" lon="9.13261">
        <ele>922.401</ele>
        <time>2015-07-02T05:03:11Z</time>
      </trkpt>
      <trkpt lat="42.12828" lon="9.1326">
        <ele>923.868</ele>
        <time>2015-07-02T05:03:14Z</time>
      </trkpt>
      <trkpt lat="42.12828" lon="9.13261">
        <ele>925.717</ele>
        <time>2015-07-02T05:03:17Z</time>
      </trkpt>
      <trkpt lat="42.12828" lon="9.13262">
        <ele>927.686</ele>
        <time>2015-07-02T05:03:21Z</time>
      </trkpt>
      <trkpt lat="42.12828" lon="9.13263">
        <ele>930.702</ele>
        <time>2015-07-02T05:03:28Z</time>
      </trkpt>
      <trkpt lat="42.12826" lon="9.13263">
        <ele>931.375</ele>
        <time>2015-07-02T05:03:52Z</time>
      </trkpt>
      <trkpt lat="42.12826" lon="9.13263">
        <ele>931.363</ele>
        <time>2015-07-02T05:03:58Z</time>
      </trkpt>
      <trkpt lat="42.1281" lon="9.13255">
        <ele>932.907</ele>
        <time>2015-07-02T05:04:20Z</time>
      </trkpt>
      <trkpt lat="42.12804" lon="9.13252">
        <ele>934.798</ele>
        <time>2015-07-02T05:04:29Z</time>
      </trkpt>
      <trkpt lat="42.12796" lon="9.1325">
        <ele>935.085</ele>
        <time>2015-07-02T05:04:38Z</time>
      </trkpt>
      <trkpt lat="42.12791" lon="9.13256">
        <ele>934.69</ele>
        <time>2015-07-02T05:04:44Z</time>
      </trkpt>
      <trkpt lat="42.12783" lon="9.1328">
        <ele>937.208</ele>
        <time>2015-07-02T05:05:05Z</time>
      </trkpt>
      <trkpt lat="42.12788" lon="9.13298">
        <ele>940.512</ele>
        <time>2015-07-02T05:05:25Z</time>
      </trkpt>
      <trkpt lat="42.12781" lon="9.13318">
        <ele>941.01</ele>
        <time>2015-07-02T05:05:44Z</time>
      </trkpt>
      <trkpt lat="42.12766" lon="9.13321">
        <ele>943.083</ele>
        <time>2015-07-02T05:06:04Z</time>
      </trkpt>
      <trkpt lat="42.12763" lon="9.13307">
        <ele>944.297</ele>
        <time>2015-07-02T05:06:16Z</time>
      </trkpt>
      <trkpt lat="42.1275" lon="9.13277">
        <ele>946.079</ele>
        <time>2015-07-02T05:06:39Z</time>
      </trkpt>
      <trkpt lat="42.12746" lon="9.1327">
        <ele>946.193</ele>
        <time>2015-07-02T05:06:45Z</time>
      </trkpt>
      <trkpt lat="42.12737" lon="9.13246">
        <ele>947.121</ele>
        <time>2015-07-02T05:07:04Z</time>
      </trkpt>
      <trkpt lat="42.12731" lon="9.13226">
        <ele>948.497</ele>
        <time>2015-07-02T05:07:22Z</time>
      </trkpt>
      <trkpt lat="42.12724" lon="9.13235">
        <ele>949.47</ele>
        <time>2015-07-02T05:07:38Z</time>
      </trkpt>
      <trkpt lat="42.12724" lon="9.1326">
        <ele>951.356</ele>
        <time>2015-07-02T05:07:58Z</time>
      </trkpt>
      <trkpt lat="42.12723" lon="9.13262">
        <ele>951.471</ele>
        <time>2015-07-02T05:08:00Z</time>
      </trkpt>
      <trkpt lat="42.1271" lon="9.13287">
        <ele>953.069</ele>
        <time>2015-07-02T05:08:23Z</time>
      </trkpt>
      <trkpt lat="42.12699" lon="9.13305">
        <ele>954.603</ele>
        <time>2015-07-02T05:08:42Z</time>
      </trkpt>
      <trkpt lat="42.12691" lon="9.13318">
        <ele>956.027</ele>
        <time>2015-07-02T05:08:58Z</time>
      </trkpt>
      <trkpt lat="42.12686" lon="9.13333">
        <ele>957.285</ele>
        <time>2015-07-02T05:09:13Z</time>
      </trkpt>
      <trkpt lat="42.12677" lon="9.13345">
        <ele>957.853</ele>
        <time>2015-07-02T05:09:32Z</time>
      </trkpt>
      <trkpt lat="42.12664" lon="9.13355">
        <ele>958.571</ele>
        <time>2015-07-02T05:09:47Z</time>
      </trkpt>
      <trkpt lat="42.12652" lon="9.13366">
        <ele>957.434</ele>
        <time>2015-07-02T05:10:03Z</time>
      </trkpt>
      <trkpt lat="42.1264" lon="9.1338">
        <ele>957.733</ele>
        <time>2015-07-02T05:10:18Z</time>
      </trkpt>
      <trkpt lat="42.12638" lon="9.13381">
        <ele>957.511</ele>
        <time>2015-07-02T05:10:21Z</time>
      </trkpt>
      <trkpt lat="42.12637" lon="9.13401">
        <ele>957.615</ele>
        <time>2015-07-02T05:10:36Z</time>
      </trkpt>
      <trkpt lat="42.12639" lon="9.13417">
        <ele>957.795</ele>
        <time>2015-07-02T05:10:48Z</time>
      </trkpt>
      <trkpt lat="42.12642" lon="9.13436">
        <ele>958.986</ele>
        <time>2015-07-02T05:11:03Z</time>
      </trkpt>
      <trkpt lat="42.12635" lon="9.13445">
        <ele>959.731</ele>
        <time>2015-07-02T05:11:16Z</time>
      </trkpt>
      <trkpt lat="42.12617" lon="9.13454">
        <ele>962.221</ele>
        <time>2015-07-02T05:11:34Z</time>
      </trkpt>
      <trkpt lat="42.12603" lon="9.13457">
        <ele>963.983</ele>
        <time>2015-07-02T05:11:52Z</time>
      </trkpt>
      <trkpt lat="42.12595" lon="9.13461">
        <ele>966.23</ele>
        <time>2015-07-02T05:12:09Z</time>
      </trkpt>
      <trkpt lat="42.12587" lon="9.13465">
        <ele>968.52</ele>
        <time>2015-07-02T05:12:26Z</time>
      </trkpt>
      <trkpt lat="42.12572" lon="9.13466">
        <ele>970.128</ele>
        <time>2015-07-02T05:12:42Z</time>
      </trkpt>
      <trkpt lat="42.12565" lon="9.13466">
        <ele>971.355</ele>
        <time>2015-07-02T05:12:54Z</time>
      </trkpt>
      <trkpt lat="42.12558" lon="9.13467">
        <ele>972.05</ele>
        <time>2015-07-02T05:13:06Z</time>
      </trkpt>
      <trkpt lat="42.12546" lon="9.1347">
        <ele>973.991</ele>
        <time>2015-07-02T05:13:24Z</time>
      </trkpt>
      <trkpt lat="42.12538" lon="9.13476">
        <ele>976.092</ele>
        <time>2015-07-02T05:13:41Z</time>
      </trkpt>
      <trkpt lat="42.1253" lon="9.13479">
        <ele>977.308</ele>
        <time>2015-07-02T05:13:54Z</time>
      </trkpt>
      <trkpt lat="42.12523" lon="9.13484">
        <ele>978.99</ele>
        <time>2015-07-02T05:14:08Z</time>
      </trkpt>
      <trkpt lat="42.1251" lon="9.13483">
        <ele>980.685</ele>
        <time>2015-07-02T05:14:25Z</time>
      </trkpt>
      <trkpt lat="42.12504" lon="9.13484">
        <ele>981.967</ele>
        <time>2015-07-02T05:14:39Z</time>
      </trkpt>
      <trkpt lat="42.12498" lon="9.13491">
        <ele>983.646</ele>
        <time>2015-07-02T05:14:53Z</time>
      </trkpt>
      <trkpt lat="42.12492" lon="9.13494">
        <ele>983.859</ele>
        <time>2015-07-02T05:15:06Z</time>
      </trkpt>
      <trkpt lat="42.12491" lon="9.13498">
        <ele>985.044</ele>
        <time>2015-07-02T05:15:22Z</time>
      </trkpt>
      <trkpt lat="42.1248" lon="9.13502">
        <ele>987.311</ele>
        <time>2015-07-02T05:15:40Z</time>
      </trkpt>
      <trkpt lat="42.12471" lon="9.13506">
        <ele>988.681</ele>
        <time>2015-07-02T05:15:54Z</time>
      </trkpt>
      <trkpt lat="42.12461" lon="9.13514">
        <ele>991.035</ele>
        <time>2015-07-02T05:16:11Z</time>
      </trkpt>
      <trkpt lat="42.12453" lon="9.13523">
        <ele>992.742</ele>
        <time>2015-07-02T05:16:26Z</time>
      </trkpt>
      <trkpt lat="42.12451" lon="9.13529">
        <ele>994.28</ele>
        <time>2015-07-02T05:16:42Z</time>
      </trkpt>
      <trkpt lat="42.12446" lon="9.13541">
        <ele>995.498</ele>
        <time>2015-07-02T05:16:57Z</time>
      </trkpt>
      <trkpt lat="42.12451" lon="9.13539">
        <ele>996.971</ele>
        <time>2015-07-02T05:17:10Z</time>
      </trkpt>
      <trkpt lat="42.12456" lon="9.13537">
        <ele>998.657</ele>
        <time>2015-07-02T05:17:22Z</time>
      </trkpt>
      <trkpt lat="42.12467" lon="9.13529">
        <ele>999.352</ele>
        <time>2015-07-02T05:17:38Z</time>
      </trkpt>
      <trkpt lat="42.12478" lon="9.13526">
        <ele>1000.475</ele>
        <time>2015-07-02T05:17:53Z</time>
      </trkpt>
      <trkpt lat="42.1249" lon="9.13534">
        <ele>1001.109</ele>
        <time>2015-07-02T05:18:06Z</time>
      </trkpt>
      <trkpt lat="42.12498" lon="9.13544">
        <ele>1002.207</ele>
        <time>2015-07-02T05:18:16Z</time>
      </trkpt>
      <trkpt lat="42.12507" lon="9.13551">
        <ele>1002.826</ele>
        <time>2015-07-02T05:18:24Z</time>
      </trkpt>
      <trkpt lat="42.1252" lon="9.13562">
        <ele>1003.23</ele>
        <time>2015-07-02T05:18:36Z</time>
      </trkpt>
      <trkpt lat="42.12529" lon="9.1357">
        <ele>1004.888</ele>
        <time>2015-07-02T05:18:51Z</time>
      </trkpt>
      <trkpt lat="42.12541" lon="9.13577">
        <ele>1005.452</ele>
        <time>2015-07-02T05:19:05Z</time>
      </trkpt>
      <trkpt lat="42.12551" lon="9.13583">
        <ele>1005.496</ele>
        <time>2015-07-02T05:19:16Z</time>
      </trkpt>
      <trkpt lat="42.12561" lon="9.13593">
        <ele>1006.198</ele>
        <time>2015-07-02T05:19:28Z</time>
      </trkpt>
      <trkpt lat="42.12569" lon="9.13598">
        <ele>1006.678</ele>
        <time>2015-07-02T05:19:39Z</time>
      </trkpt>
      <trkpt lat="42.12578" lon="9.13606">
        <ele>1007.106</ele>
        <time>2015-07-02T05:19:50Z</time>
      </trkpt>
      <trkpt lat="42.12589" lon="9.13619">
        <ele>1007.897</ele>
        <time>2015-07-02T05:20:02Z</time>
      </trkpt>
      <trkpt lat="42.12596" lon="9.13641">
        <ele>1008.844</ele>
        <time>2015-07-02T05:20:19Z</time>
      </trkpt>
      <trkpt lat="42.12597" lon="9.13648">
        <ele>1008.469</ele>
        <time>2015-07-02T05:20:23Z</time>
      </trkpt>
      <trkpt lat="42.12592" lon="9.13665">
        <ele>1008.344</ele>
        <time>2015-07-02T05:20:36Z</time>
      </trkpt>
      <trkpt lat="42.12588" lon="9.13683">
        <ele>1008.347</ele>
        <time>2015-07-02T05:20:51Z</time>
      </trkpt>
      <trkpt lat="42.12591" lon="9.13688">
        <ele>1008.211</ele>
        <time>2015-07-02T05:20:55Z</time>
      </trkpt>
      <trkpt lat="42.12597" lon="9.13702">
        <ele>1009.36</ele>
        <time>2015-07-02T05:21:09Z</time>
      </trkpt>
      <trkpt lat="42.12602" lon="9.13708">
        <ele>1009.602</ele>
        <time>2015-07-02T05:21:21Z</time>
      </trkpt>
      <trkpt lat="42.12613" lon="9.13715">
        <ele>1011.609</ele>
        <time>2015-07-02T05:21:37Z</time>
      </trkpt>
      <trkpt lat="42.12622" lon="9.13724">
        <ele>1013.073</ele>
        <time>2015-07-02T05:21:51Z</time>
      </trkpt>
      <trkpt lat="42.1263" lon="9.13731">
        <ele>1013.419</ele>
        <time>2015-07-02T05:22:04Z</time>
      </trkpt>
      <trkpt lat="42.12641" lon="9.1374">
        <ele>1014.652</ele>
        <time>2015-07-02T05:22:16Z</time>
      </trkpt>
      <trkpt lat="42.12651" lon="9.13747">
        <ele>1015.487</ele>
        <time>2015-07-02T05:22:29Z</time>
      </trkpt>
      <trkpt lat="42.12661" lon="9.13757">
        <ele>1017.701</ele>
        <time>2015-07-02T05:22:43Z</time>
      </trkpt>
      <trkpt lat="42.12673" lon="9.13768">
        <ele>1020.006</ele>
        <time>2015-07-02T05:22:59Z</time>
      </trkpt>
      <trkpt lat="42.12684" lon="9.13785">
        <ele>1021.289</ele>
        <time>2015-07-02T05:23:17Z</time>
      </trkpt>
      <trkpt lat="42.12695" lon="9.13798">
        <ele>1023.381</ele>
        <time>2015-07-02T05:23:35Z</time>
      </trkpt>
      <trkpt lat="42.12705" lon="9.13809">
        <ele>1022.914</ele>
        <time>2015-07-02T05:23:47Z</time>
      </trkpt>
      <trkpt lat="42.12714" lon="9.13821">
        <ele>1023.666</ele>
        <time>2015-07-02T05:24:03Z</time>
      </trkpt>
      <trkpt lat="42.12715" lon="9.13822">
        <ele>1024.082</ele>
        <time>2015-07-02T05:24:04Z</time>
      </trkpt>
      <trkpt lat="42.12719" lon="9.13847">
        <ele>1023.993</ele>
        <time>2015-07-02T05:24:22Z</time>
      </trkpt>
      <trkpt lat="42.12721" lon="9.13858">
        <ele>1024.728</ele>
        <time>2015-07-02T05:24:31Z</time>
      </trkpt>
      <trkpt lat="42.12726" lon="9.13868">
        <ele>1025.061</ele>
        <time>2015-07-02T05:24:43Z</time>
      </trkpt>
      <trkpt lat="42.12736" lon="9.13868">
        <ele>1026.008</ele>
        <time>2015-07-02T05:24:56Z</time>
      </trkpt>
      <trkpt lat="42.12752" lon="9.13874">
        <ele>1028.132</ele>
        <time>2015-07-02T05:25:14Z</time>
      </trkpt>
      <trkpt lat="42.12763" lon="9.13878">
        <ele>1030.333</ele>
        <time>2015-07-02T05:25:29Z</time>
      </trkpt>
      <trkpt lat="42.12774" lon="9.13897">
        <ele>1031.972</ele>
        <time>2015-07-02T05:25:48Z</time>
      </trkpt>
      <trkpt lat="42.1278" lon="9.13908">
        <ele>1033.82</ele>
        <time>2015-07-02T05:25:57Z</time>
      </trkpt>
      <trkpt lat="42.12791" lon="9.13931">
        <ele>1033.21</ele>
        <time>2015-07-02T05:26:15Z</time>
      </trkpt>
      <trkpt lat="42.12802" lon="9.13961">
        <ele>1032.645</ele>
        <time>2015-07-02T05:26:37Z</time>
      </trkpt>
      <trkpt lat="42.1281" lon="9.13982">
        <ele>1032.955</ele>
        <time>2015-07-02T05:26:53Z</time>
      </trkpt>
      <trkpt lat="42.12826" lon="9.14005">
        <ele>1033.739</ele>
        <time>2015-07-02T05:27:16Z</time>
      </trkpt>
      <trkpt lat="42.12839" lon="9.14031">
        <ele>1034.03</ele>
        <time>2015-07-02T05:27:39Z</time>
      </trkpt>
      <trkpt lat="42.12842" lon="9.14041">
        <ele>1034.534</ele>
        <time>2015-07-02T05:27:47Z</time>
      </trkpt>
      <trkpt lat="42.12851" lon="9.14071">
        <ele>1034.153</ele>
        <time>2015-07-02T05:28:07Z</time>
      </trkpt>
      <trkpt lat="42.12852" lon="9.14084">
        <ele>1033.784</ele>
        <time>2015-07-02T05:28:16Z</time>
      </trkpt>
      <trkpt lat="42.1286" lon="9.14113">
        <ele>1034.38</ele>
        <time>2015-07-02T05:28:36Z</time>
      </trkpt>
      <trkpt lat="42.12875" lon="9.14126">
        <ele>1035.167</ele>
        <time>2015-07-02T05:28:55Z</time>
      </trkpt>
      <trkpt lat="42.12889" lon="9.14148">
        <ele>1035.856</ele>
        <time>2015-07-02T05:29:14Z</time>
      </trkpt>
      <trkpt lat="42.12894" lon="9.14159">
        <ele>1035.85</ele>
        <time>2015-07-02T05:29:22Z</time>
      </trkpt>
      <trkpt lat="42.12895" lon="9.14162">
        <ele>1036.333</ele>
        <time>2015-07-02T05:29:24Z</time>
      </trkpt>
      <trkpt lat="42.12897" lon="9.14168">
        <ele>1036.212</ele>
        <time>2015-07-02T05:29:28Z</time>
      </trkpt>
      <trkpt lat="42.12903" lon="9.14196">
        <ele>1037.192</ele>
        <time>2015-07-02T05:29:48Z</time>
      </trkpt>
      <trkpt lat="42.12914" lon="9.14207">
        <ele>1037.911</ele>
        <time>2015-07-02T05:30:07Z</time>
      </trkpt>
      <trkpt lat="42.12919" lon="9.14202">
        <ele>1037.638</ele>
        <time>2015-07-02T05:30:13Z</time>
      </trkpt>
      <trkpt lat="42.12935" lon="9.14191">
        <ele>1038.659</ele>
        <time>2015-07-02T05:30:33Z</time>
      </trkpt>
      <trkpt lat="42.12946" lon="9.14181">
        <ele>1039.821</ele>
        <time>2015-07-02T05:30:48Z</time>
      </trkpt>
      <trkpt lat="42.12951" lon="9.1418">
        <ele>1039.568</ele>
        <time>2015-07-02T05:30:53Z</time>
      </trkpt>
      <trkpt lat="42.12969" lon="9.14172">
        <ele>1041.202</ele>
        <time>2015-07-02T05:31:08Z</time>
      </trkpt>
      <trkpt lat="42.12975" lon="9.14173">
        <ele>1041.941</ele>
        <time>2015-07-02T05:31:13Z</time>
      </trkpt>
      <trkpt lat="42.12978" lon="9.14173">
        <ele>1041.407</ele>
        <time>2015-07-02T05:31:16Z</time>
      </trkpt>
      <trkpt lat="42.13001" lon="9.14169">
        <ele>1043.048</ele>
        <time>2015-07-02T05:31:38Z</time>
      </trkpt>
      <trkpt lat="42.1302" lon="9.14174">
        <ele>1043.927</ele>
        <time>2015-07-02T05:31:56Z</time>
      </trkpt>
      <trkpt lat="42.1304" lon="9.14168">
        <ele>1045.49</ele>
        <time>2015-07-02T05:32:15Z</time>
      </trkpt>
      <trkpt lat="42.13059" lon="9.14163">
        <ele>1046.652</ele>
        <time>2015-07-02T05:32:36Z</time>
      </trkpt>
      <trkpt lat="42.13075" lon="9.14157">
        <ele>1048.013</ele>
        <time>2015-07-02T05:32:52Z</time>
      </trkpt>
      <trkpt lat="42.13087" lon="9.14153">
        <ele>1049.002</ele>
        <time>2015-07-02T05:33:04Z</time>
      </trkpt>
      <trkpt lat="42.13093" lon="9.14156">
        <ele>1049.846</ele>
        <time>2015-07-02T05:33:09Z</time>
      </trkpt>
      <trkpt lat="42.13097" lon="9.14164">
        <ele>1049.941</ele>
        <time>2015-07-02T05:33:14Z</time>
      </trkpt>
      <trkpt lat="42.13079" lon="9.1418">
        <ele>1050.917</ele>
        <time>2015-07-02T05:33:35Z</time>
      </trkpt>
      <trkpt lat="42.13064" lon="9.14194">
        <ele>1051.042</ele>
        <time>2015-07-02T05:33:54Z</time>
      </trkpt>
      <trkpt lat="42.13049" lon="9.14206">
        <ele>1052.06</ele>
        <time>2015-07-02T05:34:12Z</time>
      </trkpt>
      <trkpt lat="42.13037" lon="9.1422">
        <ele>1055.224</ele>
        <time>2015-07-02T05:34:28Z</time>
      </trkpt>
      <trkpt lat="42.13029" lon="9.14232">
        <ele>1055.332</ele>
        <time>2015-07-02T05:34:42Z</time>
      </trkpt>
      <trkpt lat="42.13026" lon="9.14232">
        <ele>1055.49</ele>
        <time>2015-07-02T05:34:45Z</time>
      </trkpt>
      <trkpt lat="42.13017" lon="9.14234">
        <ele>1057.1</ele>
        <time>2015-07-02T05:34:55Z</time>
      </trkpt>
      <trkpt lat="42.13005" lon="9.14236">
        <ele>1057.52</ele>
        <time>2015-07-02T05:35:04Z</time>
      </trkpt>
      <trkpt lat="42.12991" lon="9.14237">
        <ele>1058.575</ele>
        <time>2015-07-02T05:35:19Z</time>
      </trkpt>
      <trkpt lat="42.12981" lon="9.14249">
        <ele>1059.351</ele>
        <time>2015-07-02T05:35:36Z</time>
      </trkpt>
      <trkpt lat="42.12975" lon="9.14251">
        <ele>1060.591</ele>
        <time>2015-07-02T05:35:48Z</time>
      </trkpt>
      <trkpt lat="42.12983" lon="9.14243">
        <ele>1062.903</ele>
        <time>2015-07-02T05:36:06Z</time>
      </trkpt>
      <trkpt lat="42.12985" lon="9.14241">
        <ele>1063.072</ele>
        <time>2015-07-02T05:36:09Z</time>
      </trkpt>
      <trkpt lat="42.12989" lon="9.1423">
        <ele>1062.994</ele>
        <time>2015-07-02T05:36:20Z</time>
      </trkpt>
      <trkpt lat="42.12997" lon="9.14236">
        <ele>1063.717</ele>
        <time>2015-07-02T05:36:32Z</time>
      </trkpt>
      <trkpt lat="42.13004" lon="9.14239">
        <ele>1064.5</ele>
        <time>2015-07-02T05:36:42Z</time>
      </trkpt>
      <trkpt lat="42.13013" lon="9.14249">
        <ele>1065.218</ele>
        <time>2015-07-02T05:36:59Z</time>
      </trkpt>
      <trkpt lat="42.13018" lon="9.14252">
        <ele>1065.733</ele>
        <time>2015-07-02T05:37:09Z</time>
      </trkpt>
      <trkpt lat="42.13027" lon="9.14254">
        <ele>1066.868</ele>
        <time>2015-07-02T05:37:20Z</time>
      </trkpt>
      <trkpt lat="42.13036" lon="9.14255">
        <ele>1068.522</ele>
        <time>2015-07-02T05:37:32Z</time>
      </trkpt>
      <trkpt lat="42.13044" lon="9.14256">
        <ele>1070.537</ele>
        <time>2015-07-02T05:37:46Z</time>
      </trkpt>
      <trkpt lat="42.13051" lon="9.14253">
        <ele>1072.294</ele>
        <time>2015-07-02T05:37:58Z</time>
      </trkpt>
      <trkpt lat="42.13061" lon="9.14249">
        <ele>1073.488</ele>
        <time>2015-07-02T05:38:11Z</time>
      </trkpt>
      <trkpt lat="42.13071" lon="9.14246">
        <ele>1074.709</ele>
        <time>2015-07-02T05:38:26Z</time>
      </trkpt>
      <trkpt lat="42.13077" lon="9.14239">
        <ele>1075.382</ele>
        <time>2015-07-02T05:38:37Z</time>
      </trkpt>
      <trkpt lat="42.13086" lon="9.14241">
        <ele>1076.334</ele>
        <time>2015-07-02T05:38:49Z</time>
      </trkpt>
      <trkpt lat="42.13096" lon="9.1425">
        <ele>1077.815</ele>
        <time>2015-07-02T05:39:02Z</time>
      </trkpt>
      <trkpt lat="42.13103" lon="9.14258">
        <ele>1079.99</ele>
        <time>2015-07-02T05:39:17Z</time>
      </trkpt>
      <trkpt lat="42.131" lon="9.14266">
        <ele>1081.011</ele>
        <time>2015-07-02T05:39:30Z</time>
      </trkpt>
      <trkpt lat="42.13095" lon="9.14274">
        <ele>1082.756</ele>
        <time>2015-07-02T05:39:42Z</time>
      </trkpt>
      <trkpt lat="42.13092" lon="9.14283">
        <ele>1084.365</ele>
        <time>2015-07-02T05:39:54Z</time>
      </trkpt>
      <trkpt lat="42.13086" lon="9.14289">
        <ele>1085.631</ele>
        <time>2015-07-02T05:40:05Z</time>
      </trkpt>
      <trkpt lat="42.13079" lon="9.14298">
        <ele>1087.417</ele>
        <time>2015-07-02T05:40:18Z</time>
      </trkpt>
      <trkpt lat="42.1307" lon="9.14309">
        <ele>1088.608</ele>
        <time>2015-07-02T05:40:32Z</time>
      </trkpt>
      <trkpt lat="42.13062" lon="9.14317">
        <ele>1090.417</ele>
        <time>2015-07-02T05:40:46Z</time>
      </trkpt>
      <trkpt lat="42.1306" lon="9.14326">
        <ele>1091.203</ele>
        <time>2015-07-02T05:40:59Z</time>
      </trkpt>
      <trkpt lat="42.1305" lon="9.14339">
        <ele>1093.677</ele>
        <time>2015-07-02T05:41:18Z</time>
      </trkpt>
      <trkpt lat="42.13043" lon="9.14348">
        <ele>1094.733</ele>
        <time>2015-07-02T05:41:33Z</time>
      </trkpt>
      <trkpt lat="42.13034" lon="9.14358">
        <ele>1096.1</ele>
        <time>2015-07-02T05:41:48Z</time>
      </trkpt>
      <trkpt lat="42.13028" lon="9.14367">
        <ele>1098.128</ele>
        <time>2015-07-02T05:42:03Z</time>
      </trkpt>
      <trkpt lat="42.13021" lon="9.14377">
        <ele>1099.852</ele>
        <time>2015-07-02T05:42:20Z</time>
      </trkpt>
      <trkpt lat="42.13017" lon="9.14388">
        <ele>1102.361</ele>
        <time>2015-07-02T05:42:35Z</time>
      </trkpt>
      <trkpt lat="42.13011" lon="9.14396">
        <ele>1104.481</ele>
        <time>2015-07-02T05:42:48Z</time>
      </trkpt>
      <trkpt lat="42.13004" lon="9.14404">
        <ele>1105.23</ele>
        <time>2015-07-02T05:43:04Z</time>
      </trkpt>
      <trkpt lat="42.12998" lon="9.14411">
        <ele>1106.644</ele>
        <time>2015-07-02T05:43:18Z</time>
      </trkpt>
      <trkpt lat="42.12992" lon="9.14419">
        <ele>1107.855</ele>
        <time>2015-07-02T05:43:32Z</time>
      </trkpt>
      <trkpt lat="42.12984" lon="9.14429">
        <ele>1110.179</ele>
        <time>2015-07-02T05:43:48Z</time>
      </trkpt>
      <trkpt lat="42.12984" lon="9.14429">
        <ele>1111.553</ele>
        <time>2015-07-02T05:43:51Z</time>
      </trkpt>
      <trkpt lat="42.12977" lon="9.14435">
        <ele>1112.549</ele>
        <time>2015-07-02T05:44:02Z</time>
      </trkpt>
      <trkpt lat="42.12973" lon="9.14446">
        <ele>1113.644</ele>
        <time>2015-07-02T05:44:16Z</time>
      </trkpt>
      <trkpt lat="42.12973" lon="9.14448">
        <ele>1116.058</ele>
        <time>2015-07-02T05:44:30Z</time>
      </trkpt>
      <trkpt lat="42.12979" lon="9.14442">
        <ele>1117.21</ele>
        <time>2015-07-02T05:44:46Z</time>
      </trkpt>
      <trkpt lat="42.12985" lon="9.14439">
        <ele>1118.191</ele>
        <time>2015-07-02T05:44:59Z</time>
      </trkpt>
      <trkpt lat="42.12994" lon="9.1444">
        <ele>1119.86</ele>
        <time>2015-07-02T05:45:12Z</time>
      </trkpt>
      <trkpt lat="42.13003" lon="9.1444">
        <ele>1121.863</ele>
        <time>2015-07-02T05:45:27Z</time>
      </trkpt>
      <trkpt lat="42.13006" lon="9.1444">
        <ele>1122.658</ele>
        <time>2015-07-02T05:45:32Z</time>
      </trkpt>
      <trkpt lat="42.13015" lon="9.14439">
        <ele>1123.696</ele>
        <time>2015-07-02T05:45:44Z</time>
      </trkpt>
      <trkpt lat="42.13026" lon="9.1443">
        <ele>1124.996</ele>
        <time>2015-07-02T05:45:57Z</time>
      </trkpt>
      <trkpt lat="42.13034" lon="9.14433">
        <ele>1126.026</ele>
        <time>2015-07-02T05:46:09Z</time>
      </trkpt>
      <trkpt lat="42.13042" lon="9.14436">
        <ele>1126.995</ele>
        <time>2015-07-02T05:46:22Z</time>
      </trkpt>
      <trkpt lat="42.13052" lon="9.14427">
        <ele>1130.208</ele>
        <time>2015-07-02T05:46:39Z</time>
      </trkpt>
      <trkpt lat="42.13059" lon="9.14429">
        <ele>1130.557</ele>
        <time>2015-07-02T05:46:50Z</time>
      </trkpt>
      <trkpt lat="42.13075" lon="9.14431">
        <ele>1133.234</ele>
        <time>2015-07-02T05:47:11Z</time>
      </trkpt>
      <trkpt lat="42.13085" lon="9.14434">
        <ele>1135.336</ele>
        <time>2015-07-02T05:47:26Z</time>
      </trkpt>
      <trkpt lat="42.1309" lon="9.14434">
        <ele>1136.456</ele>
        <time>2015-07-02T05:47:36Z</time>
      </trkpt>
      <trkpt lat="42.13098" lon="9.14435">
        <ele>1138.362</ele>
        <time>2015-07-02T05:47:50Z</time>
      </trkpt>
      <trkpt lat="42.13107" lon="9.14435">
        <ele>1139.714</ele>
        <time>2015-07-02T05:48:05Z</time>
      </trkpt>
      <trkpt lat="42.13119" lon="9.14428">
        <ele>1140.667</ele>
        <time>2015-07-02T05:48:21Z</time>
      </trkpt>
      <trkpt lat="42.13128" lon="9.14428">
        <ele>1142.516</ele>
        <time>2015-07-02T05:48:36Z</time>
      </trkpt>
      <trkpt lat="42.1314" lon="9.14426">
        <ele>1143.25</ele>
        <time>2015-07-02T05:48:51Z</time>
      </trkpt>
      <trkpt lat="42.13147" lon="9.14429">
        <ele>1145.567</ele>
        <time>2015-07-02T05:49:04Z</time>
      </trkpt>
      <trkpt lat="42.13154" lon="9.14444">
        <ele>1147.142</ele>
        <time>2015-07-02T05:49:16Z</time>
      </trkpt>
      <trkpt lat="42.13165" lon="9.14454">
        <ele>1148.757</ele>
        <time>2015-07-02T05:49:30Z</time>
      </trkpt>
      <trkpt lat="42.13167" lon="9.14466">
        <ele>1149.445</ele>
        <time>2015-07-02T05:49:43Z</time>
      </trkpt>
      <trkpt lat="42.13163" lon="9.14474">
        <ele>1150.538</ele>
        <time>2015-07-02T05:49:56Z</time>
      </trkpt>
      <trkpt lat="42.13161" lon="9.14484">
        <ele>1152.14</ele>
        <time>2015-07-02T05:50:12Z</time>
      </trkpt>
      <trkpt lat="42.13153" lon="9.14494">
        <ele>1153.43</ele>
        <time>2015-07-02T05:50:26Z</time>
      </trkpt>
      <trkpt lat="42.1315" lon="9.14501">
        <ele>1155.128</ele>
        <time>2015-07-02T05:50:37Z</time>
      </trkpt>
      <trkpt lat="42.1315" lon="9.14511">
        <ele>1157.137</ele>
        <time>2015-07-02T05:50:51Z</time>
      </trkpt>
      <trkpt lat="42.13151" lon="9.14515">
        <ele>1158.169</ele>
        <time>2015-07-02T05:50:56Z</time>
      </trkpt>
      <trkpt lat="42.1315" lon="9.14522">
        <ele>1159.252</ele>
        <time>2015-07-02T05:51:07Z</time>
      </trkpt>
      <trkpt lat="42.13155" lon="9.14529">
        <ele>1161.054</ele>
        <time>2015-07-02T05:51:21Z</time>
      </trkpt>
      <trkpt lat="42.13152" lon="9.14536">
        <ele>1162.517</ele>
        <time>2015-07-02T05:51:36Z</time>
      </trkpt>
      <trkpt lat="42.13144" lon="9.14542">
        <ele>1164.603</ele>
        <time>2015-07-02T05:51:54Z</time>
      </trkpt>
      <trkpt lat="42.13138" lon="9.14549">
        <ele>1166.526</ele>
        <time>2015-07-02T05:52:12Z</time>
      </trkpt>
      <trkpt lat="42.13135" lon="9.14553">
        <ele>1168.628</ele>
        <time>2015-07-02T05:52:23Z</time>
      </trkpt>
      <trkpt lat="42.13128" lon="9.14559">
        <ele>1170.363</ele>
        <time>2015-07-02T05:52:39Z</time>
      </trkpt>
      <trkpt lat="42.13127" lon="9.14562">
        <ele>1171.466</ele>
        <time>2015-07-02T05:52:51Z</time>
      </trkpt>
      <trkpt lat="42.13122" lon="9.14568">
        <ele>1172.608</ele>
        <time>2015-07-02T05:53:06Z</time>
      </trkpt>
      <trkpt lat="42.13119" lon="9.14575">
        <ele>1174.615</ele>
        <time>2015-07-02T05:53:20Z</time>
      </trkpt>
      <trkpt lat="42.13123" lon="9.14574">
        <ele>1176.212</ele>
        <time>2015-07-02T05:53:33Z</time>
      </trkpt>
      <trkpt lat="42.13126" lon="9.14581">
        <ele>1176.808</ele>
        <time>2015-07-02T05:53:49Z</time>
      </trkpt>
      <trkpt lat="42.13118" lon="9.14589">
        <ele>1177.275</ele>
        <time>2015-07-02T05:54:03Z</time>
      </trkpt>
      <trkpt lat="42.13115" lon="9.14596">
        <ele>1180.04</ele>
        <time>2015-07-02T05:54:16Z</time>
      </trkpt>
      <trkpt lat="42.13113" lon="9.14603">
        <ele>1181.527</ele>
        <time>2015-07-02T05:54:29Z</time>
      </trkpt>
      <trkpt lat="42.13111" lon="9.1461">
        <ele>1183.792</ele>
        <time>2015-07-02T05:54:43Z</time>
      </trkpt>
      <trkpt lat="42.13108" lon="9.14617">
        <ele>1185.54</ele>
        <time>2015-07-02T05:54:58Z</time>
      </trkpt>
      <trkpt lat="42.13104" lon="9.14623">
        <ele>1186.81</ele>
        <time>2015-07-02T05:55:09Z</time>
      </trkpt>
      <trkpt lat="42.13102" lon="9.14625">
        <ele>1186.952</ele>
        <time>2015-07-02T05:55:14Z</time>
      </trkpt>
      <trkpt lat="42.13097" lon="9.14632">
        <ele>1187.866</ele>
        <time>2015-07-02T05:55:28Z</time>
      </trkpt>
      <trkpt lat="42.13092" lon="9.1464">
        <ele>1188.916</ele>
        <time>2015-07-02T05:55:40Z</time>
      </trkpt>
      <trkpt lat="42.13088" lon="9.1465">
        <ele>1190.567</ele>
        <time>2015-07-02T05:55:54Z</time>
      </trkpt>
      <trkpt lat="42.13081" lon="9.14657">
        <ele>1192.548</ele>
        <time>2015-07-02T05:56:10Z</time>
      </trkpt>
      <trkpt lat="42.1307" lon="9.14657">
        <ele>1194.846</ele>
        <time>2015-07-02T05:56:26Z</time>
      </trkpt>
      <trkpt lat="42.1306" lon="9.14659">
        <ele>1195.867</ele>
        <time>2015-07-02T05:56:39Z</time>
      </trkpt>
      <trkpt lat="42.13057" lon="9.14662">
        <ele>1197.032</ele>
        <time>2015-07-02T05:56:52Z</time>
      </trkpt>
      <trkpt lat="42.13057" lon="9.14667">
        <ele>1198.216</ele>
        <time>2015-07-02T05:57:07Z</time>
      </trkpt>
      <trkpt lat="42.13058" lon="9.14677">
        <ele>1200.342</ele>
        <time>2015-07-02T05:57:25Z</time>
      </trkpt>
      <trkpt lat="42.13049" lon="9.14684">
        <ele>1201.769</ele>
        <time>2015-07-02T05:57:42Z</time>
      </trkpt>
      <trkpt lat="42.13037" lon="9.14686">
        <ele>1204.493</ele>
        <time>2015-07-02T05:57:58Z</time>
      </trkpt>
      <trkpt lat="42.13033" lon="9.14686">
        <ele>1206.407</ele>
        <time>2015-07-02T05:58:12Z</time>
      </trkpt>
      <trkpt lat="42.1302" lon="9.14687">
        <ele>1207.134</ele>
        <time>2015-07-02T05:58:29Z</time>
      </trkpt>
      <trkpt lat="42.13019" lon="9.14692">
        <ele>1209.696</ele>
        <time>2015-07-02T05:58:43Z</time>
      </trkpt>
      <trkpt lat="42.13019" lon="9.14698">
        <ele>1211.206</ele>
        <time>2015-07-02T05:58:57Z</time>
      </trkpt>
      <trkpt lat="42.13015" lon="9.14707">
        <ele>1213.369</ele>
        <time>2015-07-02T05:59:15Z</time>
      </trkpt>
      <trkpt lat="42.13008" lon="9.14711">
        <ele>1215.049</ele>
        <time>2015-07-02T05:59:31Z</time>
      </trkpt>
      <trkpt lat="42.13005" lon="9.14719">
        <ele>1217.589</ele>
        <time>2015-07-02T05:59:46Z</time>
      </trkpt>
      <trkpt lat="42.13001" lon="9.14724">
        <ele>1218.994</ele>
        <time>2015-07-02T05:59:58Z</time>
      </trkpt>
      <trkpt lat="42.12993" lon="9.14731">
        <ele>1220.48</ele>
        <time>2015-07-02T06:00:13Z</time>
      </trkpt>
      <trkpt lat="42.12981" lon="9.14737">
        <ele>1221.922</ele>
        <time>2015-07-02T06:00:23Z</time>
      </trkpt>
      <trkpt lat="42.12967" lon="9.14742">
        <ele>1223.906</ele>
        <time>2015-07-02T06:00:42Z</time>
      </trkpt>
      <trkpt lat="42.1295" lon="9.14752">
        <ele>1225.315</ele>
        <time>2015-07-02T06:01:02Z</time>
      </trkpt>
      <trkpt lat="42.12937" lon="9.14762">
        <ele>1226.35</ele>
        <time>2015-07-02T06:01:20Z</time>
      </trkpt>
      <trkpt lat="42.12934" lon="9.14773">
        <ele>1226.539</ele>
        <time>2015-07-02T06:01:38Z</time>
      </trkpt>
      <trkpt lat="42.12939" lon="9.14777">
        <ele>1226.894</ele>
        <time>2015-07-02T06:02:04Z</time>
      </trkpt>
      <trkpt lat="42.12913" lon="9.1478">
        <ele>1227.968</ele>
        <time>2015-07-02T06:02:22Z</time>
      </trkpt>
      <trkpt lat="42.12903" lon="9.14782">
        <ele>1229.558</ele>
        <time>2015-07-02T06:02:36Z</time>
      </trkpt>
      <trkpt lat="42.12892" lon="9.1479">
        <ele>1230.763</ele>
        <time>2015-07-02T06:02:52Z</time>
      </trkpt>
      <trkpt lat="42.12883" lon="9.14792">
        <ele>1232.028</ele>
        <time>2015-07-02T06:03:06Z</time>
      </trkpt>
      <trkpt lat="42.12875" lon="9.14797">
        <ele>1233.353</ele>
        <time>2015-07-02T06:03:19Z</time>
      </trkpt>
      <trkpt lat="42.12873" lon="9.14801">
        <ele>1234.377</ele>
        <time>2015-07-02T06:03:39Z</time>
      </trkpt>
      <trkpt lat="42.12868" lon="9.14806">
        <ele>1235.809</ele>
        <time>2015-07-02T06:03:50Z</time>
      </trkpt>
      <trkpt lat="42.12864" lon="9.14817">
        <ele>1236.547</ele>
        <time>2015-07-02T06:04:03Z</time>
      </trkpt>
      <trkpt lat="42.12856" lon="9.14825">
        <ele>1237.929</ele>
        <time>2015-07-02T06:04:14Z</time>
      </trkpt>
      <trkpt lat="42.12849" lon="9.14832">
        <ele>1239.053</ele>
        <time>2015-07-02T06:04:28Z</time>
      </trkpt>
      <trkpt lat="42.12846" lon="9.14839">
        <ele>1240.438</ele>
        <time>2015-07-02T06:04:40Z</time>
      </trkpt>
      <trkpt lat="42.12838" lon="9.14846">
        <ele>1242.425</ele>
        <time>2015-07-02T06:04:54Z</time>
      </trkpt>
      <trkpt lat="42.1283" lon="9.14856">
        <ele>1244.562</ele>
        <time>2015-07-02T06:05:08Z</time>
      </trkpt>
      <trkpt lat="42.12822" lon="9.14864">
        <ele>1246.692</ele>
        <time>2015-07-02T06:05:21Z</time>
      </trkpt>
      <trkpt lat="42.12812" lon="9.14867">
        <ele>1247.521</ele>
        <time>2015-07-02T06:05:36Z</time>
      </trkpt>
      <trkpt lat="42.12802" lon="9.14865">
        <ele>1249.445</ele>
        <time>2015-07-02T06:05:52Z</time>
      </trkpt>
      <trkpt lat="42.1279" lon="9.14855">
        <ele>1251.229</ele>
        <time>2015-07-02T06:06:08Z</time>
      </trkpt>
      <trkpt lat="42.12779" lon="9.14847">
        <ele>1252.875</ele>
        <time>2015-07-02T06:06:23Z</time>
      </trkpt>
      <trkpt lat="42.12774" lon="9.14838">
        <ele>1255.045</ele>
        <time>2015-07-02T06:06:36Z</time>
      </trkpt>
      <trkpt lat="42.1276" lon="9.14834">
        <ele>1256.531</ele>
        <time>2015-07-02T06:06:53Z</time>
      </trkpt>
      <trkpt lat="42.12754" lon="9.14824">
        <ele>1257.522</ele>
        <time>2015-07-02T06:07:06Z</time>
      </trkpt>
      <trkpt lat="42.12745" lon="9.14817">
        <ele>1258.559</ele>
        <time>2015-07-02T06:07:22Z</time>
      </trkpt>
      <trkpt lat="42.12736" lon="9.14805">
        <ele>1260.435</ele>
        <time>2015-07-02T06:07:40Z</time>
      </trkpt>
      <trkpt lat="42.1272" lon="9.14797">
        <ele>1262.133</ele>
        <time>2015-07-02T06:08:01Z</time>
      </trkpt>
      <trkpt lat="42.12708" lon="9.14789">
        <ele>1264.129</ele>
        <time>2015-07-02T06:08:18Z</time>
      </trkpt>
      <trkpt lat="42.12701" lon="9.14782">
        <ele>1265.749</ele>
        <time>2015-07-02T06:08:33Z</time>
      </trkpt>
      <trkpt lat="42.12694" lon="9.14778">
        <ele>1267.01</ele>
        <time>2015-07-02T06:08:49Z</time>
      </trkpt>
      <trkpt lat="42.12684" lon="9.14771">
        <ele>1269.499</ele>
        <time>2015-07-02T06:09:07Z</time>
      </trkpt>
      <trkpt lat="42.12677" lon="9.14768">
        <ele>1270.133</ele>
        <time>2015-07-02T06:09:17Z</time>
      </trkpt>
      <trkpt lat="42.12671" lon="9.14762">
        <ele>1271.713</ele>
        <time>2015-07-02T06:09:31Z</time>
      </trkpt>
      <trkpt lat="42.12666" lon="9.14755">
        <ele>1273.986</ele>
        <time>2015-07-02T06:09:46Z</time>
      </trkpt>
      <trkpt lat="42.12665" lon="9.14746">
        <ele>1274.591</ele>
        <time>2015-07-02T06:10:00Z</time>
      </trkpt>
      <trkpt lat="42.12656" lon="9.14734">
        <ele>1277.205</ele>
        <time>2015-07-02T06:10:15Z</time>
      </trkpt>
      <trkpt lat="42.12647" lon="9.14724">
        <ele>1278.544</ele>
        <time>2015-07-02T06:10:30Z</time>
      </trkpt>
      <trkpt lat="42.12643" lon="9.14712">
        <ele>1280.183</ele>
        <time>2015-07-02T06:10:44Z</time>
      </trkpt>
      <trkpt lat="42.12638" lon="9.14703">
        <ele>1281.789</ele>
        <time>2015-07-02T06:10:56Z</time>
      </trkpt>
      <trkpt lat="42.12634" lon="9.14694">
        <ele>1283.194</ele>
        <time>2015-07-02T06:11:09Z</time>
      </trkpt>
      <trkpt lat="42.12626" lon="9.14682">
        <ele>1283.838</ele>
        <time>2015-07-02T06:11:25Z</time>
      </trkpt>
      <trkpt lat="42.12621" lon="9.14674">
        <ele>1284.996</ele>
        <time>2015-07-02T06:11:37Z</time>
      </trkpt>
      <trkpt lat="42.12613" lon="9.14667">
        <ele>1286.527</ele>
        <time>2015-07-02T06:11:51Z</time>
      </trkpt>
      <trkpt lat="42.12612" lon="9.1467">
        <ele>1287.806</ele>
        <time>2015-07-02T06:12:03Z</time>
      </trkpt>
      <trkpt lat="42.12614" lon="9.14673">
        <ele>1287.742</ele>
        <time>2015-07-02T06:12:08Z</time>
      </trkpt>
      <trkpt lat="42.12614" lon="9.14684">
        <ele>1289.587</ele>
        <time>2015-07-02T06:12:21Z</time>
      </trkpt>
      <trkpt lat="42.12615" lon="9.147">
        <ele>1290.438</ele>
        <time>2015-07-02T06:12:36Z</time>
      </trkpt>
      <trkpt lat="42.12616" lon="9.14721">
        <ele>1292.348</ele>
        <time>2015-07-02T06:12:54Z</time>
      </trkpt>
      <trkpt lat="42.12614" lon="9.14744">
        <ele>1293.54</ele>
        <time>2015-07-02T06:13:13Z</time>
      </trkpt>
      <trkpt lat="42.12617" lon="9.14757">
        <ele>1295.085</ele>
        <time>2015-07-02T06:13:27Z</time>
      </trkpt>
      <trkpt lat="42.12612" lon="9.14767">
        <ele>1295.707</ele>
        <time>2015-07-02T06:13:40Z</time>
      </trkpt>
      <trkpt lat="42.126" lon="9.14771">
        <ele>1296.275</ele>
        <time>2015-07-02T06:13:52Z</time>
      </trkpt>
      <trkpt lat="42.12595" lon="9.14774">
        <ele>1297.805</ele>
        <time>2015-07-02T06:14:04Z</time>
      </trkpt>
      <trkpt lat="42.12584" lon="9.14779">
        <ele>1299.476</ele>
        <time>2015-07-02T06:14:20Z</time>
      </trkpt>
      <trkpt lat="42.12577" lon="9.14787">
        <ele>1300.912</ele>
        <time>2015-07-02T06:14:34Z</time>
      </trkpt>
      <trkpt lat="42.12573" lon="9.14795">
        <ele>1302.315</ele>
        <time>2015-07-02T06:14:46Z</time>
      </trkpt>
      <trkpt lat="42.12567" lon="9.14804">
        <ele>1303.79</ele>
        <time>2015-07-02T06:14:57Z</time>
      </trkpt>
      <trkpt lat="42.12562" lon="9.14815">
        <ele>1304.839</ele>
        <time>2015-07-02T06:15:11Z</time>
      </trkpt>
      <trkpt lat="42.12555" lon="9.14827">
        <ele>1307.546</ele>
        <time>2015-07-02T06:15:25Z</time>
      </trkpt>
      <trkpt lat="42.12545" lon="9.14841">
        <ele>1308.253</ele>
        <time>2015-07-02T06:15:41Z</time>
      </trkpt>
      <trkpt lat="42.12538" lon="9.14854">
        <ele>1309.201</ele>
        <time>2015-07-02T06:15:55Z</time>
      </trkpt>
      <trkpt lat="42.1253" lon="9.14866">
        <ele>1309.221</ele>
        <time>2015-07-02T06:16:07Z</time>
      </trkpt>
      <trkpt lat="42.12524" lon="9.1488">
        <ele>1310.524</ele>
        <time>2015-07-02T06:16:20Z</time>
      </trkpt>
      <trkpt lat="42.12524" lon="9.14883">
        <ele>1311.037</ele>
        <time>2015-07-02T06:16:23Z</time>
      </trkpt>
      <trkpt lat="42.12523" lon="9.149">
        <ele>1311.601</ele>
        <time>2015-07-02T06:16:38Z</time>
      </trkpt>
      <trkpt lat="42.12519" lon="9.14917">
        <ele>1312.174</ele>
        <time>2015-07-02T06:16:53Z</time>
      </trkpt>
      <trkpt lat="42.12513" lon="9.14931">
        <ele>1313.68</ele>
        <time>2015-07-02T06:17:05Z</time>
      </trkpt>
      <trkpt lat="42.12513" lon="9.14938">
        <ele>1313.314</ele>
        <time>2015-07-02T06:17:10Z</time>
      </trkpt>
      <trkpt lat="42.125" lon="9.14953">
        <ele>1314.483</ele>
        <time>2015-07-02T06:17:25Z</time>
      </trkpt>
      <trkpt lat="42.12499" lon="9.14954">
        <ele>1314.165</ele>
        <time>2015-07-02T06:17:26Z</time>
      </trkpt>
      <trkpt lat="42.12486" lon="9.14958">
        <ele>1315.002</ele>
        <time>2015-07-02T06:17:38Z</time>
      </trkpt>
      <trkpt lat="42.12475" lon="9.14961">
        <ele>1315.751</ele>
        <time>2015-07-02T06:17:50Z</time>
      </trkpt>
      <trkpt lat="42.12473" lon="9.14961">
        <ele>1316.117</ele>
        <time>2015-07-02T06:17:52Z</time>
      </trkpt>
      <trkpt lat="42.12464" lon="9.14967">
        <ele>1317.206</ele>
        <time>2015-07-02T06:18:06Z</time>
      </trkpt>
      <trkpt lat="42.12453" lon="9.14971">
        <ele>1318.382</ele>
        <time>2015-07-02T06:18:18Z</time>
      </trkpt>
      <trkpt lat="42.12448" lon="9.14978">
        <ele>1318.794</ele>
        <time>2015-07-02T06:18:29Z</time>
      </trkpt>
      <trkpt lat="42.1244" lon="9.14987">
        <ele>1320.233</ele>
        <time>2015-07-02T06:18:40Z</time>
      </trkpt>
      <trkpt lat="42.12423" lon="9.14997">
        <ele>1322.05</ele>
        <time>2015-07-02T06:18:54Z</time>
      </trkpt>
      <trkpt lat="42.12407" lon="9.15004">
        <ele>1322.414</ele>
        <time>2015-07-02T06:19:09Z</time>
      </trkpt>
      <trkpt lat="42.12385" lon="9.15002">
        <ele>1322.874</ele>
        <time>2015-07-02T06:19:25Z</time>
      </trkpt>
      <trkpt lat="42.12375" lon="9.14996">
        <ele>1322.926</ele>
        <time>2015-07-02T06:19:39Z</time>
      </trkpt>
      <trkpt lat="42.12373" lon="9.14996">
        <ele>1322.858</ele>
        <time>2015-07-02T06:19:43Z</time>
      </trkpt>
      <trkpt lat="42.12365" lon="9.14998">
        <ele>1322.681</ele>
        <time>2015-07-02T06:19:54Z</time>
      </trkpt>
      <trkpt lat="42.12358" lon="9.15002">
        <ele>1322.552</ele>
        <time>2015-07-02T06:20:06Z</time>
      </trkpt>
      <trkpt lat="42.1235" lon="9.15004">
        <ele>1322.034</ele>
        <time>2015-07-02T06:20:21Z</time>
      </trkpt>
      <trkpt lat="42.12344" lon="9.15003">
        <ele>1322.213</ele>
        <time>2015-07-02T06:20:56Z</time>
      </trkpt>
      <trkpt lat="42.12343" lon="9.15006">
        <ele>1322.631</ele>
        <time>2015-07-02T06:21:39Z</time>
      </trkpt>
      <trkpt lat="42.12345" lon="9.15002">
        <ele>1323.075</ele>
        <time>2015-07-02T06:22:30Z</time>
      </trkpt>
      <trkpt lat="42.12345" lon="9.15008">
        <ele>1322.838</ele>
        <time>2015-07-02T06:23:42Z</time>
      </trkpt>
      <trkpt lat="42.12331" lon="9.15014">
        <ele>1322.622</ele>
        <time>2015-07-02T06:23:58Z</time>
      </trkpt>
      <trkpt lat="42.12319" lon="9.15019">
        <ele>1322.596</ele>
        <time>2015-07-02T06:24:10Z</time>
      </trkpt>
      <trkpt lat="42.12304" lon="9.15022">
        <ele>1322.509</ele>
        <time>2015-07-02T06:24:28Z</time>
      </trkpt>
      <trkpt lat="42.12299" lon="9.15024">
        <ele>1322.708</ele>
        <time>2015-07-02T06:24:31Z</time>
      </trkpt>
      <trkpt lat="42.12286" lon="9.15017">
        <ele>1323.367</ele>
        <time>2015-07-02T06:24:49Z</time>
      </trkpt>
      <trkpt lat="42.12279" lon="9.15017">
        <ele>1324.166</ele>
        <time>2015-07-02T06:24:56Z</time>
      </trkpt>
      <trkpt lat="42.12261" lon="9.15019">
        <ele>1323.271</ele>
        <time>2015-07-02T06:25:13Z</time>
      </trkpt>
      <trkpt lat="42.12242" lon="9.15017">
        <ele>1322.754</ele>
        <time>2015-07-02T06:25:30Z</time>
      </trkpt>
      <trkpt lat="42.12241" lon="9.15017">
        <ele>1322.748</ele>
        <time>2015-07-02T06:25:31Z</time>
      </trkpt>
      <trkpt lat="42.12222" lon="9.15018">
        <ele>1321.733</ele>
        <time>2015-07-02T06:25:50Z</time>
      </trkpt>
      <trkpt lat="42.12206" lon="9.15019">
        <ele>1322.614</ele>
        <time>2015-07-02T06:26:06Z</time>
      </trkpt>
      <trkpt lat="42.12198" lon="9.15023">
        <ele>1322.915</ele>
        <time>2015-07-02T06:26:18Z</time>
      </trkpt>
      <trkpt lat="42.12191" lon="9.15027">
        <ele>1323.002</ele>
        <time>2015-07-02T06:26:29Z</time>
      </trkpt>
      <trkpt lat="42.12184" lon="9.15033">
        <ele>1325.267</ele>
        <time>2015-07-02T06:26:42Z</time>
      </trkpt>
      <trkpt lat="42.12174" lon="9.1504">
        <ele>1326.84</ele>
        <time>2015-07-02T06:26:55Z</time>
      </trkpt>
      <trkpt lat="42.1216" lon="9.15046">
        <ele>1326.473</ele>
        <time>2015-07-02T06:27:09Z</time>
      </trkpt>
      <trkpt lat="42.12151" lon="9.15048">
        <ele>1327.103</ele>
        <time>2015-07-02T06:27:17Z</time>
      </trkpt>
      <trkpt lat="42.12133" lon="9.15045">
        <ele>1328.27</ele>
        <time>2015-07-02T06:27:33Z</time>
      </trkpt>
      <trkpt lat="42.12123" lon="9.1504">
        <ele>1328.915</ele>
        <time>2015-07-02T06:27:48Z</time>
      </trkpt>
      <trkpt lat="42.12117" lon="9.15046">
        <ele>1330.945</ele>
        <time>2015-07-02T06:28:03Z</time>
      </trkpt>
      <trkpt lat="42.12107" lon="9.15054">
        <ele>1331.837</ele>
        <time>2015-07-02T06:28:16Z</time>
      </trkpt>
      <trkpt lat="42.12098" lon="9.1506">
        <ele>1331.92</ele>
        <time>2015-07-02T06:28:29Z</time>
      </trkpt>
      <trkpt lat="42.12093" lon="9.15068">
        <ele>1332.877</ele>
        <time>2015-07-02T06:28:41Z</time>
      </trkpt>
      <trkpt lat="42.12086" lon="9.15075">
        <ele>1333.948</ele>
        <time>2015-07-02T06:28:53Z</time>
      </trkpt>
      <trkpt lat="42.12078" lon="9.15082">
        <ele>1335.923</ele>
        <time>2015-07-02T06:29:07Z</time>
      </trkpt>
      <trkpt lat="42.12073" lon="9.15089">
        <ele>1337.836</ele>
        <time>2015-07-02T06:29:18Z</time>
      </trkpt>
      <trkpt lat="42.12061" lon="9.15094">
        <ele>1338.738</ele>
        <time>2015-07-02T06:29:30Z</time>
      </trkpt>
      <trkpt lat="42.12046" lon="9.15098">
        <ele>1340.643</ele>
        <time>2015-07-02T06:29:42Z</time>
      </trkpt>
      <trkpt lat="42.12043" lon="9.15097">
        <ele>1341.706</ele>
        <time>2015-07-02T06:29:46Z</time>
      </trkpt>
      <trkpt lat="42.12031" lon="9.15097">
        <ele>1343.045</ele>
        <time>2015-07-02T06:29:58Z</time>
      </trkpt>
      <trkpt lat="42.12026" lon="9.15096">
        <ele>1344.328</ele>
        <time>2015-07-02T06:30:06Z</time>
      </trkpt>
      <trkpt lat="42.12015" lon="9.15098">
        <ele>1346.723</ele>
        <time>2015-07-02T06:30:22Z</time>
      </trkpt>
      <trkpt lat="42.12008" lon="9.15095">
        <ele>1348.629</ele>
        <time>2015-07-02T06:30:38Z</time>
      </trkpt>
      <trkpt lat="42.11999" lon="9.15089">
        <ele>1350.322</ele>
        <time>2015-07-02T06:30:55Z</time>
      </trkpt>
      <trkpt lat="42.12007" lon="9.15076">
        <ele>1351.014</ele>
        <time>2015-07-02T06:31:08Z</time>
      </trkpt>
      <trkpt lat="42.12012" lon="9.15067">
        <ele>1352.043</ele>
        <time>2015-07-02T06:31:20Z</time>
      </trkpt>
      <trkpt lat="42.12013" lon="9.15067">
        <ele>1352.282</ele>
        <time>2015-07-02T06:31:21Z</time>
      </trkpt>
      <trkpt lat="42.12027" lon="9.15058">
        <ele>1354.061</ele>
        <time>2015-07-02T06:31:37Z</time>
      </trkpt>
      <trkpt lat="42.12034" lon="9.15047">
        <ele>1354.953</ele>
        <time>2015-07-02T06:31:57Z</time>
      </trkpt>
      <trkpt lat="42.1204" lon="9.15037">
        <ele>1357.3</ele>
        <time>2015-07-02T06:32:15Z</time>
      </trkpt>
      <trkpt lat="42.12043" lon="9.15027">
        <ele>1357.952</ele>
        <time>2015-07-02T06:32:30Z</time>
      </trkpt>
      <trkpt lat="42.12045" lon="9.15029">
        <ele>1361.522</ele>
        <time>2015-07-02T06:32:47Z</time>
      </trkpt>
      <trkpt lat="42.12045" lon="9.15029">
        <ele>1361.146</ele>
        <time>2015-07-02T06:32:48Z</time>
      </trkpt>
      <trkpt lat="42.12044" lon="9.15031">
        <ele>1362.379</ele>
        <time>2015-07-02T06:32:51Z</time>
      </trkpt>
      <trkpt lat="42.12038" lon="9.15033">
        <ele>1364.488</ele>
        <time>2015-07-02T06:33:06Z</time>
      </trkpt>
      <trkpt lat="42.12033" lon="9.15036">
        <ele>1365.138</ele>
        <time>2015-07-02T06:33:24Z</time>
      </trkpt>
      <trkpt lat="42.12027" lon="9.15039">
        <ele>1367.004</ele>
        <time>2015-07-02T06:33:39Z</time>
      </trkpt>
      <trkpt lat="42.12017" lon="9.1504">
        <ele>1369.507</ele>
        <time>2015-07-02T06:33:53Z</time>
      </trkpt>
      <trkpt lat="42.1201" lon="9.15038">
        <ele>1370.762</ele>
        <time>2015-07-02T06:34:07Z</time>
      </trkpt>
      <trkpt lat="42.12001" lon="9.15035">
        <ele>1372.829</ele>
        <time>2015-07-02T06:34:22Z</time>
      </trkpt>
      <trkpt lat="42.1199" lon="9.15029">
        <ele>1375.215</ele>
        <time>2015-07-02T06:34:41Z</time>
      </trkpt>
      <trkpt lat="42.11979" lon="9.15025">
        <ele>1375.992</ele>
        <time>2015-07-02T06:34:58Z</time>
      </trkpt>
      <trkpt lat="42.11971" lon="9.15026">
        <ele>1378.109</ele>
        <time>2015-07-02T06:35:13Z</time>
      </trkpt>
      <trkpt lat="42.11963" lon="9.15027">
        <ele>1380.439</ele>
        <time>2015-07-02T06:35:31Z</time>
      </trkpt>
      <trkpt lat="42.11955" lon="9.1502">
        <ele>1381.914</ele>
        <time>2015-07-02T06:35:48Z</time>
      </trkpt>
      <trkpt lat="42.11947" lon="9.15017">
        <ele>1385.185</ele>
        <time>2015-07-02T06:36:05Z</time>
      </trkpt>
      <trkpt lat="42.11938" lon="9.15013">
        <ele>1386.908</ele>
        <time>2015-07-02T06:36:20Z</time>
      </trkpt>
      <trkpt lat="42.11932" lon="9.15011">
        <ele>1388.819</ele>
        <time>2015-07-02T06:36:35Z</time>
      </trkpt>
      <trkpt lat="42.11923" lon="9.15012">
        <ele>1389.547</ele>
        <time>2015-07-02T06:36:51Z</time>
      </trkpt>
      <trkpt lat="42.11919" lon="9.15006">
        <ele>1390.292</ele>
        <time>2015-07-02T06:37:05Z</time>
      </trkpt>
      <trkpt lat="42.11913" lon="9.15007">
        <ele>1393.309</ele>
        <time>2015-07-02T06:37:17Z</time>
      </trkpt>
      <trkpt lat="42.11909" lon="9.14996">
        <ele>1395.77</ele>
        <time>2015-07-02T06:37:34Z</time>
      </trkpt>
      <trkpt lat="42.11905" lon="9.14992">
        <ele>1396.735</ele>
        <time>2015-07-02T06:37:46Z</time>
      </trkpt>
      <trkpt lat="42.11896" lon="9.1499">
        <ele>1398.609</ele>
        <time>2015-07-02T06:38:03Z</time>
      </trkpt>
      <trkpt lat="42.11888" lon="9.14995">
        <ele>1400.207</ele>
        <time>2015-07-02T06:38:15Z</time>
      </trkpt>
      <trkpt lat="42.1188" lon="9.14995">
        <ele>1400.499</ele>
        <time>2015-07-02T06:38:26Z</time>
      </trkpt>
      <trkpt lat="42.11871" lon="9.1499">
        <ele>1402.383</ele>
        <time>2015-07-02T06:38:40Z</time>
      </trkpt>
      <trkpt lat="42.11863" lon="9.1499">
        <ele>1404.056</ele>
        <time>2015-07-02T06:38:52Z</time>
      </trkpt>
      <trkpt lat="42.11859" lon="9.14988">
        <ele>1405.105</ele>
        <time>2015-07-02T06:39:10Z</time>
      </trkpt>
      <trkpt lat="42.11852" lon="9.14991">
        <ele>1405.704</ele>
        <time>2015-07-02T06:39:23Z</time>
      </trkpt>
      <trkpt lat="42.11846" lon="9.14995">
        <ele>1408.106</ele>
        <time>2015-07-02T06:39:38Z</time>
      </trkpt>
      <trkpt lat="42.11847" lon="9.14999">
        <ele>1408.884</ele>
        <time>2015-07-02T06:39:50Z</time>
      </trkpt>
      <trkpt lat="42.11837" lon="9.14991">
        <ele>1409.97</ele>
        <time>2015-07-02T06:40:03Z</time>
      </trkpt>
      <trkpt lat="42.11832" lon="9.14984">
        <ele>1410.917</ele>
        <time>2015-07-02T06:40:17Z</time>
      </trkpt>
      <trkpt lat="42.11829" lon="9.14976">
        <ele>1411.824</ele>
        <time>2015-07-02T06:40:30Z</time>
      </trkpt>
      <trkpt lat="42.11832" lon="9.1496">
        <ele>1413.804</ele>
        <time>2015-07-02T06:40:44Z</time>
      </trkpt>
      <trkpt lat="42.11835" lon="9.14952">
        <ele>1415.575</ele>
        <time>2015-07-02T06:40:56Z</time>
      </trkpt>
      <trkpt lat="42.11839" lon="9.14941">
        <ele>1416.229</ele>
        <time>2015-07-02T06:41:17Z</time>
      </trkpt>
      <trkpt lat="42.11846" lon="9.14938">
        <ele>1417.048</ele>
        <time>2015-07-02T06:41:29Z</time>
      </trkpt>
      <trkpt lat="42.11854" lon="9.14935">
        <ele>1418.393</ele>
        <time>2015-07-02T06:41:41Z</time>
      </trkpt>
      <trkpt lat="42.11865" lon="9.14936">
        <ele>1419.224</ele>
        <time>2015-07-02T06:41:54Z</time>
      </trkpt>
      <trkpt lat="42.11872" lon="9.1493">
        <ele>1421.058</ele>
        <time>2015-07-02T06:42:09Z</time>
      </trkpt>
      <trkpt lat="42.11886" lon="9.14924">
        <ele>1423.013</ele>
        <time>2015-07-02T06:42:27Z</time>
      </trkpt>
      <trkpt lat="42.11896" lon="9.14923">
        <ele>1424.933</ele>
        <time>2015-07-02T06:42:44Z</time>
      </trkpt>
      <trkpt lat="42.11907" lon="9.14919">
        <ele>1426.405</ele>
        <time>2015-07-02T06:42:58Z</time>
      </trkpt>
      <trkpt lat="42.11906" lon="9.14919">
        <ele>1427.653</ele>
        <time>2015-07-02T06:43:15Z</time>
      </trkpt>
      <trkpt lat="42.11899" lon="9.14921">
        <ele>1428.439</ele>
        <time>2015-07-02T06:43:30Z</time>
      </trkpt>
      <trkpt lat="42.1189" lon="9.14926">
        <ele>1430.301</ele>
        <time>2015-07-02T06:43:45Z</time>
      </trkpt>
      <trkpt lat="42.11881" lon="9.14921">
        <ele>1430.925</ele>
        <time>2015-07-02T06:43:59Z</time>
      </trkpt>
      <trkpt lat="42.11875" lon="9.14919">
        <ele>1432.725</ele>
        <time>2015-07-02T06:44:13Z</time>
      </trkpt>
      <trkpt lat="42.11868" lon="9.14916">
        <ele>1433.927</ele>
        <time>2015-07-02T06:44:26Z</time>
      </trkpt>
      <trkpt lat="42.1186" lon="9.14913">
        <ele>1434.63</ele>
        <time>2015-07-02T06:44:40Z</time>
      </trkpt>
      <trkpt lat="42.11854" lon="9.14906">
        <ele>1436.595</ele>
        <time>2015-07-02T06:44:53Z</time>
      </trkpt>
      <trkpt lat="42.11845" lon="9.14906">
        <ele>1437.318</ele>
        <time>2015-07-02T06:45:06Z</time>
      </trkpt>
      <trkpt lat="42.11835" lon="9.14904">
        <ele>1439.071</ele>
        <time>2015-07-02T06:45:23Z</time>
      </trkpt>
      <trkpt lat="42.11826" lon="9.14904">
        <ele>1440.499</ele>
        <time>2015-07-02T06:45:37Z</time>
      </trkpt>
      <trkpt lat="42.11814" lon="9.14903">
        <ele>1442.117</ele>
        <time>2015-07-02T06:45:52Z</time>
      </trkpt>
      <trkpt lat="42.11804" lon="9.14906">
        <ele>1443.271</ele>
        <time>2015-07-02T06:46:06Z</time>
      </trkpt>
      <trkpt lat="42.11799" lon="9.14908">
        <ele>1444.414</ele>
        <time>2015-07-02T06:46:27Z</time>
      </trkpt>
      <trkpt lat="42.11791" lon="9.14914">
        <ele>1445.773</ele>
        <time>2015-07-02T06:46:41Z</time>
      </trkpt>
      <trkpt lat="42.11786" lon="9.14919">
        <ele>1447.001</ele>
        <time>2015-07-02T06:46:53Z</time>
      </trkpt>
      <trkpt lat="42.11778" lon="9.14925">
        <ele>1447.944</ele>
        <time>2015-07-02T06:47:07Z</time>
      </trkpt>
      <trkpt lat="42.11773" lon="9.14933">
        <ele>1449.906</ele>
        <time>2015-07-02T06:47:24Z</time>
      </trkpt>
      <trkpt lat="42.11762" lon="9.14947">
        <ele>1452.288</ele>
        <time>2015-07-02T06:47:41Z</time>
      </trkpt>
      <trkpt lat="42.11754" lon="9.14958">
        <ele>1452.861</ele>
        <time>2015-07-02T06:47:57Z</time>
      </trkpt>
      <trkpt lat="42.11745" lon="9.14969">
        <ele>1453.018</ele>
        <time>2015-07-02T06:48:13Z</time>
      </trkpt>
      <trkpt lat="42.11736" lon="9.14982">
        <ele>1455.331</ele>
        <time>2015-07-02T06:48:27Z</time>
      </trkpt>
      <trkpt lat="42.11729" lon="9.14994">
        <ele>1456.143</ele>
        <time>2015-07-02T06:48:39Z</time>
      </trkpt>
      <trkpt lat="42.11723" lon="9.15003">
        <ele>1457.062</ele>
        <time>2015-07-02T06:48:53Z</time>
      </trkpt>
      <trkpt lat="42.11719" lon="9.15011">
        <ele>1457.903</ele>
        <time>2015-07-02T06:49:06Z</time>
      </trkpt>
      <trkpt lat="42.11716" lon="9.15019">
        <ele>1459.815</ele>
        <time>2015-07-02T06:49:19Z</time>
      </trkpt>
      <trkpt lat="42.11711" lon="9.15026">
        <ele>1461.455</ele>
        <time>2015-07-02T06:49:35Z</time>
      </trkpt>
      <trkpt lat="42.11703" lon="9.15038">
        <ele>1462.538</ele>
        <time>2015-07-02T06:49:50Z</time>
      </trkpt>
      <trkpt lat="42.11697" lon="9.1505">
        <ele>1464.015</ele>
        <time>2015-07-02T06:50:02Z</time>
      </trkpt>
      <trkpt lat="42.11692" lon="9.15061">
        <ele>1465.764</ele>
        <time>2015-07-02T06:50:19Z</time>
      </trkpt>
      <trkpt lat="42.11684" lon="9.15068">
        <ele>1467.253</ele>
        <time>2015-07-02T06:50:36Z</time>
      </trkpt>
      <trkpt lat="42.11679" lon="9.15072">
        <ele>1468.838</ele>
        <time>2015-07-02T06:50:52Z</time>
      </trkpt>
      <trkpt lat="42.11674" lon="9.15076">
        <ele>1470.792</ele>
        <time>2015-07-02T06:51:08Z</time>
      </trkpt>
      <trkpt lat="42.11663" lon="9.1507">
        <ele>1472.787</ele>
        <time>2015-07-02T06:51:27Z</time>
      </trkpt>
      <trkpt lat="42.11665" lon="9.15061">
        <ele>1473.992</ele>
        <time>2015-07-02T06:51:39Z</time>
      </trkpt>
      <trkpt lat="42.11669" lon="9.15051">
        <ele>1475.722</ele>
        <time>2015-07-02T06:51:55Z</time>
      </trkpt>
      <trkpt lat="42.11672" lon="9.15038">
        <ele>1477.422</ele>
        <time>2015-07-02T06:52:13Z</time>
      </trkpt>
      <trkpt lat="42.11672" lon="9.15026">
        <ele>1479.262</ele>
        <time>2015-07-02T06:52:30Z</time>
      </trkpt>
      <trkpt lat="42.11675" lon="9.15012">
        <ele>1480.127</ele>
        <time>2015-07-02T06:52:46Z</time>
      </trkpt>
      <trkpt lat="42.11676" lon="9.15004">
        <ele>1481.838</ele>
        <time>2015-07-02T06:52:58Z</time>
      </trkpt>
      <trkpt lat="42.11679" lon="9.14985">
        <ele>1483.8</ele>
        <time>2015-07-02T06:53:16Z</time>
      </trkpt>
      <trkpt lat="42.11682" lon="9.14972">
        <ele>1485.264</ele>
        <time>2015-07-02T06:53:32Z</time>
      </trkpt>
      <trkpt lat="42.11685" lon="9.1496">
        <ele>1487.055</ele>
        <time>2015-07-02T06:53:46Z</time>
      </trkpt>
      <trkpt lat="42.11691" lon="9.14945">
        <ele>1489.641</ele>
        <time>2015-07-02T06:54:02Z</time>
      </trkpt>
      <trkpt lat="42.11698" lon="9.14931">
        <ele>1489.688</ele>
        <time>2015-07-02T06:54:16Z</time>
      </trkpt>
      <trkpt lat="42.11705" lon="9.14914">
        <ele>1490.668</ele>
        <time>2015-07-02T06:54:33Z</time>
      </trkpt>
      <trkpt lat="42.1171" lon="9.14896">
        <ele>1492.222</ele>
        <time>2015-07-02T06:54:50Z</time>
      </trkpt>
      <trkpt lat="42.11713" lon="9.14879">
        <ele>1493.429</ele>
        <time>2015-07-02T06:55:05Z</time>
      </trkpt>
      <trkpt lat="42.11711" lon="9.14872">
        <ele>1494.971</ele>
        <time>2015-07-02T06:55:23Z</time>
      </trkpt>
      <trkpt lat="42.1171" lon="9.14881">
        <ele>1496</ele>
        <time>2015-07-02T06:55:46Z</time>
      </trkpt>
      <trkpt lat="42.11705" lon="9.14893">
        <ele>1499.243</ele>
        <time>2015-07-02T06:56:04Z</time>
      </trkpt>
      <trkpt lat="42.11697" lon="9.14907">
        <ele>1501.003</ele>
        <time>2015-07-02T06:56:21Z</time>
      </trkpt>
      <trkpt lat="42.1169" lon="9.14919">
        <ele>1501.29</ele>
        <time>2015-07-02T06:56:35Z</time>
      </trkpt>
      <trkpt lat="42.1168" lon="9.14931">
        <ele>1503.192</ele>
        <time>2015-07-02T06:56:52Z</time>
      </trkpt>
      <trkpt lat="42.1167" lon="9.14944">
        <ele>1504.795</ele>
        <time>2015-07-02T06:57:10Z</time>
      </trkpt>
      <trkpt lat="42.11661" lon="9.14952">
        <ele>1507.255</ele>
        <time>2015-07-02T06:57:28Z</time>
      </trkpt>
      <trkpt lat="42.11652" lon="9.14963">
        <ele>1509.221</ele>
        <time>2015-07-02T06:57:45Z</time>
      </trkpt>
      <trkpt lat="42.11646" lon="9.14974">
        <ele>1510.859</ele>
        <time>2015-07-02T06:58:01Z</time>
      </trkpt>
      <trkpt lat="42.11637" lon="9.14984">
        <ele>1512.184</ele>
        <time>2015-07-02T06:58:18Z</time>
      </trkpt>
      <trkpt lat="42.11629" lon="9.14993">
        <ele>1512.876</ele>
        <time>2015-07-02T06:58:31Z</time>
      </trkpt>
      <trkpt lat="42.11616" lon="9.1501">
        <ele>1513.785</ele>
        <time>2015-07-02T06:58:49Z</time>
      </trkpt>
      <trkpt lat="42.11609" lon="9.15019">
        <ele>1515.305</ele>
        <time>2015-07-02T06:59:04Z</time>
      </trkpt>
      <trkpt lat="42.11605" lon="9.15027">
        <ele>1516.761</ele>
        <time>2015-07-02T06:59:20Z</time>
      </trkpt>
      <trkpt lat="42.11593" lon="9.15038">
        <ele>1519.486</ele>
        <time>2015-07-02T06:59:39Z</time>
      </trkpt>
      <trkpt lat="42.11586" lon="9.15047">
        <ele>1520.863</ele>
        <time>2015-07-02T06:59:54Z</time>
      </trkpt>
      <trkpt lat="42.11579" lon="9.15055">
        <ele>1522.091</ele>
        <time>2015-07-02T07:00:09Z</time>
      </trkpt>
      <trkpt lat="42.11568" lon="9.15064">
        <ele>1523.793</ele>
        <time>2015-07-02T07:00:27Z</time>
      </trkpt>
      <trkpt lat="42.11561" lon="9.1507">
        <ele>1525.487</ele>
        <time>2015-07-02T07:00:44Z</time>
      </trkpt>
      <trkpt lat="42.11555" lon="9.1508">
        <ele>1527.681</ele>
        <time>2015-07-02T07:01:00Z</time>
      </trkpt>
      <trkpt lat="42.11552" lon="9.15089">
        <ele>1528.137</ele>
        <time>2015-07-02T07:01:14Z</time>
      </trkpt>
      <trkpt lat="42.11547" lon="9.15096">
        <ele>1528.803</ele>
        <time>2015-07-02T07:01:25Z</time>
      </trkpt>
      <trkpt lat="42.11539" lon="9.15109">
        <ele>1530.178</ele>
        <time>2015-07-02T07:01:43Z</time>
      </trkpt>
      <trkpt lat="42.1153" lon="9.1512">
        <ele>1531.746</ele>
        <time>2015-07-02T07:02:00Z</time>
      </trkpt>
      <trkpt lat="42.11522" lon="9.15129">
        <ele>1533.482</ele>
        <time>2015-07-02T07:02:16Z</time>
      </trkpt>
      <trkpt lat="42.11514" lon="9.15137">
        <ele>1534.811</ele>
        <time>2015-07-02T07:02:32Z</time>
      </trkpt>
      <trkpt lat="42.11506" lon="9.15145">
        <ele>1534.885</ele>
        <time>2015-07-02T07:02:46Z</time>
      </trkpt>
      <trkpt lat="42.11497" lon="9.15154">
        <ele>1538.168</ele>
        <time>2015-07-02T07:03:05Z</time>
      </trkpt>
      <trkpt lat="42.11492" lon="9.15161">
        <ele>1538.27</ele>
        <time>2015-07-02T07:03:20Z</time>
      </trkpt>
      <trkpt lat="42.11488" lon="9.15171">
        <ele>1539.29</ele>
        <time>2015-07-02T07:03:35Z</time>
      </trkpt>
      <trkpt lat="42.11483" lon="9.15183">
        <ele>1541.557</ele>
        <time>2015-07-02T07:03:52Z</time>
      </trkpt>
      <trkpt lat="42.11479" lon="9.15193">
        <ele>1543.146</ele>
        <time>2015-07-02T07:04:08Z</time>
      </trkpt>
      <trkpt lat="42.11474" lon="9.15207">
        <ele>1544.279</ele>
        <time>2015-07-02T07:04:24Z</time>
      </trkpt>
      <trkpt lat="42.1147" lon="9.15217">
        <ele>1545.345</ele>
        <time>2015-07-02T07:04:39Z</time>
      </trkpt>
      <trkpt lat="42.11465" lon="9.15229">
        <ele>1546.601</ele>
        <time>2015-07-02T07:04:55Z</time>
      </trkpt>
      <trkpt lat="42.11461" lon="9.15241">
        <ele>1547.953</ele>
        <time>2015-07-02T07:05:12Z</time>
      </trkpt>
      <trkpt lat="42.11459" lon="9.15251">
        <ele>1549.578</ele>
        <time>2015-07-02T07:05:27Z</time>
      </trkpt>
      <trkpt lat="42.1146" lon="9.15264">
        <ele>1551.431</ele>
        <time>2015-07-02T07:05:44Z</time>
      </trkpt>
      <trkpt lat="42.11462" lon="9.15276">
        <ele>1553.311</ele>
        <time>2015-07-02T07:06:00Z</time>
      </trkpt>
      <trkpt lat="42.11465" lon="9.15288">
        <ele>1554.958</ele>
        <time>2015-07-02T07:06:16Z</time>
      </trkpt>
      <trkpt lat="42.11469" lon="9.15301">
        <ele>1555.307</ele>
        <time>2015-07-02T07:06:32Z</time>
      </trkpt>
      <trkpt lat="42.11477" lon="9.15315">
        <ele>1555.738</ele>
        <time>2015-07-02T07:06:51Z</time>
      </trkpt>
      <trkpt lat="42.11483" lon="9.15327">
        <ele>1557.476</ele>
        <time>2015-07-02T07:07:09Z</time>
      </trkpt>
      <trkpt lat="42.11479" lon="9.15329">
        <ele>1559.753</ele>
        <time>2015-07-02T07:07:23Z</time>
      </trkpt>
      <trkpt lat="42.11479" lon="9.15333">
        <ele>1560.054</ele>
        <time>2015-07-02T07:07:36Z</time>
      </trkpt>
      <trkpt lat="42.11483" lon="9.1534">
        <ele>1560.865</ele>
        <time>2015-07-02T07:07:49Z</time>
      </trkpt>
      <trkpt lat="42.1148" lon="9.15345">
        <ele>1563.182</ele>
        <time>2015-07-02T07:08:02Z</time>
      </trkpt>
      <trkpt lat="42.11471" lon="9.15345">
        <ele>1564.371</ele>
        <time>2015-07-02T07:08:19Z</time>
      </trkpt>
      <trkpt lat="42.11463" lon="9.15346">
        <ele>1565.28</ele>
        <time>2015-07-02T07:08:36Z</time>
      </trkpt>
      <trkpt lat="42.11461" lon="9.15345">
        <ele>1566.372</ele>
        <time>2015-07-02T07:09:00Z</time>
      </trkpt>
      <trkpt lat="42.1146" lon="9.15346">
        <ele>1565.518</ele>
        <time>2015-07-02T07:10:16Z</time>
      </trkpt>
      <trkpt lat="42.11451" lon="9.15341">
        <ele>1566.174</ele>
        <time>2015-07-02T07:10:37Z</time>
      </trkpt>
      <trkpt lat="42.11442" lon="9.15341">
        <ele>1568.37</ele>
        <time>2015-07-02T07:10:54Z</time>
      </trkpt>
      <trkpt lat="42.11432" lon="9.15336">
        <ele>1570.592</ele>
        <time>2015-07-02T07:11:11Z</time>
      </trkpt>
      <trkpt lat="42.11423" lon="9.15332">
        <ele>1572.293</ele>
        <time>2015-07-02T07:11:29Z</time>
      </trkpt>
      <trkpt lat="42.11414" lon="9.15327">
        <ele>1575.335</ele>
        <time>2015-07-02T07:11:47Z</time>
      </trkpt>
      <trkpt lat="42.11406" lon="9.15323">
        <ele>1575.715</ele>
        <time>2015-07-02T07:12:03Z</time>
      </trkpt>
      <trkpt lat="42.11409" lon="9.15332">
        <ele>1576.142</ele>
        <time>2015-07-02T07:12:18Z</time>
      </trkpt>
      <trkpt lat="42.11411" lon="9.15338">
        <ele>1577.042</ele>
        <time>2015-07-02T07:12:25Z</time>
      </trkpt>
      <trkpt lat="42.11419" lon="9.15352">
        <ele>1578.719</ele>
        <time>2015-07-02T07:12:43Z</time>
      </trkpt>
      <trkpt lat="42.11427" lon="9.15364">
        <ele>1579.916</ele>
        <time>2015-07-02T07:13:00Z</time>
      </trkpt>
      <trkpt lat="42.11435" lon="9.15377">
        <ele>1581.653</ele>
        <time>2015-07-02T07:13:18Z</time>
      </trkpt>
      <trkpt lat="42.11434" lon="9.15381">
        <ele>1582.015</ele>
        <time>2015-07-02T07:13:31Z</time>
      </trkpt>
      <trkpt lat="42.11431" lon="9.15382">
        <ele>1583.661</ele>
        <time>2015-07-02T07:13:44Z</time>
      </trkpt>
      <trkpt lat="42.11431" lon="9.15386">
        <ele>1584.734</ele>
        <time>2015-07-02T07:13:56Z</time>
      </trkpt>
      <trkpt lat="42.1143" lon="9.1539">
        <ele>1586.254</ele>
        <time>2015-07-02T07:14:11Z</time>
      </trkpt>
      <trkpt lat="42.11427" lon="9.15392">
        <ele>1588.51</ele>
        <time>2015-07-02T07:14:26Z</time>
      </trkpt>
      <trkpt lat="42.11426" lon="9.15395">
        <ele>1589.272</ele>
        <time>2015-07-02T07:14:41Z</time>
      </trkpt>
      <trkpt lat="42.11424" lon="9.15397">
        <ele>1590.21</ele>
        <time>2015-07-02T07:14:53Z</time>
      </trkpt>
      <trkpt lat="42.11417" lon="9.15398">
        <ele>1591.94</ele>
        <time>2015-07-02T07:15:09Z</time>
      </trkpt>
      <trkpt lat="42.11411" lon="9.15396">
        <ele>1594.065</ele>
        <time>2015-07-02T07:15:23Z</time>
      </trkpt>
      <trkpt lat="42.11405" lon="9.15396">
        <ele>1595.43</ele>
        <time>2015-07-02T07:15:37Z</time>
      </trkpt>
      <trkpt lat="42.11405" lon="9.15401">
        <ele>1596.97</ele>
        <time>2015-07-02T07:15:51Z</time>
      </trkpt>
      <trkpt lat="42.1141" lon="9.15407">
        <ele>1597.759</ele>
        <time>2015-07-02T07:16:06Z</time>
      </trkpt>
      <trkpt lat="42.11412" lon="9.15413">
        <ele>1600.458</ele>
        <time>2015-07-02T07:16:21Z</time>
      </trkpt>
      <trkpt lat="42.11411" lon="9.15418">
        <ele>1601.186</ele>
        <time>2015-07-02T07:16:34Z</time>
      </trkpt>
      <trkpt lat="42.11415" lon="9.15423">
        <ele>1602.405</ele>
        <time>2015-07-02T07:16:48Z</time>
      </trkpt>
      <trkpt lat="42.11418" lon="9.1543">
        <ele>1602.504</ele>
        <time>2015-07-02T07:17:02Z</time>
      </trkpt>
      <trkpt lat="42.11419" lon="9.15437">
        <ele>1604.928</ele>
        <time>2015-07-02T07:17:16Z</time>
      </trkpt>
      <trkpt lat="42.11421" lon="9.15443">
        <ele>1606.95</ele>
        <time>2015-07-02T07:17:29Z</time>
      </trkpt>
      <trkpt lat="42.11431" lon="9.15456">
        <ele>1606.511</ele>
        <time>2015-07-02T07:17:47Z</time>
      </trkpt>
      <trkpt lat="42.11438" lon="9.15466">
        <ele>1605.818</ele>
        <time>2015-07-02T07:18:03Z</time>
      </trkpt>
      <trkpt lat="42.1144" lon="9.15465">
        <ele>1605.559</ele>
        <time>2015-07-02T07:18:17Z</time>
      </trkpt>
      <trkpt lat="42.11439" lon="9.15464">
        <ele>1604.796</ele>
        <time>2015-07-02T07:18:31Z</time>
      </trkpt>
      <trkpt lat="42.11438" lon="9.15461">
        <ele>1604.634</ele>
        <time>2015-07-02T07:18:50Z</time>
      </trkpt>
      <trkpt lat="42.11437" lon="9.15461">
        <ele>1604.328</ele>
        <time>2015-07-02T07:19:19Z</time>
      </trkpt>
      <trkpt lat="42.11438" lon="9.15462">
        <ele>1605.355</ele>
        <time>2015-07-02T07:19:38Z</time>
      </trkpt>
      <trkpt lat="42.1144" lon="9.15464">
        <ele>1606.286</ele>
        <time>2015-07-02T07:19:45Z</time>
      </trkpt>
      <trkpt lat="42.1144" lon="9.15466">
        <ele>1604.853</ele>
        <time>2015-07-02T07:20:06Z</time>
      </trkpt>
      <trkpt lat="42.11438" lon="9.15465">
        <ele>1601.62</ele>
        <time>2015-07-02T07:21:49Z</time>
      </trkpt>
      <trkpt lat="42.11439" lon="9.15464">
        <ele>1605.874</ele>
        <time>2015-07-02T07:21:50Z</time>
      </trkpt>
      <trkpt lat="42.11439" lon="9.15465">
        <ele>1600.792</ele>
        <time>2015-07-02T07:21:53Z</time>
      </trkpt>
      <trkpt lat="42.11439" lon="9.15464">
        <ele>1609.066</ele>
        <time>2015-07-02T07:21:54Z</time>
      </trkpt>
      <trkpt lat="42.11439" lon="9.15464">
        <ele>1603.823</ele>
        <time>2015-07-02T07:21:55Z</time>
      </trkpt>
      <trkpt lat="42.11439" lon="9.15464">
        <ele>1605.311</ele>
        <time>2015-07-02T07:22:29Z</time>
      </trkpt>
      <trkpt lat="42.1144" lon="9.15464">
        <ele>1605.528</ele>
        <time>2015-07-02T07:23:28Z</time>
      </trkpt>
      <trkpt lat="42.11439" lon="9.15464">
        <ele>1605.306</ele>
        <time>2015-07-02T07:23:53Z</time>
      </trkpt>
      <trkpt lat="42.11441" lon="9.15463">
        <ele>1604.577</ele>
        <time>2015-07-02T07:24:36Z</time>
      </trkpt>
      <trkpt lat="42.11441" lon="9.15464">
        <ele>1603.65</ele>
        <time>2015-07-02T07:25:58Z</time>
      </trkpt>
      <trkpt lat="42.11441" lon="9.15463">
        <ele>1606.676</ele>
        <time>2015-07-02T07:26:11Z</time>
      </trkpt>
      <trkpt lat="42.1144" lon="9.15463">
        <ele>1603.176</ele>
        <time>2015-07-02T07:26:21Z</time>
      </trkpt>
      <trkpt lat="42.1144" lon="9.15464">
        <ele>1605.028</ele>
        <time>2015-07-02T07:26:46Z</time>
      </trkpt>
      <trkpt lat="42.1144" lon="9.15465">
        <ele>1606.549</ele>
        <time>2015-07-02T07:27:08Z</time>
      </trkpt>
      <trkpt lat="42.1144" lon="9.15465">
        <ele>1606.446</ele>
        <time>2015-07-02T07:27:26Z</time>
      </trkpt>
      <trkpt lat="42.1144" lon="9.15465">
        <ele>1606.326</ele>
        <time>2015-07-02T07:27:50Z</time>
      </trkpt>
      <trkpt lat="42.11439" lon="9.15471">
        <ele>1607.154</ele>
        <time>2015-07-02T07:28:06Z</time>
      </trkpt>
      <trkpt lat="42.11442" lon="9.15478">
        <ele>1608.26</ele>
        <time>2015-07-02T07:28:20Z</time>
      </trkpt>
      <trkpt lat="42.11446" lon="9.15485">
        <ele>1609.465</ele>
        <time>2015-07-02T07:28:35Z</time>
      </trkpt>
      <trkpt lat="42.11449" lon="9.15492">
        <ele>1611.206</ele>
        <time>2015-07-02T07:28:48Z</time>
      </trkpt>
      <trkpt lat="42.11451" lon="9.15499">
        <ele>1613.223</ele>
        <time>2015-07-02T07:29:07Z</time>
      </trkpt>
      <trkpt lat="42.11453" lon="9.15505">
        <ele>1614.798</ele>
        <time>2015-07-02T07:29:20Z</time>
      </trkpt>
      <trkpt lat="42.11453" lon="9.15512">
        <ele>1615.104</ele>
        <time>2015-07-02T07:29:34Z</time>
      </trkpt>
      <trkpt lat="42.11458" lon="9.15523">
        <ele>1617.195</ele>
        <time>2015-07-02T07:29:51Z</time>
      </trkpt>
      <trkpt lat="42.11458" lon="9.15533">
        <ele>1618.814</ele>
        <time>2015-07-02T07:30:07Z</time>
      </trkpt>
      <trkpt lat="42.11462" lon="9.15545">
        <ele>1620.75</ele>
        <time>2015-07-02T07:30:24Z</time>
      </trkpt>
      <trkpt lat="42.11463" lon="9.15555">
        <ele>1622.429</ele>
        <time>2015-07-02T07:30:41Z</time>
      </trkpt>
      <trkpt lat="42.11466" lon="9.15568">
        <ele>1623.39</ele>
        <time>2015-07-02T07:30:57Z</time>
      </trkpt>
      <trkpt lat="42.11467" lon="9.15582">
        <ele>1624.668</ele>
        <time>2015-07-02T07:31:13Z</time>
      </trkpt>
      <trkpt lat="42.11467" lon="9.15595">
        <ele>1626.129</ele>
        <time>2015-07-02T07:31:29Z</time>
      </trkpt>
      <trkpt lat="42.11464" lon="9.15607">
        <ele>1628.013</ele>
        <time>2015-07-02T07:31:46Z</time>
      </trkpt>
      <trkpt lat="42.11463" lon="9.15619">
        <ele>1629.449</ele>
        <time>2015-07-02T07:32:03Z</time>
      </trkpt>
      <trkpt lat="42.11458" lon="9.15627">
        <ele>1631.576</ele>
        <time>2015-07-02T07:32:18Z</time>
      </trkpt>
      <trkpt lat="42.11454" lon="9.15636">
        <ele>1633.18</ele>
        <time>2015-07-02T07:32:35Z</time>
      </trkpt>
      <trkpt lat="42.11452" lon="9.15645">
        <ele>1634.509</ele>
        <time>2015-07-02T07:32:50Z</time>
      </trkpt>
      <trkpt lat="42.11452" lon="9.15658">
        <ele>1636.034</ele>
        <time>2015-07-02T07:33:06Z</time>
      </trkpt>
      <trkpt lat="42.11449" lon="9.15667">
        <ele>1638.369</ele>
        <time>2015-07-02T07:33:21Z</time>
      </trkpt>
      <trkpt lat="42.11442" lon="9.15671">
        <ele>1640.952</ele>
        <time>2015-07-02T07:33:35Z</time>
      </trkpt>
      <trkpt lat="42.11441" lon="9.15682">
        <ele>1641.996</ele>
        <time>2015-07-02T07:33:50Z</time>
      </trkpt>
      <trkpt lat="42.11432" lon="9.15691">
        <ele>1643.205</ele>
        <time>2015-07-02T07:34:06Z</time>
      </trkpt>
      <trkpt lat="42.11421" lon="9.15703">
        <ele>1645.745</ele>
        <time>2015-07-02T07:34:26Z</time>
      </trkpt>
      <trkpt lat="42.11413" lon="9.1572">
        <ele>1646.206</ele>
        <time>2015-07-02T07:34:44Z</time>
      </trkpt>
      <trkpt lat="42.11407" lon="9.15743">
        <ele>1646.209</ele>
        <time>2015-07-02T07:35:06Z</time>
      </trkpt>
      <trkpt lat="42.11405" lon="9.15746">
        <ele>1646.382</ele>
        <time>2015-07-02T07:35:20Z</time>
      </trkpt>
      <trkpt lat="42.11401" lon="9.15756">
        <ele>1645.755</ele>
        <time>2015-07-02T07:35:56Z</time>
      </trkpt>
      <trkpt lat="42.11396" lon="9.15767">
        <ele>1643.613</ele>
        <time>2015-07-02T07:36:12Z</time>
      </trkpt>
      <trkpt lat="42.11386" lon="9.15775">
        <ele>1641.232</ele>
        <time>2015-07-02T07:36:28Z</time>
      </trkpt>
      <trkpt lat="42.11373" lon="9.15776">
        <ele>1639.388</ele>
        <time>2015-07-02T07:36:45Z</time>
      </trkpt>
      <trkpt lat="42.1136" lon="9.15779">
        <ele>1636.83</ele>
        <time>2015-07-02T07:37:02Z</time>
      </trkpt>
      <trkpt lat="42.11346" lon="9.1578">
        <ele>1634.263</ele>
        <time>2015-07-02T07:37:18Z</time>
      </trkpt>
      <trkpt lat="42.11333" lon="9.15784">
        <ele>1631.185</ele>
        <time>2015-07-02T07:37:34Z</time>
      </trkpt>
      <trkpt lat="42.11322" lon="9.15788">
        <ele>1629.813</ele>
        <time>2015-07-02T07:37:46Z</time>
      </trkpt>
      <trkpt lat="42.1131" lon="9.15791">
        <ele>1629.073</ele>
        <time>2015-07-02T07:38:01Z</time>
      </trkpt>
      <trkpt lat="42.11295" lon="9.15793">
        <ele>1627.324</ele>
        <time>2015-07-02T07:38:19Z</time>
      </trkpt>
      <trkpt lat="42.11284" lon="9.15798">
        <ele>1624.01</ele>
        <time>2015-07-02T07:38:32Z</time>
      </trkpt>
      <trkpt lat="42.11273" lon="9.15801">
        <ele>1622.289</ele>
        <time>2015-07-02T07:38:44Z</time>
      </trkpt>
      <trkpt lat="42.11265" lon="9.15806">
        <ele>1620.859</ele>
        <time>2015-07-02T07:38:54Z</time>
      </trkpt>
      <trkpt lat="42.11251" lon="9.15806">
        <ele>1618.883</ele>
        <time>2015-07-02T07:39:10Z</time>
      </trkpt>
      <trkpt lat="42.11249" lon="9.15807">
        <ele>1619.113</ele>
        <time>2015-07-02T07:39:12Z</time>
      </trkpt>
      <trkpt lat="42.11234" lon="9.15812">
        <ele>1616.981</ele>
        <time>2015-07-02T07:39:29Z</time>
      </trkpt>
      <trkpt lat="42.11221" lon="9.15813">
        <ele>1615.163</ele>
        <time>2015-07-02T07:39:44Z</time>
      </trkpt>
      <trkpt lat="42.11207" lon="9.15815">
        <ele>1613.252</ele>
        <time>2015-07-02T07:40:00Z</time>
      </trkpt>
      <trkpt lat="42.11195" lon="9.15811">
        <ele>1611.669</ele>
        <time>2015-07-02T07:40:15Z</time>
      </trkpt>
      <trkpt lat="42.11184" lon="9.15801">
        <ele>1610.152</ele>
        <time>2015-07-02T07:40:30Z</time>
      </trkpt>
      <trkpt lat="42.11173" lon="9.1579">
        <ele>1607.944</ele>
        <time>2015-07-02T07:40:46Z</time>
      </trkpt>
      <trkpt lat="42.11162" lon="9.15787">
        <ele>1604.927</ele>
        <time>2015-07-02T07:41:03Z</time>
      </trkpt>
      <trkpt lat="42.11153" lon="9.1578">
        <ele>1601.827</ele>
        <time>2015-07-02T07:41:18Z</time>
      </trkpt>
      <trkpt lat="42.11146" lon="9.15774">
        <ele>1600.859</ele>
        <time>2015-07-02T07:41:32Z</time>
      </trkpt>
      <trkpt lat="42.1114" lon="9.15776">
        <ele>1598.491</ele>
        <time>2015-07-02T07:41:45Z</time>
      </trkpt>
      <trkpt lat="42.11127" lon="9.15768">
        <ele>1596.494</ele>
        <time>2015-07-02T07:42:01Z</time>
      </trkpt>
      <trkpt lat="42.11118" lon="9.1576">
        <ele>1593.194</ele>
        <time>2015-07-02T07:42:15Z</time>
      </trkpt>
      <trkpt lat="42.11117" lon="9.15759">
        <ele>1593.265</ele>
        <time>2015-07-02T07:42:16Z</time>
      </trkpt>
      <trkpt lat="42.11111" lon="9.15758">
        <ele>1591.212</ele>
        <time>2015-07-02T07:42:30Z</time>
      </trkpt>
      <trkpt lat="42.11103" lon="9.15753">
        <ele>1589.44</ele>
        <time>2015-07-02T07:42:42Z</time>
      </trkpt>
      <trkpt lat="42.11092" lon="9.15739">
        <ele>1587.511</ele>
        <time>2015-07-02T07:42:58Z</time>
      </trkpt>
      <trkpt lat="42.11082" lon="9.1573">
        <ele>1587.039</ele>
        <time>2015-07-02T07:43:12Z</time>
      </trkpt>
      <trkpt lat="42.1107" lon="9.15719">
        <ele>1585.341</ele>
        <time>2015-07-02T07:43:29Z</time>
      </trkpt>
      <trkpt lat="42.11058" lon="9.15713">
        <ele>1584.342</ele>
        <time>2015-07-02T07:43:46Z</time>
      </trkpt>
      <trkpt lat="42.11054" lon="9.15713">
        <ele>1584.108</ele>
        <time>2015-07-02T07:43:50Z</time>
      </trkpt>
      <trkpt lat="42.11039" lon="9.15708">
        <ele>1583.267</ele>
        <time>2015-07-02T07:44:07Z</time>
      </trkpt>
      <trkpt lat="42.11024" lon="9.15702">
        <ele>1581.754</ele>
        <time>2015-07-02T07:44:24Z</time>
      </trkpt>
      <trkpt lat="42.11009" lon="9.15695">
        <ele>1580.492</ele>
        <time>2015-07-02T07:44:39Z</time>
      </trkpt>
      <trkpt lat="42.11005" lon="9.15693">
        <ele>1580.62</ele>
        <time>2015-07-02T07:44:43Z</time>
      </trkpt>
      <trkpt lat="42.10997" lon="9.15689">
        <ele>1579.167</ele>
        <time>2015-07-02T07:44:58Z</time>
      </trkpt>
      <trkpt lat="42.10991" lon="9.1569">
        <ele>1578.384</ele>
        <time>2015-07-02T07:45:10Z</time>
      </trkpt>
      <trkpt lat="42.10984" lon="9.15695">
        <ele>1577.637</ele>
        <time>2015-07-02T07:45:23Z</time>
      </trkpt>
      <trkpt lat="42.10969" lon="9.15689">
        <ele>1577.658</ele>
        <time>2015-07-02T07:45:35Z</time>
      </trkpt>
      <trkpt lat="42.10957" lon="9.1569">
        <ele>1576.652</ele>
        <time>2015-07-02T07:45:50Z</time>
      </trkpt>
      <trkpt lat="42.10947" lon="9.157">
        <ele>1574.941</ele>
        <time>2015-07-02T07:46:05Z</time>
      </trkpt>
      <trkpt lat="42.10946" lon="9.15702">
        <ele>1574.623</ele>
        <time>2015-07-02T07:46:07Z</time>
      </trkpt>
      <trkpt lat="42.10929" lon="9.1572">
        <ele>1573.214</ele>
        <time>2015-07-02T07:46:28Z</time>
      </trkpt>
      <trkpt lat="42.10924" lon="9.1573">
        <ele>1572.641</ele>
        <time>2015-07-02T07:46:38Z</time>
      </trkpt>
      <trkpt lat="42.1092" lon="9.15741">
        <ele>1571.059</ele>
        <time>2015-07-02T07:46:54Z</time>
      </trkpt>
      <trkpt lat="42.10915" lon="9.1575">
        <ele>1570.357</ele>
        <time>2015-07-02T07:47:03Z</time>
      </trkpt>
      <trkpt lat="42.10911" lon="9.15763">
        <ele>1568.295</ele>
        <time>2015-07-02T07:47:15Z</time>
      </trkpt>
      <trkpt lat="42.10903" lon="9.15779">
        <ele>1567.122</ele>
        <time>2015-07-02T07:47:31Z</time>
      </trkpt>
      <trkpt lat="42.109" lon="9.1579">
        <ele>1566.032</ele>
        <time>2015-07-02T07:47:40Z</time>
      </trkpt>
      <trkpt lat="42.10886" lon="9.15805">
        <ele>1564.019</ele>
        <time>2015-07-02T07:47:59Z</time>
      </trkpt>
      <trkpt lat="42.10885" lon="9.15806">
        <ele>1563.991</ele>
        <time>2015-07-02T07:48:00Z</time>
      </trkpt>
      <trkpt lat="42.10868" lon="9.15808">
        <ele>1562.522</ele>
        <time>2015-07-02T07:48:20Z</time>
      </trkpt>
      <trkpt lat="42.1086" lon="9.15812">
        <ele>1562.051</ele>
        <time>2015-07-02T07:48:34Z</time>
      </trkpt>
      <trkpt lat="42.1086" lon="9.15814">
        <ele>1562.527</ele>
        <time>2015-07-02T07:48:36Z</time>
      </trkpt>
      <trkpt lat="42.1086" lon="9.1583">
        <ele>1562.114</ele>
        <time>2015-07-02T07:48:48Z</time>
      </trkpt>
      <trkpt lat="42.10867" lon="9.15853">
        <ele>1562.429</ele>
        <time>2015-07-02T07:49:07Z</time>
      </trkpt>
      <trkpt lat="42.10867" lon="9.15874">
        <ele>1564.03</ele>
        <time>2015-07-02T07:49:25Z</time>
      </trkpt>
      <trkpt lat="42.10852" lon="9.15888">
        <ele>1564.586</ele>
        <time>2015-07-02T07:49:45Z</time>
      </trkpt>
      <trkpt lat="42.10849" lon="9.15896">
        <ele>1565.696</ele>
        <time>2015-07-02T07:49:54Z</time>
      </trkpt>
      <trkpt lat="42.10855" lon="9.15923">
        <ele>1564.511</ele>
        <time>2015-07-02T07:50:13Z</time>
      </trkpt>
      <trkpt lat="42.10854" lon="9.15947">
        <ele>1565.575</ele>
        <time>2015-07-02T07:50:31Z</time>
      </trkpt>
      <trkpt lat="42.10848" lon="9.1597">
        <ele>1565.593</ele>
        <time>2015-07-02T07:50:50Z</time>
      </trkpt>
      <trkpt lat="42.10843" lon="9.15994">
        <ele>1565.873</ele>
        <time>2015-07-02T07:51:09Z</time>
      </trkpt>
      <trkpt lat="42.10839" lon="9.16007">
        <ele>1566.341</ele>
        <time>2015-07-02T07:51:22Z</time>
      </trkpt>
      <trkpt lat="42.10834" lon="9.16031">
        <ele>1566.418</ele>
        <time>2015-07-02T07:51:42Z</time>
      </trkpt>
      <trkpt lat="42.10833" lon="9.16043">
        <ele>1566.695</ele>
        <time>2015-07-02T07:51:53Z</time>
      </trkpt>
      <trkpt lat="42.10836" lon="9.16058">
        <ele>1566.257</ele>
        <time>2015-07-02T07:52:09Z</time>
      </trkpt>
      <trkpt lat="42.10835" lon="9.16067">
        <ele>1566.475</ele>
        <time>2015-07-02T07:52:18Z</time>
      </trkpt>
      <trkpt lat="42.10834" lon="9.16095">
        <ele>1566.354</ele>
        <time>2015-07-02T07:52:38Z</time>
      </trkpt>
      <trkpt lat="42.10838" lon="9.16111">
        <ele>1565.413</ele>
        <time>2015-07-02T07:52:53Z</time>
      </trkpt>
      <trkpt lat="42.10841" lon="9.16127">
        <ele>1566.679</ele>
        <time>2015-07-02T07:53:12Z</time>
      </trkpt>
      <trkpt lat="42.10843" lon="9.16142">
        <ele>1567.254</ele>
        <time>2015-07-02T07:53:26Z</time>
      </trkpt>
      <trkpt lat="42.10844" lon="9.16153">
        <ele>1567.374</ele>
        <time>2015-07-02T07:53:39Z</time>
      </trkpt>
      <trkpt lat="42.10845" lon="9.1617">
        <ele>1567.832</ele>
        <time>2015-07-02T07:53:56Z</time>
      </trkpt>
      <trkpt lat="42.10847" lon="9.16181">
        <ele>1567.716</ele>
        <time>2015-07-02T07:54:09Z</time>
      </trkpt>
      <trkpt lat="42.10845" lon="9.16193">
        <ele>1567.932</ele>
        <time>2015-07-02T07:54:22Z</time>
      </trkpt>
      <trkpt lat="42.10845" lon="9.16213">
        <ele>1567.571</ele>
        <time>2015-07-02T07:54:39Z</time>
      </trkpt>
      <trkpt lat="42.10843" lon="9.16226">
        <ele>1567.143</ele>
        <time>2015-07-02T07:54:49Z</time>
      </trkpt>
      <trkpt lat="42.10841" lon="9.16233">
        <ele>1567.282</ele>
        <time>2015-07-02T07:54:54Z</time>
      </trkpt>
      <trkpt lat="42.1084" lon="9.16238">
        <ele>1567.356</ele>
        <time>2015-07-02T07:54:58Z</time>
      </trkpt>
      <trkpt lat="42.10846" lon="9.1626">
        <ele>1567.616</ele>
        <time>2015-07-02T07:55:17Z</time>
      </trkpt>
      <trkpt lat="42.10853" lon="9.16274">
        <ele>1566.541</ele>
        <time>2015-07-02T07:55:31Z</time>
      </trkpt>
      <trkpt lat="42.10859" lon="9.16285">
        <ele>1566.612</ele>
        <time>2015-07-02T07:55:47Z</time>
      </trkpt>
      <trkpt lat="42.10867" lon="9.16303">
        <ele>1566.958</ele>
        <time>2015-07-02T07:56:04Z</time>
      </trkpt>
      <trkpt lat="42.10873" lon="9.1632">
        <ele>1565.948</ele>
        <time>2015-07-02T07:56:19Z</time>
      </trkpt>
      <trkpt lat="42.10874" lon="9.16341">
        <ele>1566.05</ele>
        <time>2015-07-02T07:56:37Z</time>
      </trkpt>
      <trkpt lat="42.10874" lon="9.16363">
        <ele>1565.008</ele>
        <time>2015-07-02T07:56:56Z</time>
      </trkpt>
      <trkpt lat="42.10874" lon="9.16375">
        <ele>1563.225</ele>
        <time>2015-07-02T07:57:10Z</time>
      </trkpt>
      <trkpt lat="42.10876" lon="9.16394">
        <ele>1562.315</ele>
        <time>2015-07-02T07:57:27Z</time>
      </trkpt>
      <trkpt lat="42.1088" lon="9.16409">
        <ele>1560.264</ele>
        <time>2015-07-02T07:57:43Z</time>
      </trkpt>
      <trkpt lat="42.10882" lon="9.16424">
        <ele>1559.157</ele>
        <time>2015-07-02T07:57:58Z</time>
      </trkpt>
      <trkpt lat="42.10887" lon="9.16441">
        <ele>1559.341</ele>
        <time>2015-07-02T07:58:14Z</time>
      </trkpt>
      <trkpt lat="42.1089" lon="9.16457">
        <ele>1557.728</ele>
        <time>2015-07-02T07:58:30Z</time>
      </trkpt>
      <trkpt lat="42.10892" lon="9.16467">
        <ele>1556.214</ele>
        <time>2015-07-02T07:58:43Z</time>
      </trkpt>
      <trkpt lat="42.10897" lon="9.16482">
        <ele>1555.061</ele>
        <time>2015-07-02T07:59:07Z</time>
      </trkpt>
      <trkpt lat="42.10898" lon="9.16487">
        <ele>1554.638</ele>
        <time>2015-07-02T07:59:12Z</time>
      </trkpt>
      <trkpt lat="42.10897" lon="9.16493">
        <ele>1554.124</ele>
        <time>2015-07-02T07:59:16Z</time>
      </trkpt>
      <trkpt lat="42.10898" lon="9.16497">
        <ele>1553.533</ele>
        <time>2015-07-02T07:59:19Z</time>
      </trkpt>
      <trkpt lat="42.10898" lon="9.16502">
        <ele>1553.047</ele>
        <time>2015-07-02T07:59:22Z</time>
      </trkpt>
      <trkpt lat="42.109" lon="9.16525">
        <ele>1551.925</ele>
        <time>2015-07-02T07:59:40Z</time>
      </trkpt>
      <trkpt lat="42.10902" lon="9.16536">
        <ele>1551.918</ele>
        <time>2015-07-02T07:59:51Z</time>
      </trkpt>
      <trkpt lat="42.10906" lon="9.16553">
        <ele>1552.029</ele>
        <time>2015-07-02T08:00:05Z</time>
      </trkpt>
      <trkpt lat="42.10913" lon="9.16568">
        <ele>1553.411</ele>
        <time>2015-07-02T08:00:19Z</time>
      </trkpt>
      <trkpt lat="42.10914" lon="9.16576">
        <ele>1553.886</ele>
        <time>2015-07-02T08:00:25Z</time>
      </trkpt>
      <trkpt lat="42.10918" lon="9.16601">
        <ele>1555.51</ele>
        <time>2015-07-02T08:00:44Z</time>
      </trkpt>
      <trkpt lat="42.10921" lon="9.16626">
        <ele>1555.127</ele>
        <time>2015-07-02T08:01:03Z</time>
      </trkpt>
      <trkpt lat="42.10926" lon="9.16647">
        <ele>1555.413</ele>
        <time>2015-07-02T08:01:21Z</time>
      </trkpt>
      <trkpt lat="42.1093" lon="9.16669">
        <ele>1557.094</ele>
        <time>2015-07-02T08:01:38Z</time>
      </trkpt>
      <trkpt lat="42.10933" lon="9.16698">
        <ele>1555.975</ele>
        <time>2015-07-02T08:01:58Z</time>
      </trkpt>
      <trkpt lat="42.10935" lon="9.16714">
        <ele>1556.991</ele>
        <time>2015-07-02T08:02:12Z</time>
      </trkpt>
      <trkpt lat="42.10934" lon="9.16719">
        <ele>1556.471</ele>
        <time>2015-07-02T08:02:16Z</time>
      </trkpt>
      <trkpt lat="42.10933" lon="9.16746">
        <ele>1555.346</ele>
        <time>2015-07-02T08:02:35Z</time>
      </trkpt>
      <trkpt lat="42.1093" lon="9.16783">
        <ele>1555.44</ele>
        <time>2015-07-02T08:03:00Z</time>
      </trkpt>
      <trkpt lat="42.10924" lon="9.16804">
        <ele>1556.005</ele>
        <time>2015-07-02T08:03:17Z</time>
      </trkpt>
      <trkpt lat="42.10916" lon="9.16824">
        <ele>1555.498</ele>
        <time>2015-07-02T08:03:34Z</time>
      </trkpt>
      <trkpt lat="42.10912" lon="9.16829">
        <ele>1555.789</ele>
        <time>2015-07-02T08:03:50Z</time>
      </trkpt>
      <trkpt lat="42.1091" lon="9.16824">
        <ele>1555.682</ele>
        <time>2015-07-02T08:04:31Z</time>
      </trkpt>
      <trkpt lat="42.10901" lon="9.16814">
        <ele>1556.204</ele>
        <time>2015-07-02T08:04:52Z</time>
      </trkpt>
      <trkpt lat="42.10888" lon="9.16804">
        <ele>1556.728</ele>
        <time>2015-07-02T08:05:09Z</time>
      </trkpt>
      <trkpt lat="42.10881" lon="9.16799">
        <ele>1558.69</ele>
        <time>2015-07-02T08:05:22Z</time>
      </trkpt>
      <trkpt lat="42.10869" lon="9.16789">
        <ele>1556.994</ele>
        <time>2015-07-02T08:05:40Z</time>
      </trkpt>
      <trkpt lat="42.10862" lon="9.16784">
        <ele>1555.089</ele>
        <time>2015-07-02T08:05:54Z</time>
      </trkpt>
      <trkpt lat="42.10849" lon="9.16773">
        <ele>1554.324</ele>
        <time>2015-07-02T08:06:09Z</time>
      </trkpt>
      <trkpt lat="42.10831" lon="9.16766">
        <ele>1552.627</ele>
        <time>2015-07-02T08:06:27Z</time>
      </trkpt>
      <trkpt lat="42.10821" lon="9.16756">
        <ele>1551.91</ele>
        <time>2015-07-02T08:06:42Z</time>
      </trkpt>
      <trkpt lat="42.10812" lon="9.16749">
        <ele>1550.769</ele>
        <time>2015-07-02T08:06:54Z</time>
      </trkpt>
      <trkpt lat="42.10807" lon="9.16741">
        <ele>1548.917</ele>
        <time>2015-07-02T08:07:05Z</time>
      </trkpt>
      <trkpt lat="42.10797" lon="9.16737">
        <ele>1548.064</ele>
        <time>2015-07-02T08:07:16Z</time>
      </trkpt>
      <trkpt lat="42.10784" lon="9.1673">
        <ele>1547.669</ele>
        <time>2015-07-02T08:07:31Z</time>
      </trkpt>
      <trkpt lat="42.10772" lon="9.16726">
        <ele>1546.679</ele>
        <time>2015-07-02T08:07:45Z</time>
      </trkpt>
      <trkpt lat="42.10755" lon="9.16723">
        <ele>1545.244</ele>
        <time>2015-07-02T08:08:02Z</time>
      </trkpt>
      <trkpt lat="42.10746" lon="9.16725">
        <ele>1543.937</ele>
        <time>2015-07-02T08:08:14Z</time>
      </trkpt>
      <trkpt lat="42.10739" lon="9.16733">
        <ele>1542.007</ele>
        <time>2015-07-02T08:08:26Z</time>
      </trkpt>
      <trkpt lat="42.10734" lon="9.16735">
        <ele>1543.051</ele>
        <time>2015-07-02T08:08:32Z</time>
      </trkpt>
      <trkpt lat="42.10724" lon="9.16742">
        <ele>1543.716</ele>
        <time>2015-07-02T08:08:44Z</time>
      </trkpt>
      <trkpt lat="42.10708" lon="9.1675">
        <ele>1541.612</ele>
        <time>2015-07-02T08:09:00Z</time>
      </trkpt>
      <trkpt lat="42.10703" lon="9.16756">
        <ele>1539.742</ele>
        <time>2015-07-02T08:09:13Z</time>
      </trkpt>
      <trkpt lat="42.10692" lon="9.16758">
        <ele>1537.79</ele>
        <time>2015-07-02T08:09:26Z</time>
      </trkpt>
      <trkpt lat="42.10681" lon="9.1676">
        <ele>1537.162</ele>
        <time>2015-07-02T08:09:42Z</time>
      </trkpt>
      <trkpt lat="42.10674" lon="9.16759">
        <ele>1535.625</ele>
        <time>2015-07-02T08:09:52Z</time>
      </trkpt>
      <trkpt lat="42.10666" lon="9.16758">
        <ele>1533.512</ele>
        <time>2015-07-02T08:10:05Z</time>
      </trkpt>
      <trkpt lat="42.10652" lon="9.16759">
        <ele>1532.578</ele>
        <time>2015-07-02T08:10:20Z</time>
      </trkpt>
      <trkpt lat="42.10637" lon="9.16759">
        <ele>1531.793</ele>
        <time>2015-07-02T08:10:36Z</time>
      </trkpt>
      <trkpt lat="42.10633" lon="9.1676">
        <ele>1531.547</ele>
        <time>2015-07-02T08:10:40Z</time>
      </trkpt>
      <trkpt lat="42.10629" lon="9.16766">
        <ele>1529.701</ele>
        <time>2015-07-02T08:10:53Z</time>
      </trkpt>
      <trkpt lat="42.10629" lon="9.16769">
        <ele>1529.395</ele>
        <time>2015-07-02T08:10:56Z</time>
      </trkpt>
      <trkpt lat="42.10628" lon="9.16774">
        <ele>1529.36</ele>
        <time>2015-07-02T08:11:11Z</time>
      </trkpt>
      <trkpt lat="42.10629" lon="9.16779">
        <ele>1527.719</ele>
        <time>2015-07-02T08:11:15Z</time>
      </trkpt>
      <trkpt lat="42.10621" lon="9.16799">
        <ele>1525.726</ele>
        <time>2015-07-02T08:11:31Z</time>
      </trkpt>
      <trkpt lat="42.10619" lon="9.16811">
        <ele>1524.412</ele>
        <time>2015-07-02T08:11:46Z</time>
      </trkpt>
      <trkpt lat="42.10616" lon="9.16821">
        <ele>1524.111</ele>
        <time>2015-07-02T08:11:55Z</time>
      </trkpt>
      <trkpt lat="42.10601" lon="9.16836">
        <ele>1523.775</ele>
        <time>2015-07-02T08:12:11Z</time>
      </trkpt>
      <trkpt lat="42.10597" lon="9.16846">
        <ele>1522.948</ele>
        <time>2015-07-02T08:12:22Z</time>
      </trkpt>
      <trkpt lat="42.10594" lon="9.16857">
        <ele>1521.202</ele>
        <time>2015-07-02T08:12:32Z</time>
      </trkpt>
      <trkpt lat="42.10592" lon="9.16878">
        <ele>1520.417</ele>
        <time>2015-07-02T08:12:47Z</time>
      </trkpt>
      <trkpt lat="42.1059" lon="9.16883">
        <ele>1520.202</ele>
        <time>2015-07-02T08:12:52Z</time>
      </trkpt>
      <trkpt lat="42.10584" lon="9.16898">
        <ele>1517.636</ele>
        <time>2015-07-02T08:13:07Z</time>
      </trkpt>
      <trkpt lat="42.10579" lon="9.16906">
        <ele>1516.199</ele>
        <time>2015-07-02T08:13:19Z</time>
      </trkpt>
      <trkpt lat="42.1057" lon="9.16915">
        <ele>1516.288</ele>
        <time>2015-07-02T08:13:32Z</time>
      </trkpt>
      <trkpt lat="42.10562" lon="9.16927">
        <ele>1516.5</ele>
        <time>2015-07-02T08:13:46Z</time>
      </trkpt>
      <trkpt lat="42.10562" lon="9.16929">
        <ele>1517.476</ele>
        <time>2015-07-02T08:13:48Z</time>
      </trkpt>
      <trkpt lat="42.10558" lon="9.16945">
        <ele>1518.263</ele>
        <time>2015-07-02T08:14:02Z</time>
      </trkpt>
      <trkpt lat="42.10547" lon="9.1696">
        <ele>1519.023</ele>
        <time>2015-07-02T08:14:18Z</time>
      </trkpt>
      <trkpt lat="42.10543" lon="9.16969">
        <ele>1520.504</ele>
        <time>2015-07-02T08:14:32Z</time>
      </trkpt>
      <trkpt lat="42.10532" lon="9.16986">
        <ele>1520.86</ele>
        <time>2015-07-02T08:14:46Z</time>
      </trkpt>
      <trkpt lat="42.10522" lon="9.17001">
        <ele>1521.781</ele>
        <time>2015-07-02T08:15:03Z</time>
      </trkpt>
      <trkpt lat="42.10517" lon="9.17015">
        <ele>1523.128</ele>
        <time>2015-07-02T08:15:17Z</time>
      </trkpt>
      <trkpt lat="42.10504" lon="9.17031">
        <ele>1524.182</ele>
        <time>2015-07-02T08:15:34Z</time>
      </trkpt>
      <trkpt lat="42.10493" lon="9.17044">
        <ele>1524.742</ele>
        <time>2015-07-02T08:15:47Z</time>
      </trkpt>
      <trkpt lat="42.10478" lon="9.17054">
        <ele>1525.076</ele>
        <time>2015-07-02T08:16:02Z</time>
      </trkpt>
      <trkpt lat="42.10469" lon="9.17062">
        <ele>1526.11</ele>
        <time>2015-07-02T08:16:14Z</time>
      </trkpt>
      <trkpt lat="42.10457" lon="9.17083">
        <ele>1526.599</ele>
        <time>2015-07-02T08:16:32Z</time>
      </trkpt>
      <trkpt lat="42.10451" lon="9.17096">
        <ele>1525.743</ele>
        <time>2015-07-02T08:16:43Z</time>
      </trkpt>
      <trkpt lat="42.10431" lon="9.17113">
        <ele>1525.64</ele>
        <time>2015-07-02T08:17:02Z</time>
      </trkpt>
      <trkpt lat="42.10416" lon="9.17123">
        <ele>1526.034</ele>
        <time>2015-07-02T08:17:20Z</time>
      </trkpt>
      <trkpt lat="42.10406" lon="9.17131">
        <ele>1524.656</ele>
        <time>2015-07-02T08:17:35Z</time>
      </trkpt>
      <trkpt lat="42.10397" lon="9.17135">
        <ele>1524.531</ele>
        <time>2015-07-02T08:17:47Z</time>
      </trkpt>
      <trkpt lat="42.10383" lon="9.17144">
        <ele>1523.818</ele>
        <time>2015-07-02T08:18:00Z</time>
      </trkpt>
      <trkpt lat="42.10365" lon="9.1716">
        <ele>1522.455</ele>
        <time>2015-07-02T08:18:19Z</time>
      </trkpt>
      <trkpt lat="42.10363" lon="9.17161">
        <ele>1522.328</ele>
        <time>2015-07-02T08:18:21Z</time>
      </trkpt>
      <trkpt lat="42.10358" lon="9.17167">
        <ele>1521.812</ele>
        <time>2015-07-02T08:18:36Z</time>
      </trkpt>
      <trkpt lat="42.10346" lon="9.17178">
        <ele>1521.267</ele>
        <time>2015-07-02T08:18:51Z</time>
      </trkpt>
      <trkpt lat="42.10331" lon="9.17195">
        <ele>1520.69</ele>
        <time>2015-07-02T08:19:11Z</time>
      </trkpt>
      <trkpt lat="42.10322" lon="9.17205">
        <ele>1521.35</ele>
        <time>2015-07-02T08:19:20Z</time>
      </trkpt>
      <trkpt lat="42.10321" lon="9.17207">
        <ele>1521.262</ele>
        <time>2015-07-02T08:19:22Z</time>
      </trkpt>
      <trkpt lat="42.10318" lon="9.17211">
        <ele>1521.36</ele>
        <time>2015-07-02T08:19:26Z</time>
      </trkpt>
      <trkpt lat="42.10306" lon="9.17226">
        <ele>1521.579</ele>
        <time>2015-07-02T08:19:41Z</time>
      </trkpt>
      <trkpt lat="42.10294" lon="9.1724">
        <ele>1522.044</ele>
        <time>2015-07-02T08:19:56Z</time>
      </trkpt>
      <trkpt lat="42.10273" lon="9.17255">
        <ele>1521.669</ele>
        <time>2015-07-02T08:20:16Z</time>
      </trkpt>
      <trkpt lat="42.1026" lon="9.17252">
        <ele>1521.801</ele>
        <time>2015-07-02T08:20:33Z</time>
      </trkpt>
      <trkpt lat="42.1026" lon="9.17247">
        <ele>1521.42</ele>
        <time>2015-07-02T08:20:51Z</time>
      </trkpt>
      <trkpt lat="42.10255" lon="9.17242">
        <ele>1521.283</ele>
        <time>2015-07-02T08:21:05Z</time>
      </trkpt>
      <trkpt lat="42.10253" lon="9.17239">
        <ele>1521.526</ele>
        <time>2015-07-02T08:21:08Z</time>
      </trkpt>
      <trkpt lat="42.10254" lon="9.17233">
        <ele>1521.603</ele>
        <time>2015-07-02T08:21:12Z</time>
      </trkpt>
      <trkpt lat="42.10252" lon="9.17228">
        <ele>1521.466</ele>
        <time>2015-07-02T08:21:16Z</time>
      </trkpt>
      <trkpt lat="42.1025" lon="9.17195">
        <ele>1523.32</ele>
        <time>2015-07-02T08:21:39Z</time>
      </trkpt>
      <trkpt lat="42.10249" lon="9.17165">
        <ele>1525.014</ele>
        <time>2015-07-02T08:22:00Z</time>
      </trkpt>
      <trkpt lat="42.10248" lon="9.17139">
        <ele>1525.116</ele>
        <time>2015-07-02T08:22:20Z</time>
      </trkpt>
      <trkpt lat="42.10249" lon="9.1712">
        <ele>1526.202</ele>
        <time>2015-07-02T08:22:35Z</time>
      </trkpt>
      <trkpt lat="42.10254" lon="9.17099">
        <ele>1527.709</ele>
        <time>2015-07-02T08:22:51Z</time>
      </trkpt>
      <trkpt lat="42.10262" lon="9.17082">
        <ele>1528.841</ele>
        <time>2015-07-02T08:23:05Z</time>
      </trkpt>
      <trkpt lat="42.10267" lon="9.17069">
        <ele>1530.236</ele>
        <time>2015-07-02T08:23:19Z</time>
      </trkpt>
      <trkpt lat="42.10269" lon="9.17055">
        <ele>1531.711</ele>
        <time>2015-07-02T08:23:33Z</time>
      </trkpt>
      <trkpt lat="42.10276" lon="9.17035">
        <ele>1532.393</ele>
        <time>2015-07-02T08:23:52Z</time>
      </trkpt>
      <trkpt lat="42.10286" lon="9.17016">
        <ele>1533.411</ele>
        <time>2015-07-02T08:24:08Z</time>
      </trkpt>
      <trkpt lat="42.10287" lon="9.17009">
        <ele>1532.755</ele>
        <time>2015-07-02T08:24:13Z</time>
      </trkpt>
      <trkpt lat="42.10296" lon="9.16994">
        <ele>1534.03</ele>
        <time>2015-07-02T08:24:29Z</time>
      </trkpt>
      <trkpt lat="42.10301" lon="9.1698">
        <ele>1535.793</ele>
        <time>2015-07-02T08:24:45Z</time>
      </trkpt>
      <trkpt lat="42.10307" lon="9.16968">
        <ele>1536.383</ele>
        <time>2015-07-02T08:24:59Z</time>
      </trkpt>
      <trkpt lat="42.10316" lon="9.16952">
        <ele>1537.137</ele>
        <time>2015-07-02T08:25:15Z</time>
      </trkpt>
      <trkpt lat="42.10316" lon="9.16937">
        <ele>1537.648</ele>
        <time>2015-07-02T08:25:29Z</time>
      </trkpt>
      <trkpt lat="42.10317" lon="9.16932">
        <ele>1539.183</ele>
        <time>2015-07-02T08:25:35Z</time>
      </trkpt>
      <trkpt lat="42.10327" lon="9.16924">
        <ele>1539.743</ele>
        <time>2015-07-02T08:25:49Z</time>
      </trkpt>
      <trkpt lat="42.10339" lon="9.16912">
        <ele>1540.074</ele>
        <time>2015-07-02T08:26:00Z</time>
      </trkpt>
      <trkpt lat="42.10353" lon="9.16894">
        <ele>1540.917</ele>
        <time>2015-07-02T08:26:16Z</time>
      </trkpt>
      <trkpt lat="42.10356" lon="9.1688">
        <ele>1541.367</ele>
        <time>2015-07-02T08:26:30Z</time>
      </trkpt>
      <trkpt lat="42.10361" lon="9.1686">
        <ele>1540.847</ele>
        <time>2015-07-02T08:26:47Z</time>
      </trkpt>
      <trkpt lat="42.10367" lon="9.16841">
        <ele>1542.202</ele>
        <time>2015-07-02T08:27:04Z</time>
      </trkpt>
      <trkpt lat="42.10372" lon="9.16826">
        <ele>1542.635</ele>
        <time>2015-07-02T08:27:17Z</time>
      </trkpt>
      <trkpt lat="42.10377" lon="9.16812">
        <ele>1542.461</ele>
        <time>2015-07-02T08:27:28Z</time>
      </trkpt>
      <trkpt lat="42.1038" lon="9.16791">
        <ele>1543.729</ele>
        <time>2015-07-02T08:27:45Z</time>
      </trkpt>
      <trkpt lat="42.10383" lon="9.16779">
        <ele>1544.624</ele>
        <time>2015-07-02T08:27:57Z</time>
      </trkpt>
      <trkpt lat="42.10389" lon="9.16765">
        <ele>1544.753</ele>
        <time>2015-07-02T08:28:09Z</time>
      </trkpt>
      <trkpt lat="42.10396" lon="9.16746">
        <ele>1545.602</ele>
        <time>2015-07-02T08:28:27Z</time>
      </trkpt>
      <trkpt lat="42.10398" lon="9.16728">
        <ele>1546.578</ele>
        <time>2015-07-02T08:28:42Z</time>
      </trkpt>
      <trkpt lat="42.10398" lon="9.16714">
        <ele>1546.544</ele>
        <time>2015-07-02T08:28:54Z</time>
      </trkpt>
      <trkpt lat="42.10407" lon="9.167">
        <ele>1548.554</ele>
        <time>2015-07-02T08:29:12Z</time>
      </trkpt>
      <trkpt lat="42.10411" lon="9.16689">
        <ele>1548.801</ele>
        <time>2015-07-02T08:29:22Z</time>
      </trkpt>
      <trkpt lat="42.10418" lon="9.16673">
        <ele>1548.268</ele>
        <time>2015-07-02T08:29:40Z</time>
      </trkpt>
      <trkpt lat="42.10418" lon="9.16669">
        <ele>1548.262</ele>
        <time>2015-07-02T08:29:44Z</time>
      </trkpt>
      <trkpt lat="42.10421" lon="9.16649">
        <ele>1548.743</ele>
        <time>2015-07-02T08:30:04Z</time>
      </trkpt>
      <trkpt lat="42.10417" lon="9.16637">
        <ele>1548.189</ele>
        <time>2015-07-02T08:30:14Z</time>
      </trkpt>
      <trkpt lat="42.10415" lon="9.16621">
        <ele>1548.354</ele>
        <time>2015-07-02T08:30:26Z</time>
      </trkpt>
      <trkpt lat="42.10397" lon="9.16608">
        <ele>1548.277</ele>
        <time>2015-07-02T08:30:46Z</time>
      </trkpt>
      <trkpt lat="42.10376" lon="9.16604">
        <ele>1546.656</ele>
        <time>2015-07-02T08:31:07Z</time>
      </trkpt>
      <trkpt lat="42.10364" lon="9.16592">
        <ele>1546.185</ele>
        <time>2015-07-02T08:31:22Z</time>
      </trkpt>
      <trkpt lat="42.10349" lon="9.16586">
        <ele>1545.592</ele>
        <time>2015-07-02T08:31:40Z</time>
      </trkpt>
      <trkpt lat="42.10341" lon="9.16584">
        <ele>1545.285</ele>
        <time>2015-07-02T08:31:51Z</time>
      </trkpt>
      <trkpt lat="42.10327" lon="9.16569">
        <ele>1545.06</ele>
        <time>2015-07-02T08:32:09Z</time>
      </trkpt>
      <trkpt lat="42.10309" lon="9.16567">
        <ele>1544.417</ele>
        <time>2015-07-02T08:32:28Z</time>
      </trkpt>
      <trkpt lat="42.103" lon="9.16566">
        <ele>1545.229</ele>
        <time>2015-07-02T08:32:41Z</time>
      </trkpt>
      <trkpt lat="42.10288" lon="9.16569">
        <ele>1545.59</ele>
        <time>2015-07-02T08:32:57Z</time>
      </trkpt>
      <trkpt lat="42.10284" lon="9.16563">
        <ele>1547.101</ele>
        <time>2015-07-02T08:33:13Z</time>
      </trkpt>
      <trkpt lat="42.10297" lon="9.16536">
        <ele>1546.217</ele>
        <time>2015-07-02T08:33:46Z</time>
      </trkpt>
      <trkpt lat="42.10289" lon="9.16533">
        <ele>1547.297</ele>
        <time>2015-07-02T08:34:01Z</time>
      </trkpt>
      <trkpt lat="42.10286" lon="9.16532">
        <ele>1548.956</ele>
        <time>2015-07-02T08:34:16Z</time>
      </trkpt>
      <trkpt lat="42.10281" lon="9.16535">
        <ele>1551.301</ele>
        <time>2015-07-02T08:34:35Z</time>
      </trkpt>
      <trkpt lat="42.10272" lon="9.16517">
        <ele>1553.492</ele>
        <time>2015-07-02T08:35:02Z</time>
      </trkpt>
      <trkpt lat="42.10268" lon="9.16493">
        <ele>1554.74</ele>
        <time>2015-07-02T08:35:19Z</time>
      </trkpt>
      <trkpt lat="42.10267" lon="9.16487">
        <ele>1554.31</ele>
        <time>2015-07-02T08:35:23Z</time>
      </trkpt>
      <trkpt lat="42.10263" lon="9.16473">
        <ele>1555.854</ele>
        <time>2015-07-02T08:35:37Z</time>
      </trkpt>
      <trkpt lat="42.10253" lon="9.16469">
        <ele>1555.394</ele>
        <time>2015-07-02T08:35:48Z</time>
      </trkpt>
      <trkpt lat="42.10242" lon="9.16468">
        <ele>1554.781</ele>
        <time>2015-07-02T08:35:59Z</time>
      </trkpt>
      <trkpt lat="42.10239" lon="9.16461">
        <ele>1554.73</ele>
        <time>2015-07-02T08:36:04Z</time>
      </trkpt>
      <trkpt lat="42.10235" lon="9.1645">
        <ele>1554.46</ele>
        <time>2015-07-02T08:36:13Z</time>
      </trkpt>
      <trkpt lat="42.10233" lon="9.1643">
        <ele>1553.98</ele>
        <time>2015-07-02T08:36:26Z</time>
      </trkpt>
      <trkpt lat="42.10229" lon="9.16404">
        <ele>1551.614</ele>
        <time>2015-07-02T08:36:43Z</time>
      </trkpt>
      <trkpt lat="42.10225" lon="9.16385">
        <ele>1549.689</ele>
        <time>2015-07-02T08:36:58Z</time>
      </trkpt>
      <trkpt lat="42.10227" lon="9.16367">
        <ele>1548.865</ele>
        <time>2015-07-02T08:37:10Z</time>
      </trkpt>
      <trkpt lat="42.10221" lon="9.1635">
        <ele>1548.803</ele>
        <time>2015-07-02T08:37:21Z</time>
      </trkpt>
      <trkpt lat="42.10224" lon="9.16332">
        <ele>1547.812</ele>
        <time>2015-07-02T08:37:36Z</time>
      </trkpt>
      <trkpt lat="42.10226" lon="9.16317">
        <ele>1547.33</ele>
        <time>2015-07-02T08:37:47Z</time>
      </trkpt>
      <trkpt lat="42.10224" lon="9.16305">
        <ele>1547.43</ele>
        <time>2015-07-02T08:38:00Z</time>
      </trkpt>
      <trkpt lat="42.10212" lon="9.16277">
        <ele>1547.297</ele>
        <time>2015-07-02T08:38:26Z</time>
      </trkpt>
      <trkpt lat="42.10208" lon="9.16254">
        <ele>1546.906</ele>
        <time>2015-07-02T08:38:40Z</time>
      </trkpt>
      <trkpt lat="42.10208" lon="9.16237">
        <ele>1546.381</ele>
        <time>2015-07-02T08:38:54Z</time>
      </trkpt>
      <trkpt lat="42.10209" lon="9.16226">
        <ele>1544.719</ele>
        <time>2015-07-02T08:39:09Z</time>
      </trkpt>
      <trkpt lat="42.10202" lon="9.16221">
        <ele>1544.82</ele>
        <time>2015-07-02T08:39:20Z</time>
      </trkpt>
      <trkpt lat="42.10192" lon="9.16232">
        <ele>1544.642</ele>
        <time>2015-07-02T08:39:32Z</time>
      </trkpt>
      <trkpt lat="42.10186" lon="9.16227">
        <ele>1544.964</ele>
        <time>2015-07-02T08:39:43Z</time>
      </trkpt>
      <trkpt lat="42.10186" lon="9.16227">
        <ele>1544.448</ele>
        <time>2015-07-02T08:39:44Z</time>
      </trkpt>
      <trkpt lat="42.10181" lon="9.16215">
        <ele>1545.168</ele>
        <time>2015-07-02T08:39:55Z</time>
      </trkpt>
      <trkpt lat="42.10182" lon="9.16212">
        <ele>1545.337</ele>
        <time>2015-07-02T08:39:56Z</time>
      </trkpt>
      <trkpt lat="42.10177" lon="9.16198">
        <ele>1545.078</ele>
        <time>2015-07-02T08:40:05Z</time>
      </trkpt>
      <trkpt lat="42.10163" lon="9.16189">
        <ele>1543.733</ele>
        <time>2015-07-02T08:40:20Z</time>
      </trkpt>
      <trkpt lat="42.10147" lon="9.1619">
        <ele>1543.857</ele>
        <time>2015-07-02T08:40:37Z</time>
      </trkpt>
      <trkpt lat="42.10143" lon="9.16191">
        <ele>1543.824</ele>
        <time>2015-07-02T08:40:42Z</time>
      </trkpt>
      <trkpt lat="42.10126" lon="9.16203">
        <ele>1543.265</ele>
        <time>2015-07-02T08:40:59Z</time>
      </trkpt>
      <trkpt lat="42.10117" lon="9.16199">
        <ele>1543.288</ele>
        <time>2015-07-02T08:41:18Z</time>
      </trkpt>
      <trkpt lat="42.10115" lon="9.16196">
        <ele>1543.577</ele>
        <time>2015-07-02T08:41:20Z</time>
      </trkpt>
      <trkpt lat="42.1011" lon="9.16192">
        <ele>1543.284</ele>
        <time>2015-07-02T08:41:26Z</time>
      </trkpt>
      <trkpt lat="42.10105" lon="9.16187">
        <ele>1543.3</ele>
        <time>2015-07-02T08:41:31Z</time>
      </trkpt>
      <trkpt lat="42.10103" lon="9.16178">
        <ele>1544.046</ele>
        <time>2015-07-02T08:41:38Z</time>
      </trkpt>
      <trkpt lat="42.10099" lon="9.16169">
        <ele>1545.238</ele>
        <time>2015-07-02T08:41:50Z</time>
      </trkpt>
      <trkpt lat="42.10093" lon="9.16165">
        <ele>1544.043</ele>
        <time>2015-07-02T08:42:01Z</time>
      </trkpt>
      <trkpt lat="42.10096" lon="9.16156">
        <ele>1543.677</ele>
        <time>2015-07-02T08:42:18Z</time>
      </trkpt>
      <trkpt lat="42.10097" lon="9.16151">
        <ele>1543.017</ele>
        <time>2015-07-02T08:42:35Z</time>
      </trkpt>
      <trkpt lat="42.10086" lon="9.16133">
        <ele>1543.438</ele>
        <time>2015-07-02T08:42:54Z</time>
      </trkpt>
      <trkpt lat="42.10083" lon="9.16119">
        <ele>1542.984</ele>
        <time>2015-07-02T08:43:08Z</time>
      </trkpt>
      <trkpt lat="42.10082" lon="9.16102">
        <ele>1542.866</ele>
        <time>2015-07-02T08:43:21Z</time>
      </trkpt>
      <trkpt lat="42.1008" lon="9.16087">
        <ele>1544.649</ele>
        <time>2015-07-02T08:43:35Z</time>
      </trkpt>
      <trkpt lat="42.1008" lon="9.16074">
        <ele>1544.352</ele>
        <time>2015-07-02T08:43:47Z</time>
      </trkpt>
      <trkpt lat="42.10077" lon="9.16059">
        <ele>1543.737</ele>
        <time>2015-07-02T08:44:02Z</time>
      </trkpt>
      <trkpt lat="42.10077" lon="9.16039">
        <ele>1543.742</ele>
        <time>2015-07-02T08:44:16Z</time>
      </trkpt>
      <trkpt lat="42.10077" lon="9.16038">
        <ele>1543.396</ele>
        <time>2015-07-02T08:44:17Z</time>
      </trkpt>
      <trkpt lat="42.10076" lon="9.16017">
        <ele>1542.795</ele>
        <time>2015-07-02T08:44:29Z</time>
      </trkpt>
      <trkpt lat="42.10074" lon="9.16003">
        <ele>1542.531</ele>
        <time>2015-07-02T08:44:38Z</time>
      </trkpt>
      <trkpt lat="42.10074" lon="9.15988">
        <ele>1543.064</ele>
        <time>2015-07-02T08:44:48Z</time>
      </trkpt>
      <trkpt lat="42.10072" lon="9.15971">
        <ele>1542.001</ele>
        <time>2015-07-02T08:44:59Z</time>
      </trkpt>
      <trkpt lat="42.10072" lon="9.1596">
        <ele>1542.321</ele>
        <time>2015-07-02T08:45:09Z</time>
      </trkpt>
      <trkpt lat="42.10072" lon="9.1595">
        <ele>1544.182</ele>
        <time>2015-07-02T08:45:28Z</time>
      </trkpt>
      <trkpt lat="42.10064" lon="9.15938">
        <ele>1543.653</ele>
        <time>2015-07-02T08:45:40Z</time>
      </trkpt>
      <trkpt lat="42.10056" lon="9.15938">
        <ele>1542.513</ele>
        <time>2015-07-02T08:45:49Z</time>
      </trkpt>
      <trkpt lat="42.10048" lon="9.15922">
        <ele>1542.46</ele>
        <time>2015-07-02T08:46:01Z</time>
      </trkpt>
      <trkpt lat="42.10046" lon="9.15921">
        <ele>1542.078</ele>
        <time>2015-07-02T08:46:03Z</time>
      </trkpt>
      <trkpt lat="42.10045" lon="9.15919">
        <ele>1542.079</ele>
        <time>2015-07-02T08:46:05Z</time>
      </trkpt>
      <trkpt lat="42.10036" lon="9.15901">
        <ele>1542.098</ele>
        <time>2015-07-02T08:46:20Z</time>
      </trkpt>
      <trkpt lat="42.10033" lon="9.15889">
        <ele>1541.439</ele>
        <time>2015-07-02T08:46:32Z</time>
      </trkpt>
      <trkpt lat="42.1003" lon="9.15875">
        <ele>1541.477</ele>
        <time>2015-07-02T08:46:43Z</time>
      </trkpt>
      <trkpt lat="42.10027" lon="9.15859">
        <ele>1541.137</ele>
        <time>2015-07-02T08:46:56Z</time>
      </trkpt>
      <trkpt lat="42.10022" lon="9.15864">
        <ele>1541.157</ele>
        <time>2015-07-02T08:47:05Z</time>
      </trkpt>
      <trkpt lat="42.10005" lon="9.15879">
        <ele>1542.5</ele>
        <time>2015-07-02T08:47:23Z</time>
      </trkpt>
      <trkpt lat="42.09996" lon="9.15861">
        <ele>1543.999</ele>
        <time>2015-07-02T08:47:40Z</time>
      </trkpt>
      <trkpt lat="42.09994" lon="9.15844">
        <ele>1544.3</ele>
        <time>2015-07-02T08:47:48Z</time>
      </trkpt>
      <trkpt lat="42.09987" lon="9.15835">
        <ele>1545.138</ele>
        <time>2015-07-02T08:48:02Z</time>
      </trkpt>
      <trkpt lat="42.09977" lon="9.15839">
        <ele>1545.011</ele>
        <time>2015-07-02T08:48:13Z</time>
      </trkpt>
      <trkpt lat="42.09971" lon="9.1583">
        <ele>1545.834</ele>
        <time>2015-07-02T08:48:22Z</time>
      </trkpt>
      <trkpt lat="42.09961" lon="9.15827">
        <ele>1545.523</ele>
        <time>2015-07-02T08:48:34Z</time>
      </trkpt>
      <trkpt lat="42.09952" lon="9.15822">
        <ele>1546.149</ele>
        <time>2015-07-02T08:48:45Z</time>
      </trkpt>
      <trkpt lat="42.09941" lon="9.15816">
        <ele>1546.953</ele>
        <time>2015-07-02T08:48:58Z</time>
      </trkpt>
      <trkpt lat="42.09934" lon="9.15799">
        <ele>1548.489</ele>
        <time>2015-07-02T08:49:10Z</time>
      </trkpt>
      <trkpt lat="42.09928" lon="9.15794">
        <ele>1548.427</ele>
        <time>2015-07-02T08:49:19Z</time>
      </trkpt>
      <trkpt lat="42.09921" lon="9.15786">
        <ele>1549.023</ele>
        <time>2015-07-02T08:49:29Z</time>
      </trkpt>
      <trkpt lat="42.09915" lon="9.1579">
        <ele>1548.877</ele>
        <time>2015-07-02T08:49:34Z</time>
      </trkpt>
      <trkpt lat="42.09905" lon="9.15771">
        <ele>1550.041</ele>
        <time>2015-07-02T08:49:52Z</time>
      </trkpt>
      <trkpt lat="42.09897" lon="9.1576">
        <ele>1549.828</ele>
        <time>2015-07-02T08:50:02Z</time>
      </trkpt>
      <trkpt lat="42.09891" lon="9.15747">
        <ele>1550.029</ele>
        <time>2015-07-02T08:50:12Z</time>
      </trkpt>
      <trkpt lat="42.09884" lon="9.15743">
        <ele>1549.219</ele>
        <time>2015-07-02T08:50:21Z</time>
      </trkpt>
      <trkpt lat="42.09877" lon="9.15729">
        <ele>1549.19</ele>
        <time>2015-07-02T08:50:32Z</time>
      </trkpt>
      <trkpt lat="42.09874" lon="9.15731">
        <ele>1548.969</ele>
        <time>2015-07-02T08:50:34Z</time>
      </trkpt>
      <trkpt lat="42.0987" lon="9.15727">
        <ele>1549.109</ele>
        <time>2015-07-02T08:50:40Z</time>
      </trkpt>
      <trkpt lat="42.0986" lon="9.15713">
        <ele>1548.167</ele>
        <time>2015-07-02T08:50:53Z</time>
      </trkpt>
      <trkpt lat="42.09849" lon="9.15709">
        <ele>1547.169</ele>
        <time>2015-07-02T08:51:07Z</time>
      </trkpt>
      <trkpt lat="42.09839" lon="9.157">
        <ele>1546.22</ele>
        <time>2015-07-02T08:51:20Z</time>
      </trkpt>
      <trkpt lat="42.09829" lon="9.1569">
        <ele>1545.206</ele>
        <time>2015-07-02T08:51:33Z</time>
      </trkpt>
      <trkpt lat="42.09828" lon="9.15689">
        <ele>1544.866</ele>
        <time>2015-07-02T08:51:34Z</time>
      </trkpt>
      <trkpt lat="42.09818" lon="9.1567">
        <ele>1544.284</ele>
        <time>2015-07-02T08:51:49Z</time>
      </trkpt>
      <trkpt lat="42.09818" lon="9.15655">
        <ele>1544.496</ele>
        <time>2015-07-02T08:51:58Z</time>
      </trkpt>
      <trkpt lat="42.09816" lon="9.15634">
        <ele>1545.144</ele>
        <time>2015-07-02T08:52:13Z</time>
      </trkpt>
      <trkpt lat="42.09816" lon="9.15618">
        <ele>1544.169</ele>
        <time>2015-07-02T08:52:24Z</time>
      </trkpt>
      <trkpt lat="42.0981" lon="9.15608">
        <ele>1545.446</ele>
        <time>2015-07-02T08:52:37Z</time>
      </trkpt>
      <trkpt lat="42.09802" lon="9.15601">
        <ele>1545.93</ele>
        <time>2015-07-02T08:52:51Z</time>
      </trkpt>
      <trkpt lat="42.09797" lon="9.15599">
        <ele>1546.257</ele>
        <time>2015-07-02T08:52:59Z</time>
      </trkpt>
      <trkpt lat="42.09786" lon="9.15591">
        <ele>1547.579</ele>
        <time>2015-07-02T08:53:13Z</time>
      </trkpt>
      <trkpt lat="42.09776" lon="9.15587">
        <ele>1546.946</ele>
        <time>2015-07-02T08:53:26Z</time>
      </trkpt>
      <trkpt lat="42.09768" lon="9.15588">
        <ele>1547.873</ele>
        <time>2015-07-02T08:53:39Z</time>
      </trkpt>
      <trkpt lat="42.09761" lon="9.15587">
        <ele>1549.423</ele>
        <time>2015-07-02T08:53:48Z</time>
      </trkpt>
      <trkpt lat="42.09754" lon="9.15575">
        <ele>1550.45</ele>
        <time>2015-07-02T08:53:59Z</time>
      </trkpt>
      <trkpt lat="42.0975" lon="9.15544">
        <ele>1551.77</ele>
        <time>2015-07-02T08:54:19Z</time>
      </trkpt>
      <trkpt lat="42.09744" lon="9.15529">
        <ele>1553.165</ele>
        <time>2015-07-02T08:54:33Z</time>
      </trkpt>
      <trkpt lat="42.09741" lon="9.15525">
        <ele>1549.936</ele>
        <time>2015-07-02T08:54:52Z</time>
      </trkpt>
      <trkpt lat="42.09741" lon="9.15525">
        <ele>1550.498</ele>
        <time>2015-07-02T08:54:53Z</time>
      </trkpt>
      <trkpt lat="42.09736" lon="9.15542">
        <ele>1549.81</ele>
        <time>2015-07-02T08:55:06Z</time>
      </trkpt>
      <trkpt lat="42.09732" lon="9.15546">
        <ele>1550.421</ele>
        <time>2015-07-02T08:55:21Z</time>
      </trkpt>
      <trkpt lat="42.0974" lon="9.15547">
        <ele>1555.065</ele>
        <time>2015-07-02T08:55:53Z</time>
      </trkpt>
      <trkpt lat="42.0974" lon="9.15548">
        <ele>1552.229</ele>
        <time>2015-07-02T08:55:54Z</time>
      </trkpt>
      <trkpt lat="42.0974" lon="9.15543">
        <ele>1552.004</ele>
        <time>2015-07-02T08:56:31Z</time>
      </trkpt>
      <trkpt lat="42.0974" lon="9.1554">
        <ele>1552.75</ele>
        <time>2015-07-02T08:57:07Z</time>
      </trkpt>
      <trkpt lat="42.09731" lon="9.15537">
        <ele>1554.394</ele>
        <time>2015-07-02T08:59:46Z</time>
      </trkpt>
      <trkpt lat="42.09741" lon="9.15538">
        <ele>1555.739</ele>
        <time>2015-07-02T09:00:17Z</time>
      </trkpt>
      <trkpt lat="42.09741" lon="9.1553">
        <ele>1555.469</ele>
        <time>2015-07-02T09:00:45Z</time>
      </trkpt>
      <trkpt lat="42.09735" lon="9.15547">
        <ele>1555.525</ele>
        <time>2015-07-02T09:01:11Z</time>
      </trkpt>
      <trkpt lat="42.09732" lon="9.1553">
        <ele>1556.01</ele>
        <time>2015-07-02T09:01:22Z</time>
      </trkpt>
      <trkpt lat="42.09723" lon="9.15527">
        <ele>1556.425</ele>
        <time>2015-07-02T09:01:42Z</time>
      </trkpt>
      <trkpt lat="42.09719" lon="9.15522">
        <ele>1557.196</ele>
        <time>2015-07-02T09:01:57Z</time>
      </trkpt>
      <trkpt lat="42.09712" lon="9.15524">
        <ele>1557.665</ele>
        <time>2015-07-02T09:02:04Z</time>
      </trkpt>
      <trkpt lat="42.09698" lon="9.15522">
        <ele>1557.342</ele>
        <time>2015-07-02T09:02:20Z</time>
      </trkpt>
      <trkpt lat="42.09683" lon="9.1552">
        <ele>1558.201</ele>
        <time>2015-07-02T09:02:38Z</time>
      </trkpt>
      <trkpt lat="42.09682" lon="9.15519">
        <ele>1558.277</ele>
        <time>2015-07-02T09:02:40Z</time>
      </trkpt>
      <trkpt lat="42.0967" lon="9.15515">
        <ele>1558.828</ele>
        <time>2015-07-02T09:02:56Z</time>
      </trkpt>
      <trkpt lat="42.0966" lon="9.15507">
        <ele>1560.462</ele>
        <time>2015-07-02T09:03:12Z</time>
      </trkpt>
      <trkpt lat="42.09659" lon="9.15496">
        <ele>1559.976</ele>
        <time>2015-07-02T09:03:23Z</time>
      </trkpt>
      <trkpt lat="42.09657" lon="9.15481">
        <ele>1559.632</ele>
        <time>2015-07-02T09:03:36Z</time>
      </trkpt>
      <trkpt lat="42.09654" lon="9.15456">
        <ele>1560.706</ele>
        <time>2015-07-02T09:03:56Z</time>
      </trkpt>
      <trkpt lat="42.09648" lon="9.15445">
        <ele>1560.868</ele>
        <time>2015-07-02T09:04:09Z</time>
      </trkpt>
      <trkpt lat="42.09641" lon="9.15435">
        <ele>1560.764</ele>
        <time>2015-07-02T09:04:21Z</time>
      </trkpt>
      <trkpt lat="42.09624" lon="9.15435">
        <ele>1560.46</ele>
        <time>2015-07-02T09:04:38Z</time>
      </trkpt>
      <trkpt lat="42.09608" lon="9.15432">
        <ele>1560.651</ele>
        <time>2015-07-02T09:05:06Z</time>
      </trkpt>
      <trkpt lat="42.09594" lon="9.15433">
        <ele>1559.97</ele>
        <time>2015-07-02T09:05:17Z</time>
      </trkpt>
      <trkpt lat="42.09584" lon="9.15426">
        <ele>1561.3</ele>
        <time>2015-07-02T09:05:27Z</time>
      </trkpt>
      <trkpt lat="42.09573" lon="9.15425">
        <ele>1561.153</ele>
        <time>2015-07-02T09:05:37Z</time>
      </trkpt>
      <trkpt lat="42.09561" lon="9.15417">
        <ele>1561.131</ele>
        <time>2015-07-02T09:05:51Z</time>
      </trkpt>
      <trkpt lat="42.0956" lon="9.15417">
        <ele>1561.946</ele>
        <time>2015-07-02T09:05:52Z</time>
      </trkpt>
      <trkpt lat="42.09551" lon="9.1542">
        <ele>1562.437</ele>
        <time>2015-07-02T09:05:58Z</time>
      </trkpt>
      <trkpt lat="42.09544" lon="9.15406">
        <ele>1563.14</ele>
        <time>2015-07-02T09:06:11Z</time>
      </trkpt>
      <trkpt lat="42.09536" lon="9.15399">
        <ele>1563.946</ele>
        <time>2015-07-02T09:06:23Z</time>
      </trkpt>
      <trkpt lat="42.0953" lon="9.15397">
        <ele>1563.929</ele>
        <time>2015-07-02T09:06:38Z</time>
      </trkpt>
      <trkpt lat="42.0953" lon="9.15372">
        <ele>1563.159</ele>
        <time>2015-07-02T09:07:00Z</time>
      </trkpt>
      <trkpt lat="42.09525" lon="9.15396">
        <ele>1563.783</ele>
        <time>2015-07-02T09:07:41Z</time>
      </trkpt>
      <trkpt lat="42.09516" lon="9.15396">
        <ele>1563.033</ele>
        <time>2015-07-02T09:08:10Z</time>
      </trkpt>
      <trkpt lat="42.09511" lon="9.15394">
        <ele>1563.975</ele>
        <time>2015-07-02T09:08:24Z</time>
      </trkpt>
      <trkpt lat="42.09508" lon="9.15397">
        <ele>1562.779</ele>
        <time>2015-07-02T09:08:42Z</time>
      </trkpt>
      <trkpt lat="42.09517" lon="9.154">
        <ele>1560.747</ele>
        <time>2015-07-02T09:09:33Z</time>
      </trkpt>
      <trkpt lat="42.09505" lon="9.15418">
        <ele>1561.644</ele>
        <time>2015-07-02T09:09:44Z</time>
      </trkpt>
      <trkpt lat="42.09499" lon="9.15427">
        <ele>1561.406</ele>
        <time>2015-07-02T09:09:55Z</time>
      </trkpt>
      <trkpt lat="42.09497" lon="9.15435">
        <ele>1561.57</ele>
        <time>2015-07-02T09:10:01Z</time>
      </trkpt>
      <trkpt lat="42.09491" lon="9.15444">
        <ele>1560.59</ele>
        <time>2015-07-02T09:10:13Z</time>
      </trkpt>
      <trkpt lat="42.09488" lon="9.15467">
        <ele>1557.578</ele>
        <time>2015-07-02T09:10:45Z</time>
      </trkpt>
      <trkpt lat="42.09479" lon="9.15483">
        <ele>1555.833</ele>
        <time>2015-07-02T09:10:59Z</time>
      </trkpt>
      <trkpt lat="42.09474" lon="9.15498">
        <ele>1554.691</ele>
        <time>2015-07-02T09:11:10Z</time>
      </trkpt>
      <trkpt lat="42.09471" lon="9.1552">
        <ele>1552.785</ele>
        <time>2015-07-02T09:11:26Z</time>
      </trkpt>
      <trkpt lat="42.09467" lon="9.15533">
        <ele>1551.44</ele>
        <time>2015-07-02T09:11:39Z</time>
      </trkpt>
      <trkpt lat="42.09463" lon="9.15543">
        <ele>1549.73</ele>
        <time>2015-07-02T09:11:52Z</time>
      </trkpt>
      <trkpt lat="42.09459" lon="9.15553">
        <ele>1547.666</ele>
        <time>2015-07-02T09:12:05Z</time>
      </trkpt>
      <trkpt lat="42.09453" lon="9.15561">
        <ele>1546.803</ele>
        <time>2015-07-02T09:12:17Z</time>
      </trkpt>
      <trkpt lat="42.09445" lon="9.15573">
        <ele>1543.438</ele>
        <time>2015-07-02T09:12:34Z</time>
      </trkpt>
      <trkpt lat="42.0944" lon="9.15584">
        <ele>1541.798</ele>
        <time>2015-07-02T09:12:49Z</time>
      </trkpt>
      <trkpt lat="42.09435" lon="9.15589">
        <ele>1541.289</ele>
        <time>2015-07-02T09:13:00Z</time>
      </trkpt>
      <trkpt lat="42.09431" lon="9.15603">
        <ele>1539.777</ele>
        <time>2015-07-02T09:13:12Z</time>
      </trkpt>
      <trkpt lat="42.09426" lon="9.15618">
        <ele>1537.783</ele>
        <time>2015-07-02T09:13:27Z</time>
      </trkpt>
      <trkpt lat="42.0941" lon="9.15642">
        <ele>1534.861</ele>
        <time>2015-07-02T09:13:51Z</time>
      </trkpt>
      <trkpt lat="42.09402" lon="9.15652">
        <ele>1533.669</ele>
        <time>2015-07-02T09:14:05Z</time>
      </trkpt>
      <trkpt lat="42.09397" lon="9.15662">
        <ele>1532.638</ele>
        <time>2015-07-02T09:14:10Z</time>
      </trkpt>
      <trkpt lat="42.09382" lon="9.15666">
        <ele>1531.86</ele>
        <time>2015-07-02T09:14:23Z</time>
      </trkpt>
      <trkpt lat="42.09372" lon="9.15671">
        <ele>1530.461</ele>
        <time>2015-07-02T09:14:36Z</time>
      </trkpt>
      <trkpt lat="42.09367" lon="9.15675">
        <ele>1529.175</ele>
        <time>2015-07-02T09:14:45Z</time>
      </trkpt>
      <trkpt lat="42.09357" lon="9.15683">
        <ele>1525.932</ele>
        <time>2015-07-02T09:15:08Z</time>
      </trkpt>
      <trkpt lat="42.0934" lon="9.15706">
        <ele>1523.726</ele>
        <time>2015-07-02T09:15:33Z</time>
      </trkpt>
      <trkpt lat="42.09331" lon="9.15711">
        <ele>1522.144</ele>
        <time>2015-07-02T09:15:52Z</time>
      </trkpt>
      <trkpt lat="42.09316" lon="9.15719">
        <ele>1519.842</ele>
        <time>2015-07-02T09:16:08Z</time>
      </trkpt>
      <trkpt lat="42.09305" lon="9.15725">
        <ele>1518.451</ele>
        <time>2015-07-02T09:16:24Z</time>
      </trkpt>
      <trkpt lat="42.09295" lon="9.15733">
        <ele>1517.531</ele>
        <time>2015-07-02T09:16:39Z</time>
      </trkpt>
      <trkpt lat="42.09282" lon="9.15743">
        <ele>1516.099</ele>
        <time>2015-07-02T09:16:51Z</time>
      </trkpt>
      <trkpt lat="42.09276" lon="9.1575">
        <ele>1515.272</ele>
        <time>2015-07-02T09:17:01Z</time>
      </trkpt>
      <trkpt lat="42.0927" lon="9.15762">
        <ele>1513.567</ele>
        <time>2015-07-02T09:17:15Z</time>
      </trkpt>
      <trkpt lat="42.09267" lon="9.15764">
        <ele>1514.002</ele>
        <time>2015-07-02T09:17:17Z</time>
      </trkpt>
      <trkpt lat="42.09259" lon="9.15776">
        <ele>1511.809</ele>
        <time>2015-07-02T09:17:31Z</time>
      </trkpt>
      <trkpt lat="42.09245" lon="9.1579">
        <ele>1508.695</ele>
        <time>2015-07-02T09:17:48Z</time>
      </trkpt>
      <trkpt lat="42.09229" lon="9.1581">
        <ele>1507.291</ele>
        <time>2015-07-02T09:18:11Z</time>
      </trkpt>
      <trkpt lat="42.09215" lon="9.15818">
        <ele>1506.754</ele>
        <time>2015-07-02T09:18:22Z</time>
      </trkpt>
      <trkpt lat="42.09213" lon="9.15817">
        <ele>1505.271</ele>
        <time>2015-07-02T09:18:25Z</time>
      </trkpt>
      <trkpt lat="42.09203" lon="9.15815">
        <ele>1503.904</ele>
        <time>2015-07-02T09:18:47Z</time>
      </trkpt>
      <trkpt lat="42.09187" lon="9.15816">
        <ele>1503.17</ele>
        <time>2015-07-02T09:19:02Z</time>
      </trkpt>
      <trkpt lat="42.0918" lon="9.15818">
        <ele>1502.39</ele>
        <time>2015-07-02T09:19:07Z</time>
      </trkpt>
      <trkpt lat="42.0916" lon="9.15818">
        <ele>1502.232</ele>
        <time>2015-07-02T09:19:24Z</time>
      </trkpt>
      <trkpt lat="42.09148" lon="9.15819">
        <ele>1501.348</ele>
        <time>2015-07-02T09:19:36Z</time>
      </trkpt>
      <trkpt lat="42.09141" lon="9.1581">
        <ele>1501.95</ele>
        <time>2015-07-02T09:19:48Z</time>
      </trkpt>
      <trkpt lat="42.09125" lon="9.15807">
        <ele>1502.21</ele>
        <time>2015-07-02T09:20:02Z</time>
      </trkpt>
      <trkpt lat="42.09115" lon="9.15801">
        <ele>1501.369</ele>
        <time>2015-07-02T09:20:14Z</time>
      </trkpt>
      <trkpt lat="42.09109" lon="9.15794">
        <ele>1499.638</ele>
        <time>2015-07-02T09:20:25Z</time>
      </trkpt>
      <trkpt lat="42.09101" lon="9.15782">
        <ele>1497.308</ele>
        <time>2015-07-02T09:20:41Z</time>
      </trkpt>
      <trkpt lat="42.09093" lon="9.15767">
        <ele>1496.074</ele>
        <time>2015-07-02T09:20:56Z</time>
      </trkpt>
      <trkpt lat="42.09085" lon="9.15757">
        <ele>1495.284</ele>
        <time>2015-07-02T09:21:08Z</time>
      </trkpt>
      <trkpt lat="42.09086" lon="9.15736">
        <ele>1493.934</ele>
        <time>2015-07-02T09:21:19Z</time>
      </trkpt>
      <trkpt lat="42.09082" lon="9.15724">
        <ele>1492.796</ele>
        <time>2015-07-02T09:21:30Z</time>
      </trkpt>
      <trkpt lat="42.09079" lon="9.15703">
        <ele>1492.562</ele>
        <time>2015-07-02T09:21:45Z</time>
      </trkpt>
      <trkpt lat="42.09073" lon="9.15687">
        <ele>1492.361</ele>
        <time>2015-07-02T09:21:58Z</time>
      </trkpt>
      <trkpt lat="42.09075" lon="9.15666">
        <ele>1492.455</ele>
        <time>2015-07-02T09:22:13Z</time>
      </trkpt>
      <trkpt lat="42.09077" lon="9.15651">
        <ele>1493.436</ele>
        <time>2015-07-02T09:22:30Z</time>
      </trkpt>
      <trkpt lat="42.09079" lon="9.15632">
        <ele>1493.564</ele>
        <time>2015-07-02T09:22:46Z</time>
      </trkpt>
      <trkpt lat="42.09081" lon="9.15619">
        <ele>1493.15</ele>
        <time>2015-07-02T09:22:59Z</time>
      </trkpt>
      <trkpt lat="42.09085" lon="9.156">
        <ele>1491.077</ele>
        <time>2015-07-02T09:23:14Z</time>
      </trkpt>
      <trkpt lat="42.09088" lon="9.15582">
        <ele>1490.126</ele>
        <time>2015-07-02T09:23:29Z</time>
      </trkpt>
      <trkpt lat="42.09089" lon="9.15572">
        <ele>1490.218</ele>
        <time>2015-07-02T09:23:37Z</time>
      </trkpt>
      <trkpt lat="42.09093" lon="9.15557">
        <ele>1489.559</ele>
        <time>2015-07-02T09:23:52Z</time>
      </trkpt>
      <trkpt lat="42.09096" lon="9.15541">
        <ele>1488.265</ele>
        <time>2015-07-02T09:24:08Z</time>
      </trkpt>
      <trkpt lat="42.09095" lon="9.15534">
        <ele>1486.957</ele>
        <time>2015-07-02T09:24:26Z</time>
      </trkpt>
      <trkpt lat="42.09094" lon="9.15512">
        <ele>1486.592</ele>
        <time>2015-07-02T09:24:40Z</time>
      </trkpt>
      <trkpt lat="42.09098" lon="9.15493">
        <ele>1484.749</ele>
        <time>2015-07-02T09:24:55Z</time>
      </trkpt>
      <trkpt lat="42.09095" lon="9.15479">
        <ele>1483.861</ele>
        <time>2015-07-02T09:25:07Z</time>
      </trkpt>
      <trkpt lat="42.09091" lon="9.1546">
        <ele>1482.469</ele>
        <time>2015-07-02T09:25:19Z</time>
      </trkpt>
      <trkpt lat="42.09093" lon="9.15447">
        <ele>1481.372</ele>
        <time>2015-07-02T09:25:32Z</time>
      </trkpt>
      <trkpt lat="42.09086" lon="9.15429">
        <ele>1479.896</ele>
        <time>2015-07-02T09:25:49Z</time>
      </trkpt>
      <trkpt lat="42.09087" lon="9.15418">
        <ele>1480.065</ele>
        <time>2015-07-02T09:25:59Z</time>
      </trkpt>
      <trkpt lat="42.09089" lon="9.15404">
        <ele>1479.077</ele>
        <time>2015-07-02T09:26:12Z</time>
      </trkpt>
      <trkpt lat="42.09085" lon="9.15388">
        <ele>1478.451</ele>
        <time>2015-07-02T09:26:24Z</time>
      </trkpt>
      <trkpt lat="42.0908" lon="9.15375">
        <ele>1476.343</ele>
        <time>2015-07-02T09:26:37Z</time>
      </trkpt>
      <trkpt lat="42.09083" lon="9.15358">
        <ele>1475.685</ele>
        <time>2015-07-02T09:26:49Z</time>
      </trkpt>
      <trkpt lat="42.09079" lon="9.15351">
        <ele>1474.898</ele>
        <time>2015-07-02T09:26:56Z</time>
      </trkpt>
      <trkpt lat="42.09076" lon="9.15345">
        <ele>1475.398</ele>
        <time>2015-07-02T09:27:01Z</time>
      </trkpt>
      <trkpt lat="42.09066" lon="9.15334">
        <ele>1473.989</ele>
        <time>2015-07-02T09:27:15Z</time>
      </trkpt>
      <trkpt lat="42.09062" lon="9.1532">
        <ele>1472.058</ele>
        <time>2015-07-02T09:27:27Z</time>
      </trkpt>
      <trkpt lat="42.09058" lon="9.15304">
        <ele>1469.719</ele>
        <time>2015-07-02T09:27:40Z</time>
      </trkpt>
      <trkpt lat="42.09058" lon="9.153">
        <ele>1468.882</ele>
        <time>2015-07-02T09:27:49Z</time>
      </trkpt>
      <trkpt lat="42.0905" lon="9.15306">
        <ele>1467.515</ele>
        <time>2015-07-02T09:28:02Z</time>
      </trkpt>
      <trkpt lat="42.09038" lon="9.15318">
        <ele>1466.619</ele>
        <time>2015-07-02T09:28:16Z</time>
      </trkpt>
      <trkpt lat="42.09036" lon="9.15331">
        <ele>1465.726</ele>
        <time>2015-07-02T09:28:32Z</time>
      </trkpt>
      <trkpt lat="42.09037" lon="9.15335">
        <ele>1465.045</ele>
        <time>2015-07-02T09:28:35Z</time>
      </trkpt>
      <trkpt lat="42.09042" lon="9.1535">
        <ele>1461.911</ele>
        <time>2015-07-02T09:28:48Z</time>
      </trkpt>
      <trkpt lat="42.09042" lon="9.15352">
        <ele>1461.898</ele>
        <time>2015-07-02T09:28:49Z</time>
      </trkpt>
      <trkpt lat="42.09041" lon="9.15361">
        <ele>1459.156</ele>
        <time>2015-07-02T09:29:05Z</time>
      </trkpt>
      <trkpt lat="42.0903" lon="9.15367">
        <ele>1458.062</ele>
        <time>2015-07-02T09:29:14Z</time>
      </trkpt>
      <trkpt lat="42.09021" lon="9.15357">
        <ele>1458.14</ele>
        <time>2015-07-02T09:29:27Z</time>
      </trkpt>
      <trkpt lat="42.09023" lon="9.15342">
        <ele>1457.159</ele>
        <time>2015-07-02T09:29:53Z</time>
      </trkpt>
      <trkpt lat="42.09012" lon="9.15349">
        <ele>1458.022</ele>
        <time>2015-07-02T09:30:08Z</time>
      </trkpt>
      <trkpt lat="42.08996" lon="9.15364">
        <ele>1458.804</ele>
        <time>2015-07-02T09:30:24Z</time>
      </trkpt>
      <trkpt lat="42.0899" lon="9.15373">
        <ele>1460.354</ele>
        <time>2015-07-02T09:30:38Z</time>
      </trkpt>
      <trkpt lat="42.08979" lon="9.15385">
        <ele>1459.922</ele>
        <time>2015-07-02T09:30:52Z</time>
      </trkpt>
      <trkpt lat="42.08967" lon="9.15384">
        <ele>1460.057</ele>
        <time>2015-07-02T09:31:10Z</time>
      </trkpt>
      <trkpt lat="42.08956" lon="9.15387">
        <ele>1462.764</ele>
        <time>2015-07-02T09:31:23Z</time>
      </trkpt>
      <trkpt lat="42.08955" lon="9.15388">
        <ele>1462.773</ele>
        <time>2015-07-02T09:31:25Z</time>
      </trkpt>
      <trkpt lat="42.08946" lon="9.15392">
        <ele>1463.353</ele>
        <time>2015-07-02T09:31:42Z</time>
      </trkpt>
      <trkpt lat="42.08934" lon="9.15395">
        <ele>1463.784</ele>
        <time>2015-07-02T09:31:56Z</time>
      </trkpt>
      <trkpt lat="42.08924" lon="9.154">
        <ele>1464.44</ele>
        <time>2015-07-02T09:32:11Z</time>
      </trkpt>
      <trkpt lat="42.08918" lon="9.154">
        <ele>1464.888</ele>
        <time>2015-07-02T09:32:23Z</time>
      </trkpt>
      <trkpt lat="42.08908" lon="9.15407">
        <ele>1464.911</ele>
        <time>2015-07-02T09:32:33Z</time>
      </trkpt>
      <trkpt lat="42.08897" lon="9.15412">
        <ele>1464.868</ele>
        <time>2015-07-02T09:32:43Z</time>
      </trkpt>
      <trkpt lat="42.08885" lon="9.15417">
        <ele>1464.889</ele>
        <time>2015-07-02T09:32:58Z</time>
      </trkpt>
      <trkpt lat="42.08869" lon="9.15425">
        <ele>1465.532</ele>
        <time>2015-07-02T09:33:13Z</time>
      </trkpt>
      <trkpt lat="42.08865" lon="9.1543">
        <ele>1466.731</ele>
        <time>2015-07-02T09:33:20Z</time>
      </trkpt>
      <trkpt lat="42.08857" lon="9.15439">
        <ele>1466.924</ele>
        <time>2015-07-02T09:33:36Z</time>
      </trkpt>
      <trkpt lat="42.08842" lon="9.15451">
        <ele>1465.25</ele>
        <time>2015-07-02T09:33:56Z</time>
      </trkpt>
      <trkpt lat="42.08834" lon="9.15468">
        <ele>1464.962</ele>
        <time>2015-07-02T09:34:14Z</time>
      </trkpt>
      <trkpt lat="42.08821" lon="9.1548">
        <ele>1465.907</ele>
        <time>2015-07-02T09:34:28Z</time>
      </trkpt>
      <trkpt lat="42.08811" lon="9.15492">
        <ele>1466.172</ele>
        <time>2015-07-02T09:34:44Z</time>
      </trkpt>
      <trkpt lat="42.08796" lon="9.155">
        <ele>1465.744</ele>
        <time>2015-07-02T09:35:01Z</time>
      </trkpt>
      <trkpt lat="42.08775" lon="9.15507">
        <ele>1466.374</ele>
        <time>2015-07-02T09:35:19Z</time>
      </trkpt>
      <trkpt lat="42.08764" lon="9.15518">
        <ele>1465.378</ele>
        <time>2015-07-02T09:35:35Z</time>
      </trkpt>
      <trkpt lat="42.08762" lon="9.1552">
        <ele>1465.066</ele>
        <time>2015-07-02T09:35:38Z</time>
      </trkpt>
      <trkpt lat="42.08752" lon="9.15534">
        <ele>1464.263</ele>
        <time>2015-07-02T09:35:52Z</time>
      </trkpt>
      <trkpt lat="42.08737" lon="9.15547">
        <ele>1463.104</ele>
        <time>2015-07-02T09:36:08Z</time>
      </trkpt>
      <trkpt lat="42.08723" lon="9.15562">
        <ele>1462.593</ele>
        <time>2015-07-02T09:36:25Z</time>
      </trkpt>
      <trkpt lat="42.0871" lon="9.15573">
        <ele>1463.441</ele>
        <time>2015-07-02T09:36:40Z</time>
      </trkpt>
      <trkpt lat="42.08702" lon="9.15584">
        <ele>1463.778</ele>
        <time>2015-07-02T09:36:54Z</time>
      </trkpt>
      <trkpt lat="42.0869" lon="9.15581">
        <ele>1464.46</ele>
        <time>2015-07-02T09:37:07Z</time>
      </trkpt>
      <trkpt lat="42.08676" lon="9.15572">
        <ele>1465.138</ele>
        <time>2015-07-02T09:37:22Z</time>
      </trkpt>
      <trkpt lat="42.08673" lon="9.1556">
        <ele>1465.45</ele>
        <time>2015-07-02T09:37:32Z</time>
      </trkpt>
      <trkpt lat="42.08659" lon="9.15544">
        <ele>1465.936</ele>
        <time>2015-07-02T09:37:49Z</time>
      </trkpt>
      <trkpt lat="42.08648" lon="9.15533">
        <ele>1465.482</ele>
        <time>2015-07-02T09:38:04Z</time>
      </trkpt>
      <trkpt lat="42.0864" lon="9.15516">
        <ele>1466.282</ele>
        <time>2015-07-02T09:38:17Z</time>
      </trkpt>
      <trkpt lat="42.08632" lon="9.15506">
        <ele>1466.189</ele>
        <time>2015-07-02T09:38:31Z</time>
      </trkpt>
      <trkpt lat="42.08626" lon="9.15505">
        <ele>1465.974</ele>
        <time>2015-07-02T09:38:36Z</time>
      </trkpt>
      <trkpt lat="42.08618" lon="9.15497">
        <ele>1465.631</ele>
        <time>2015-07-02T09:38:46Z</time>
      </trkpt>
      <trkpt lat="42.08607" lon="9.15477">
        <ele>1465.29</ele>
        <time>2015-07-02T09:39:00Z</time>
      </trkpt>
      <trkpt lat="42.086" lon="9.15464">
        <ele>1464.664</ele>
        <time>2015-07-02T09:39:13Z</time>
      </trkpt>
      <trkpt lat="42.08606" lon="9.15447">
        <ele>1463.843</ele>
        <time>2015-07-02T09:39:31Z</time>
      </trkpt>
      <trkpt lat="42.08607" lon="9.15446">
        <ele>1464.608</ele>
        <time>2015-07-02T09:39:46Z</time>
      </trkpt>
      <trkpt lat="42.08604" lon="9.15446">
        <ele>1465.694</ele>
        <time>2015-07-02T09:40:01Z</time>
      </trkpt>
      <trkpt lat="42.08596" lon="9.15448">
        <ele>1466.513</ele>
        <time>2015-07-02T09:40:18Z</time>
      </trkpt>
      <trkpt lat="42.08587" lon="9.15447">
        <ele>1469.049</ele>
        <time>2015-07-02T09:40:35Z</time>
      </trkpt>
      <trkpt lat="42.08584" lon="9.15441">
        <ele>1469.967</ele>
        <time>2015-07-02T09:40:48Z</time>
      </trkpt>
      <trkpt lat="42.08576" lon="9.15441">
        <ele>1472.333</ele>
        <time>2015-07-02T09:41:06Z</time>
      </trkpt>
      <trkpt lat="42.08574" lon="9.15435">
        <ele>1474.523</ele>
        <time>2015-07-02T09:41:31Z</time>
      </trkpt>
      <trkpt lat="42.08573" lon="9.15432">
        <ele>1475.148</ele>
        <time>2015-07-02T09:42:07Z</time>
      </trkpt>
      <trkpt lat="42.08569" lon="9.15425">
        <ele>1476.722</ele>
        <time>2015-07-02T09:42:22Z</time>
      </trkpt>
      <trkpt lat="42.08557" lon="9.15421">
        <ele>1479.761</ele>
        <time>2015-07-02T09:42:42Z</time>
      </trkpt>
      <trkpt lat="42.08552" lon="9.15421">
        <ele>1480.379</ele>
        <time>2015-07-02T09:42:58Z</time>
      </trkpt>
      <trkpt lat="42.08543" lon="9.1542">
        <ele>1483.001</ele>
        <time>2015-07-02T09:43:15Z</time>
      </trkpt>
      <trkpt lat="42.0854" lon="9.15419">
        <ele>1485.024</ele>
        <time>2015-07-02T09:43:41Z</time>
      </trkpt>
      <trkpt lat="42.08525" lon="9.15418">
        <ele>1485.987</ele>
        <time>2015-07-02T09:43:59Z</time>
      </trkpt>
      <trkpt lat="42.08526" lon="9.15416">
        <ele>1488.212</ele>
        <time>2015-07-02T09:44:12Z</time>
      </trkpt>
      <trkpt lat="42.08527" lon="9.15412">
        <ele>1489.125</ele>
        <time>2015-07-02T09:44:27Z</time>
      </trkpt>
      <trkpt lat="42.0852" lon="9.15412">
        <ele>1490.373</ele>
        <time>2015-07-02T09:44:42Z</time>
      </trkpt>
      <trkpt lat="42.08515" lon="9.15413">
        <ele>1491.964</ele>
        <time>2015-07-02T09:44:59Z</time>
      </trkpt>
      <trkpt lat="42.08514" lon="9.15411">
        <ele>1494.18</ele>
        <time>2015-07-02T09:45:16Z</time>
      </trkpt>
      <trkpt lat="42.0851" lon="9.15413">
        <ele>1495.279</ele>
        <time>2015-07-02T09:45:33Z</time>
      </trkpt>
      <trkpt lat="42.08503" lon="9.15408">
        <ele>1496.393</ele>
        <time>2015-07-02T09:45:54Z</time>
      </trkpt>
      <trkpt lat="42.08498" lon="9.15407">
        <ele>1499.226</ele>
        <time>2015-07-02T09:46:10Z</time>
      </trkpt>
      <trkpt lat="42.08495" lon="9.15412">
        <ele>1500.602</ele>
        <time>2015-07-02T09:46:23Z</time>
      </trkpt>
      <trkpt lat="42.08496" lon="9.15414">
        <ele>1501.854</ele>
        <time>2015-07-02T09:46:39Z</time>
      </trkpt>
      <trkpt lat="42.08501" lon="9.15412">
        <ele>1503.123</ele>
        <time>2015-07-02T09:46:55Z</time>
      </trkpt>
      <trkpt lat="42.08496" lon="9.15408">
        <ele>1505.432</ele>
        <time>2015-07-02T09:47:15Z</time>
      </trkpt>
      <trkpt lat="42.0849" lon="9.15405">
        <ele>1507.057</ele>
        <time>2015-07-02T09:47:29Z</time>
      </trkpt>
      <trkpt lat="42.08487" lon="9.15402">
        <ele>1508.858</ele>
        <time>2015-07-02T09:47:43Z</time>
      </trkpt>
      <trkpt lat="42.08479" lon="9.15402">
        <ele>1509.061</ele>
        <time>2015-07-02T09:47:57Z</time>
      </trkpt>
      <trkpt lat="42.08478" lon="9.15397">
        <ele>1510.625</ele>
        <time>2015-07-02T09:48:13Z</time>
      </trkpt>
      <trkpt lat="42.0848" lon="9.15394">
        <ele>1512.083</ele>
        <time>2015-07-02T09:48:25Z</time>
      </trkpt>
      <trkpt lat="42.08482" lon="9.15392">
        <ele>1513.676</ele>
        <time>2015-07-02T09:48:42Z</time>
      </trkpt>
      <trkpt lat="42.08485" lon="9.15391">
        <ele>1515.165</ele>
        <time>2015-07-02T09:49:02Z</time>
      </trkpt>
      <trkpt lat="42.08482" lon="9.15386">
        <ele>1516.309</ele>
        <time>2015-07-02T09:49:18Z</time>
      </trkpt>
      <trkpt lat="42.08474" lon="9.15384">
        <ele>1518.441</ele>
        <time>2015-07-02T09:49:34Z</time>
      </trkpt>
      <trkpt lat="42.08475" lon="9.15382">
        <ele>1519.471</ele>
        <time>2015-07-02T09:49:49Z</time>
      </trkpt>
      <trkpt lat="42.0847" lon="9.1538">
        <ele>1521.934</ele>
        <time>2015-07-02T09:50:11Z</time>
      </trkpt>
      <trkpt lat="42.08463" lon="9.15385">
        <ele>1523.263</ele>
        <time>2015-07-02T09:50:26Z</time>
      </trkpt>
      <trkpt lat="42.08457" lon="9.15388">
        <ele>1524.104</ele>
        <time>2015-07-02T09:50:40Z</time>
      </trkpt>
      <trkpt lat="42.08454" lon="9.15391">
        <ele>1525.331</ele>
        <time>2015-07-02T09:50:55Z</time>
      </trkpt>
      <trkpt lat="42.08452" lon="9.15393">
        <ele>1527.929</ele>
        <time>2015-07-02T09:51:11Z</time>
      </trkpt>
      <trkpt lat="42.08445" lon="9.15394">
        <ele>1529.257</ele>
        <time>2015-07-02T09:51:28Z</time>
      </trkpt>
      <trkpt lat="42.0844" lon="9.15397">
        <ele>1530.943</ele>
        <time>2015-07-02T09:51:46Z</time>
      </trkpt>
      <trkpt lat="42.08438" lon="9.15401">
        <ele>1532.276</ele>
        <time>2015-07-02T09:52:02Z</time>
      </trkpt>
      <trkpt lat="42.08437" lon="9.15405">
        <ele>1532.622</ele>
        <time>2015-07-02T09:52:17Z</time>
      </trkpt>
      <trkpt lat="42.08435" lon="9.15409">
        <ele>1533.679</ele>
        <time>2015-07-02T09:52:32Z</time>
      </trkpt>
      <trkpt lat="42.0843" lon="9.15412">
        <ele>1536.135</ele>
        <time>2015-07-02T09:52:52Z</time>
      </trkpt>
      <trkpt lat="42.08421" lon="9.15412">
        <ele>1538.062</ele>
        <time>2015-07-02T09:53:15Z</time>
      </trkpt>
      <trkpt lat="42.08415" lon="9.15418">
        <ele>1540.1</ele>
        <time>2015-07-02T09:53:31Z</time>
      </trkpt>
      <trkpt lat="42.08412" lon="9.1542">
        <ele>1541.18</ele>
        <time>2015-07-02T09:53:49Z</time>
      </trkpt>
      <trkpt lat="42.08408" lon="9.15425">
        <ele>1541.518</ele>
        <time>2015-07-02T09:54:24Z</time>
      </trkpt>
      <trkpt lat="42.08402" lon="9.15427">
        <ele>1544.287</ele>
        <time>2015-07-02T09:54:43Z</time>
      </trkpt>
      <trkpt lat="42.084" lon="9.1543">
        <ele>1544.965</ele>
        <time>2015-07-02T09:54:59Z</time>
      </trkpt>
      <trkpt lat="42.08403" lon="9.15432">
        <ele>1546.148</ele>
        <time>2015-07-02T09:55:12Z</time>
      </trkpt>
      <trkpt lat="42.08394" lon="9.15432">
        <ele>1547.574</ele>
        <time>2015-07-02T09:55:30Z</time>
      </trkpt>
      <trkpt lat="42.08383" lon="9.15436">
        <ele>1548.792</ele>
        <time>2015-07-02T09:55:45Z</time>
      </trkpt>
      <trkpt lat="42.08381" lon="9.15441">
        <ele>1550.059</ele>
        <time>2015-07-02T09:56:02Z</time>
      </trkpt>
      <trkpt lat="42.08379" lon="9.15446">
        <ele>1551.273</ele>
        <time>2015-07-02T09:56:15Z</time>
      </trkpt>
      <trkpt lat="42.0837" lon="9.15449">
        <ele>1551.506</ele>
        <time>2015-07-02T09:56:31Z</time>
      </trkpt>
      <trkpt lat="42.08367" lon="9.15454">
        <ele>1551.162</ele>
        <time>2015-07-02T09:56:44Z</time>
      </trkpt>
      <trkpt lat="42.08363" lon="9.15456">
        <ele>1552.857</ele>
        <time>2015-07-02T09:56:57Z</time>
      </trkpt>
      <trkpt lat="42.08357" lon="9.1546">
        <ele>1554.802</ele>
        <time>2015-07-02T09:57:12Z</time>
      </trkpt>
      <trkpt lat="42.08353" lon="9.15465">
        <ele>1556.561</ele>
        <time>2015-07-02T09:57:27Z</time>
      </trkpt>
      <trkpt lat="42.08346" lon="9.15469">
        <ele>1557.019</ele>
        <time>2015-07-02T09:57:40Z</time>
      </trkpt>
      <trkpt lat="42.08342" lon="9.15474">
        <ele>1558.69</ele>
        <time>2015-07-02T09:57:56Z</time>
      </trkpt>
      <trkpt lat="42.08339" lon="9.15476">
        <ele>1560.493</ele>
        <time>2015-07-02T09:58:10Z</time>
      </trkpt>
      <trkpt lat="42.08335" lon="9.15482">
        <ele>1561.208</ele>
        <time>2015-07-02T09:58:25Z</time>
      </trkpt>
      <trkpt lat="42.08331" lon="9.15488">
        <ele>1563.278</ele>
        <time>2015-07-02T09:58:43Z</time>
      </trkpt>
      <trkpt lat="42.08328" lon="9.1549">
        <ele>1564.724</ele>
        <time>2015-07-02T09:59:00Z</time>
      </trkpt>
      <trkpt lat="42.08322" lon="9.15506">
        <ele>1563.365</ele>
        <time>2015-07-02T09:59:17Z</time>
      </trkpt>
      <trkpt lat="42.08319" lon="9.15517">
        <ele>1565.189</ele>
        <time>2015-07-02T09:59:32Z</time>
      </trkpt>
      <trkpt lat="42.08317" lon="9.15521">
        <ele>1566.635</ele>
        <time>2015-07-02T09:59:46Z</time>
      </trkpt>
      <trkpt lat="42.08314" lon="9.15525">
        <ele>1568.884</ele>
        <time>2015-07-02T10:00:03Z</time>
      </trkpt>
      <trkpt lat="42.08312" lon="9.15531">
        <ele>1569.795</ele>
        <time>2015-07-02T10:00:15Z</time>
      </trkpt>
      <trkpt lat="42.08308" lon="9.1554">
        <ele>1571.003</ele>
        <time>2015-07-02T10:00:30Z</time>
      </trkpt>
      <trkpt lat="42.08302" lon="9.15543">
        <ele>1571.851</ele>
        <time>2015-07-02T10:00:48Z</time>
      </trkpt>
      <trkpt lat="42.08296" lon="9.15546">
        <ele>1575.008</ele>
        <time>2015-07-02T10:01:04Z</time>
      </trkpt>
      <trkpt lat="42.08292" lon="9.15555">
        <ele>1575.75</ele>
        <time>2015-07-02T10:01:20Z</time>
      </trkpt>
      <trkpt lat="42.08285" lon="9.15566">
        <ele>1576.234</ele>
        <time>2015-07-02T10:01:37Z</time>
      </trkpt>
      <trkpt lat="42.08281" lon="9.15567">
        <ele>1577.437</ele>
        <time>2015-07-02T10:01:52Z</time>
      </trkpt>
      <trkpt lat="42.08276" lon="9.15572">
        <ele>1577.823</ele>
        <time>2015-07-02T10:02:07Z</time>
      </trkpt>
      <trkpt lat="42.08269" lon="9.15571">
        <ele>1580.557</ele>
        <time>2015-07-02T10:02:23Z</time>
      </trkpt>
      <trkpt lat="42.08265" lon="9.15574">
        <ele>1581.07</ele>
        <time>2015-07-02T10:02:37Z</time>
      </trkpt>
      <trkpt lat="42.0826" lon="9.15574">
        <ele>1582.927</ele>
        <time>2015-07-02T10:02:52Z</time>
      </trkpt>
      <trkpt lat="42.08258" lon="9.15575">
        <ele>1585.385</ele>
        <time>2015-07-02T10:03:08Z</time>
      </trkpt>
      <trkpt lat="42.08254" lon="9.1558">
        <ele>1585.892</ele>
        <time>2015-07-02T10:03:27Z</time>
      </trkpt>
      <trkpt lat="42.08248" lon="9.1558">
        <ele>1587.513</ele>
        <time>2015-07-02T10:03:41Z</time>
      </trkpt>
      <trkpt lat="42.08242" lon="9.15583">
        <ele>1587.82</ele>
        <time>2015-07-02T10:03:59Z</time>
      </trkpt>
      <trkpt lat="42.08238" lon="9.15584">
        <ele>1589.599</ele>
        <time>2015-07-02T10:04:11Z</time>
      </trkpt>
      <trkpt lat="42.08236" lon="9.15584">
        <ele>1590.603</ele>
        <time>2015-07-02T10:04:22Z</time>
      </trkpt>
      <trkpt lat="42.08231" lon="9.15589">
        <ele>1590.976</ele>
        <time>2015-07-02T10:04:37Z</time>
      </trkpt>
      <trkpt lat="42.08225" lon="9.15594">
        <ele>1590.45</ele>
        <time>2015-07-02T10:04:50Z</time>
      </trkpt>
      <trkpt lat="42.08221" lon="9.15595">
        <ele>1592.201</ele>
        <time>2015-07-02T10:05:05Z</time>
      </trkpt>
      <trkpt lat="42.08219" lon="9.15595">
        <ele>1593.53</ele>
        <time>2015-07-02T10:05:21Z</time>
      </trkpt>
      <trkpt lat="42.08213" lon="9.15599">
        <ele>1594.98</ele>
        <time>2015-07-02T10:05:33Z</time>
      </trkpt>
      <trkpt lat="42.08207" lon="9.15603">
        <ele>1595.101</ele>
        <time>2015-07-02T10:05:49Z</time>
      </trkpt>
      <trkpt lat="42.08197" lon="9.15611">
        <ele>1596.695</ele>
        <time>2015-07-02T10:06:07Z</time>
      </trkpt>
      <trkpt lat="42.08191" lon="9.1561">
        <ele>1597.892</ele>
        <time>2015-07-02T10:06:23Z</time>
      </trkpt>
      <trkpt lat="42.08185" lon="9.15615">
        <ele>1598.485</ele>
        <time>2015-07-02T10:06:37Z</time>
      </trkpt>
      <trkpt lat="42.08177" lon="9.15618">
        <ele>1600.392</ele>
        <time>2015-07-02T10:06:52Z</time>
      </trkpt>
      <trkpt lat="42.08171" lon="9.15622">
        <ele>1602.353</ele>
        <time>2015-07-02T10:07:06Z</time>
      </trkpt>
      <trkpt lat="42.08167" lon="9.15627">
        <ele>1604.187</ele>
        <time>2015-07-02T10:07:21Z</time>
      </trkpt>
      <trkpt lat="42.08162" lon="9.15637">
        <ele>1605.253</ele>
        <time>2015-07-02T10:07:37Z</time>
      </trkpt>
      <trkpt lat="42.08157" lon="9.15642">
        <ele>1604.968</ele>
        <time>2015-07-02T10:07:55Z</time>
      </trkpt>
      <trkpt lat="42.08151" lon="9.15644">
        <ele>1606.319</ele>
        <time>2015-07-02T10:08:20Z</time>
      </trkpt>
      <trkpt lat="42.0815" lon="9.15643">
        <ele>1607.049</ele>
        <time>2015-07-02T10:08:22Z</time>
      </trkpt>
      <trkpt lat="42.08144" lon="9.15643">
        <ele>1608.077</ele>
        <time>2015-07-02T10:08:41Z</time>
      </trkpt>
      <trkpt lat="42.08138" lon="9.15636">
        <ele>1610.931</ele>
        <time>2015-07-02T10:08:57Z</time>
      </trkpt>
      <trkpt lat="42.08132" lon="9.15625">
        <ele>1612.175</ele>
        <time>2015-07-02T10:09:14Z</time>
      </trkpt>
      <trkpt lat="42.08129" lon="9.15619">
        <ele>1612.658</ele>
        <time>2015-07-02T10:09:29Z</time>
      </trkpt>
      <trkpt lat="42.0813" lon="9.15609">
        <ele>1614.101</ele>
        <time>2015-07-02T10:09:49Z</time>
      </trkpt>
      <trkpt lat="42.0813" lon="9.156">
        <ele>1616.33</ele>
        <time>2015-07-02T10:10:05Z</time>
      </trkpt>
      <trkpt lat="42.08125" lon="9.15586">
        <ele>1618.507</ele>
        <time>2015-07-02T10:10:23Z</time>
      </trkpt>
      <trkpt lat="42.08119" lon="9.15576">
        <ele>1618.384</ele>
        <time>2015-07-02T10:10:39Z</time>
      </trkpt>
      <trkpt lat="42.08117" lon="9.15569">
        <ele>1620.031</ele>
        <time>2015-07-02T10:10:54Z</time>
      </trkpt>
      <trkpt lat="42.08114" lon="9.15561">
        <ele>1622.477</ele>
        <time>2015-07-02T10:11:12Z</time>
      </trkpt>
      <trkpt lat="42.0811" lon="9.15553">
        <ele>1623.842</ele>
        <time>2015-07-02T10:11:27Z</time>
      </trkpt>
      <trkpt lat="42.08103" lon="9.15547">
        <ele>1625.214</ele>
        <time>2015-07-02T10:11:42Z</time>
      </trkpt>
      <trkpt lat="42.08097" lon="9.15538">
        <ele>1626.355</ele>
        <time>2015-07-02T10:11:58Z</time>
      </trkpt>
      <trkpt lat="42.08097" lon="9.15531">
        <ele>1628.644</ele>
        <time>2015-07-02T10:12:13Z</time>
      </trkpt>
      <trkpt lat="42.08097" lon="9.15525">
        <ele>1629.104</ele>
        <time>2015-07-02T10:12:29Z</time>
      </trkpt>
      <trkpt lat="42.08095" lon="9.15517">
        <ele>1631.84</ele>
        <time>2015-07-02T10:12:44Z</time>
      </trkpt>
      <trkpt lat="42.08093" lon="9.1551">
        <ele>1632.331</ele>
        <time>2015-07-02T10:13:00Z</time>
      </trkpt>
      <trkpt lat="42.08092" lon="9.15511">
        <ele>1632.4</ele>
        <time>2015-07-02T10:14:17Z</time>
      </trkpt>
      <trkpt lat="42.08087" lon="9.15498">
        <ele>1633.148</ele>
        <time>2015-07-02T10:14:34Z</time>
      </trkpt>
      <trkpt lat="42.08075" lon="9.15484">
        <ele>1633.841</ele>
        <time>2015-07-02T10:14:54Z</time>
      </trkpt>
      <trkpt lat="42.08058" lon="9.15474">
        <ele>1635.008</ele>
        <time>2015-07-02T10:15:16Z</time>
      </trkpt>
      <trkpt lat="42.08041" lon="9.15456">
        <ele>1634.826</ele>
        <time>2015-07-02T10:15:38Z</time>
      </trkpt>
      <trkpt lat="42.08031" lon="9.15433">
        <ele>1637.042</ele>
        <time>2015-07-02T10:16:00Z</time>
      </trkpt>
      <trkpt lat="42.08022" lon="9.15411">
        <ele>1637.158</ele>
        <time>2015-07-02T10:16:22Z</time>
      </trkpt>
      <trkpt lat="42.08008" lon="9.15398">
        <ele>1637.602</ele>
        <time>2015-07-02T10:16:42Z</time>
      </trkpt>
      <trkpt lat="42.07995" lon="9.15395">
        <ele>1635.217</ele>
        <time>2015-07-02T10:17:01Z</time>
      </trkpt>
      <trkpt lat="42.07986" lon="9.15386">
        <ele>1633.457</ele>
        <time>2015-07-02T10:17:17Z</time>
      </trkpt>
      <trkpt lat="42.07982" lon="9.15374">
        <ele>1631.573</ele>
        <time>2015-07-02T10:17:31Z</time>
      </trkpt>
      <trkpt lat="42.07978" lon="9.15364">
        <ele>1631.385</ele>
        <time>2015-07-02T10:17:46Z</time>
      </trkpt>
      <trkpt lat="42.07969" lon="9.15352">
        <ele>1630.157</ele>
        <time>2015-07-02T10:18:04Z</time>
      </trkpt>
      <trkpt lat="42.07965" lon="9.1534">
        <ele>1629.936</ele>
        <time>2015-07-02T10:18:17Z</time>
      </trkpt>
      <trkpt lat="42.07954" lon="9.15331">
        <ele>1627.689</ele>
        <time>2015-07-02T10:18:33Z</time>
      </trkpt>
      <trkpt lat="42.07948" lon="9.15323">
        <ele>1626.613</ele>
        <time>2015-07-02T10:18:42Z</time>
      </trkpt>
      <trkpt lat="42.07939" lon="9.15314">
        <ele>1623.617</ele>
        <time>2015-07-02T10:18:58Z</time>
      </trkpt>
      <trkpt lat="42.07933" lon="9.15303">
        <ele>1623.439</ele>
        <time>2015-07-02T10:19:11Z</time>
      </trkpt>
      <trkpt lat="42.07925" lon="9.15292">
        <ele>1623.334</ele>
        <time>2015-07-02T10:19:23Z</time>
      </trkpt>
      <trkpt lat="42.07919" lon="9.1528">
        <ele>1623.865</ele>
        <time>2015-07-02T10:19:36Z</time>
      </trkpt>
      <trkpt lat="42.07909" lon="9.15274">
        <ele>1623.321</ele>
        <time>2015-07-02T10:19:52Z</time>
      </trkpt>
      <trkpt lat="42.079" lon="9.15273">
        <ele>1622.843</ele>
        <time>2015-07-02T10:20:07Z</time>
      </trkpt>
      <trkpt lat="42.07895" lon="9.15269">
        <ele>1622.931</ele>
        <time>2015-07-02T10:20:20Z</time>
      </trkpt>
      <trkpt lat="42.07889" lon="9.15264">
        <ele>1620.929</ele>
        <time>2015-07-02T10:20:33Z</time>
      </trkpt>
      <trkpt lat="42.07882" lon="9.15259">
        <ele>1619.333</ele>
        <time>2015-07-02T10:20:46Z</time>
      </trkpt>
      <trkpt lat="42.07869" lon="9.15247">
        <ele>1618.174</ele>
        <time>2015-07-02T10:21:02Z</time>
      </trkpt>
      <trkpt lat="42.07866" lon="9.15246">
        <ele>1617.545</ele>
        <time>2015-07-02T10:21:05Z</time>
      </trkpt>
      <trkpt lat="42.07852" lon="9.15228">
        <ele>1616.653</ele>
        <time>2015-07-02T10:21:24Z</time>
      </trkpt>
      <trkpt lat="42.07852" lon="9.15221">
        <ele>1618.937</ele>
        <time>2015-07-02T10:21:34Z</time>
      </trkpt>
      <trkpt lat="42.07855" lon="9.15213">
        <ele>1620.835</ele>
        <time>2015-07-02T10:21:50Z</time>
      </trkpt>
      <trkpt lat="42.07847" lon="9.152">
        <ele>1618.814</ele>
        <time>2015-07-02T10:22:06Z</time>
      </trkpt>
      <trkpt lat="42.07841" lon="9.15193">
        <ele>1616.236</ele>
        <time>2015-07-02T10:22:19Z</time>
      </trkpt>
      <trkpt lat="42.07837" lon="9.15178">
        <ele>1618.031</ele>
        <time>2015-07-02T10:22:35Z</time>
      </trkpt>
      <trkpt lat="42.07831" lon="9.15168">
        <ele>1619.479</ele>
        <time>2015-07-02T10:22:49Z</time>
      </trkpt>
      <trkpt lat="42.07828" lon="9.15162">
        <ele>1621.606</ele>
        <time>2015-07-02T10:23:03Z</time>
      </trkpt>
      <trkpt lat="42.07825" lon="9.15156">
        <ele>1623.065</ele>
        <time>2015-07-02T10:23:16Z</time>
      </trkpt>
      <trkpt lat="42.07822" lon="9.15154">
        <ele>1623.083</ele>
        <time>2015-07-02T10:23:27Z</time>
      </trkpt>
      <trkpt lat="42.07818" lon="9.15153">
        <ele>1621.83</ele>
        <time>2015-07-02T10:23:38Z</time>
      </trkpt>
      <trkpt lat="42.07815" lon="9.15147">
        <ele>1620.532</ele>
        <time>2015-07-02T10:23:52Z</time>
      </trkpt>
      <trkpt lat="42.07812" lon="9.15144">
        <ele>1618.107</ele>
        <time>2015-07-02T10:24:04Z</time>
      </trkpt>
      <trkpt lat="42.07812" lon="9.15142">
        <ele>1618.339</ele>
        <time>2015-07-02T10:24:20Z</time>
      </trkpt>
      <trkpt lat="42.07809" lon="9.15137">
        <ele>1619.272</ele>
        <time>2015-07-02T10:24:34Z</time>
      </trkpt>
      <trkpt lat="42.07803" lon="9.1513">
        <ele>1619.153</ele>
        <time>2015-07-02T10:24:46Z</time>
      </trkpt>
      <trkpt lat="42.078" lon="9.15126">
        <ele>1617.473</ele>
        <time>2015-07-02T10:25:00Z</time>
      </trkpt>
      <trkpt lat="42.07794" lon="9.1512">
        <ele>1616.45</ele>
        <time>2015-07-02T10:25:12Z</time>
      </trkpt>
      <trkpt lat="42.0779" lon="9.1511">
        <ele>1616.326</ele>
        <time>2015-07-02T10:25:25Z</time>
      </trkpt>
      <trkpt lat="42.07791" lon="9.15103">
        <ele>1616.989</ele>
        <time>2015-07-02T10:25:39Z</time>
      </trkpt>
      <trkpt lat="42.07787" lon="9.15094">
        <ele>1617.413</ele>
        <time>2015-07-02T10:25:53Z</time>
      </trkpt>
      <trkpt lat="42.07784" lon="9.15085">
        <ele>1618.937</ele>
        <time>2015-07-02T10:26:08Z</time>
      </trkpt>
      <trkpt lat="42.07781" lon="9.15073">
        <ele>1620.448</ele>
        <time>2015-07-02T10:26:24Z</time>
      </trkpt>
      <trkpt lat="42.07778" lon="9.15061">
        <ele>1621.434</ele>
        <time>2015-07-02T10:26:38Z</time>
      </trkpt>
      <trkpt lat="42.07773" lon="9.15047">
        <ele>1618.956</ele>
        <time>2015-07-02T10:26:55Z</time>
      </trkpt>
      <trkpt lat="42.07767" lon="9.15041">
        <ele>1616.479</ele>
        <time>2015-07-02T10:27:11Z</time>
      </trkpt>
      <trkpt lat="42.0776" lon="9.15035">
        <ele>1614.686</ele>
        <time>2015-07-02T10:27:25Z</time>
      </trkpt>
      <trkpt lat="42.07755" lon="9.15021">
        <ele>1613.168</ele>
        <time>2015-07-02T10:27:40Z</time>
      </trkpt>
      <trkpt lat="42.07757" lon="9.1501">
        <ele>1614.35</ele>
        <time>2015-07-02T10:27:55Z</time>
      </trkpt>
      <trkpt lat="42.07756" lon="9.14993">
        <ele>1614.407</ele>
        <time>2015-07-02T10:28:12Z</time>
      </trkpt>
      <trkpt lat="42.07759" lon="9.14983">
        <ele>1615.14</ele>
        <time>2015-07-02T10:28:31Z</time>
      </trkpt>
      <trkpt lat="42.0776" lon="9.14978">
        <ele>1615.311</ele>
        <time>2015-07-02T10:28:47Z</time>
      </trkpt>
      <trkpt lat="42.07761" lon="9.14974">
        <ele>1615.078</ele>
        <time>2015-07-02T10:29:07Z</time>
      </trkpt>
      <trkpt lat="42.07759" lon="9.1497">
        <ele>1613.737</ele>
        <time>2015-07-02T10:29:25Z</time>
      </trkpt>
      <trkpt lat="42.07755" lon="9.1497">
        <ele>1613.474</ele>
        <time>2015-07-02T10:29:40Z</time>
      </trkpt>
      <trkpt lat="42.07755" lon="9.1497">
        <ele>1612.079</ele>
        <time>2015-07-02T10:29:58Z</time>
      </trkpt>
      <trkpt lat="42.07754" lon="9.1497">
        <ele>1611.941</ele>
        <time>2015-07-02T10:30:17Z</time>
      </trkpt>
      <trkpt lat="42.07751" lon="9.14971">
        <ele>1612.735</ele>
        <time>2015-07-02T10:30:49Z</time>
      </trkpt>
      <trkpt lat="42.07754" lon="9.14973">
        <ele>1613.527</ele>
        <time>2015-07-02T10:31:32Z</time>
      </trkpt>
      <trkpt lat="42.07753" lon="9.14971">
        <ele>1611.32</ele>
        <time>2015-07-02T10:31:56Z</time>
      </trkpt>
    </trkseg>
  </trk>
</gpx>